<?xml version="1.0" encoding="UTF-8" standalone="no" ?>
<gpx xmlns="http://www.topografix.com/GPX/1/1" xmlns:xsi="http://www.w3.org/2001/XMLSchema-instance" xsi:schemaLocation="http://www.topografix.com/GPX/1/1 http://www.topografix.com/GPX/1/1/gpx.xsd" version="1.1" creator="VisuGPX - https://www.visugpx.com">
  <metadata>
    <name>Hagneck, Sutz</name>
  </metadata>
  <trk>
    <name><![CDATA[Hagneck, Sutz_1]]></name>
    <trkseg>
      <trkpt lat="47.05481" lon="7.18337">
        <ele>448.5</ele>
        <time>2021-03-10T10:00:00.000Z</time>
      </trkpt>
      <trkpt lat="47.05497" lon="7.18366">
        <ele>446.6</ele>
        <time>2021-03-10T10:00:05.708Z</time>
      </trkpt>
      <trkpt lat="47.055" lon="7.18382">
        <ele>445.5</ele>
        <time>2021-03-10T10:00:08.247Z</time>
      </trkpt>
      <trkpt lat="47.05569" lon="7.18462">
        <ele>444.7</ele>
        <time>2021-03-10T10:00:40.335Z</time>
      </trkpt>
      <trkpt lat="47.05592" lon="7.185">
        <ele>447.5</ele>
        <time>2021-03-10T10:01:56.703Z</time>
      </trkpt>
      <trkpt lat="47.05593" lon="7.18499">
        <ele>447.5</ele>
        <time>2021-03-10T10:01:57.920Z</time>
      </trkpt>
      <trkpt lat="47.05593" lon="7.18501">
        <ele>447.6</ele>
        <time>2021-03-10T10:02:00.752Z</time>
      </trkpt>
      <trkpt lat="47.05639" lon="7.18543">
        <ele>450.4</ele>
        <time>2021-03-10T10:03:37.130Z</time>
      </trkpt>
      <trkpt lat="47.05672" lon="7.186">
        <ele>452</ele>
        <time>2021-03-10T10:04:49.107Z</time>
      </trkpt>
      <trkpt lat="47.05674" lon="7.1857">
        <ele>452.3</ele>
        <time>2021-03-10T10:05:12.963Z</time>
      </trkpt>
      <trkpt lat="47.05816" lon="7.18422">
        <ele>461.1</ele>
        <time>2021-03-10T10:10:20.443Z</time>
      </trkpt>
      <trkpt lat="47.05872" lon="7.18363">
        <ele>465.7</ele>
        <time>2021-03-10T10:12:36.657Z</time>
      </trkpt>
      <trkpt lat="47.05906" lon="7.18287">
        <ele>471.4</ele>
        <time>2021-03-10T10:15:07.046Z</time>
      </trkpt>
      <trkpt lat="47.05918" lon="7.18284">
        <ele>472.9</ele>
        <time>2021-03-10T10:15:48.215Z</time>
      </trkpt>
      <trkpt lat="47.05946" lon="7.18361">
        <ele>471</ele>
        <time>2021-03-10T10:16:04.813Z</time>
      </trkpt>
      <trkpt lat="47.05967" lon="7.18438">
        <ele>467.07</ele>
        <time>2021-03-10T10:16:17.500Z</time>
      </trkpt>
      <trkpt lat="47.05977" lon="7.18464">
        <ele>467.45</ele>
        <time>2021-03-10T10:16:42.192Z</time>
      </trkpt>
      <trkpt lat="47.05984" lon="7.18461">
        <ele>467.57</ele>
        <time>2021-03-10T10:16:50.832Z</time>
      </trkpt>
      <trkpt lat="47.05987" lon="7.18459">
        <ele>468.02</ele>
        <time>2021-03-10T10:17:03.619Z</time>
      </trkpt>
      <trkpt lat="47.06017" lon="7.18432">
        <ele>469.57</ele>
        <time>2021-03-10T10:18:02.976Z</time>
      </trkpt>
      <trkpt lat="47.0602" lon="7.18429">
        <ele>469.46</ele>
        <time>2021-03-10T10:18:04.007Z</time>
      </trkpt>
      <trkpt lat="47.06024" lon="7.18428">
        <ele>469.34</ele>
        <time>2021-03-10T10:18:05.168Z</time>
      </trkpt>
      <trkpt lat="47.06028" lon="7.18428">
        <ele>469.38</ele>
        <time>2021-03-10T10:18:09.598Z</time>
      </trkpt>
      <trkpt lat="47.06031" lon="7.18428">
        <ele>469.56</ele>
        <time>2021-03-10T10:18:15.247Z</time>
      </trkpt>
      <trkpt lat="47.06034" lon="7.1843">
        <ele>469.7</ele>
        <time>2021-03-10T10:18:20.675Z</time>
      </trkpt>
      <trkpt lat="47.06037" lon="7.18433">
        <ele>469.82</ele>
        <time>2021-03-10T10:18:25.913Z</time>
      </trkpt>
      <trkpt lat="47.06041" lon="7.18438">
        <ele>469.79</ele>
        <time>2021-03-10T10:18:30.775Z</time>
      </trkpt>
      <trkpt lat="47.06046" lon="7.18447">
        <ele>469.92</ele>
        <time>2021-03-10T10:18:40.146Z</time>
      </trkpt>
      <trkpt lat="47.06059" lon="7.18475">
        <ele>470.26</ele>
        <time>2021-03-10T10:19:06.995Z</time>
      </trkpt>
      <trkpt lat="47.06085" lon="7.18527">
        <ele>471.35</ele>
        <time>2021-03-10T10:20:04.209Z</time>
      </trkpt>
      <trkpt lat="47.06084" lon="7.18527">
        <ele>471.35</ele>
        <time>2021-03-10T10:20:05.215Z</time>
      </trkpt>
      <trkpt lat="47.06102" lon="7.18562">
        <ele>472.44</ele>
        <time>2021-03-10T10:20:50.364Z</time>
      </trkpt>
      <trkpt lat="47.06135" lon="7.1863">
        <ele>473.13</ele>
        <time>2021-03-10T10:21:54.748Z</time>
      </trkpt>
      <trkpt lat="47.06151" lon="7.18662">
        <ele>473.49</ele>
        <time>2021-03-10T10:22:25.735Z</time>
      </trkpt>
      <trkpt lat="47.06178" lon="7.18714">
        <ele>474.64</ele>
        <time>2021-03-10T10:23:24.434Z</time>
      </trkpt>
      <trkpt lat="47.06194" lon="7.18746">
        <ele>475.66</ele>
        <time>2021-03-10T10:24:06.007Z</time>
      </trkpt>
      <trkpt lat="47.06233" lon="7.18826">
        <ele>478.15</ele>
        <time>2021-03-10T10:25:48.227Z</time>
      </trkpt>
      <trkpt lat="47.0624" lon="7.18838">
        <ele>478.33</ele>
        <time>2021-03-10T10:26:01.015Z</time>
      </trkpt>
      <trkpt lat="47.06246" lon="7.18847">
        <ele>478.19</ele>
        <time>2021-03-10T10:26:03.869Z</time>
      </trkpt>
      <trkpt lat="47.06252" lon="7.18856">
        <ele>478.09</ele>
        <time>2021-03-10T10:26:06.895Z</time>
      </trkpt>
      <trkpt lat="47.0626" lon="7.18865">
        <ele>478.07</ele>
        <time>2021-03-10T10:26:16.737Z</time>
      </trkpt>
      <trkpt lat="47.06268" lon="7.18875">
        <ele>477.92</ele>
        <time>2021-03-10T10:26:20.322Z</time>
      </trkpt>
      <trkpt lat="47.0628" lon="7.18887">
        <ele>477.9</ele>
        <time>2021-03-10T10:26:34.630Z</time>
      </trkpt>
      <trkpt lat="47.06301" lon="7.18907">
        <ele>478.07</ele>
        <time>2021-03-10T10:27:01.489Z</time>
      </trkpt>
      <trkpt lat="47.06337" lon="7.18941">
        <ele>478.3</ele>
        <time>2021-03-10T10:27:46.791Z</time>
      </trkpt>
      <trkpt lat="47.06356" lon="7.18959">
        <ele>478.72</ele>
        <time>2021-03-10T10:28:14.209Z</time>
      </trkpt>
      <trkpt lat="47.06384" lon="7.18986">
        <ele>479.35</ele>
        <time>2021-03-10T10:28:54.932Z</time>
      </trkpt>
      <trkpt lat="47.06403" lon="7.19006">
        <ele>479.57</ele>
        <time>2021-03-10T10:29:20.676Z</time>
      </trkpt>
      <trkpt lat="47.06409" lon="7.19011">
        <ele>479.63</ele>
        <time>2021-03-10T10:29:28.219Z</time>
      </trkpt>
      <trkpt lat="47.06419" lon="7.19022">
        <ele>479.93</ele>
        <time>2021-03-10T10:29:44.337Z</time>
      </trkpt>
      <trkpt lat="47.06426" lon="7.19032">
        <ele>480.31</ele>
        <time>2021-03-10T10:29:59.607Z</time>
      </trkpt>
      <trkpt lat="47.06433" lon="7.19042">
        <ele>480.55</ele>
        <time>2021-03-10T10:30:12.289Z</time>
      </trkpt>
      <trkpt lat="47.06441" lon="7.19053">
        <ele>480.74</ele>
        <time>2021-03-10T10:30:25.400Z</time>
      </trkpt>
      <trkpt lat="47.06448" lon="7.19066">
        <ele>480.97</ele>
        <time>2021-03-10T10:30:39.364Z</time>
      </trkpt>
      <trkpt lat="47.0646" lon="7.19086">
        <ele>481.55</ele>
        <time>2021-03-10T10:31:05.189Z</time>
      </trkpt>
      <trkpt lat="47.06468" lon="7.19099">
        <ele>481.98</ele>
        <time>2021-03-10T10:31:23.113Z</time>
      </trkpt>
      <trkpt lat="47.06476" lon="7.19111">
        <ele>482.21</ele>
        <time>2021-03-10T10:31:37.220Z</time>
      </trkpt>
      <trkpt lat="47.06495" lon="7.19138">
        <ele>482.73</ele>
        <time>2021-03-10T10:32:09.673Z</time>
      </trkpt>
      <trkpt lat="47.06506" lon="7.19152">
        <ele>483.17</ele>
        <time>2021-03-10T10:32:29.930Z</time>
      </trkpt>
      <trkpt lat="47.06521" lon="7.1917">
        <ele>483.59</ele>
        <time>2021-03-10T10:32:54.254Z</time>
      </trkpt>
      <trkpt lat="47.06526" lon="7.19176">
        <ele>483.65</ele>
        <time>2021-03-10T10:33:01.356Z</time>
      </trkpt>
      <trkpt lat="47.06531" lon="7.19181">
        <ele>483.89</ele>
        <time>2021-03-10T10:33:10.918Z</time>
      </trkpt>
      <trkpt lat="47.06542" lon="7.1919">
        <ele>484.16</ele>
        <time>2021-03-10T10:33:26.686Z</time>
      </trkpt>
      <trkpt lat="47.0655" lon="7.19196">
        <ele>484.52</ele>
        <time>2021-03-10T10:33:40.968Z</time>
      </trkpt>
      <trkpt lat="47.0657" lon="7.19208">
        <ele>485.06</ele>
        <time>2021-03-10T10:34:09.162Z</time>
      </trkpt>
      <trkpt lat="47.0662" lon="7.19237">
        <ele>486.6</ele>
        <time>2021-03-10T10:35:22.500Z</time>
      </trkpt>
      <trkpt lat="47.0664" lon="7.1925">
        <ele>487.47</ele>
        <time>2021-03-10T10:35:57.123Z</time>
      </trkpt>
      <trkpt lat="47.06651" lon="7.19258">
        <ele>488.01</ele>
        <time>2021-03-10T10:36:17.811Z</time>
      </trkpt>
      <trkpt lat="47.06663" lon="7.19268">
        <ele>488.61</ele>
        <time>2021-03-10T10:36:40.885Z</time>
      </trkpt>
      <trkpt lat="47.06667" lon="7.19272">
        <ele>488.68</ele>
        <time>2021-03-10T10:36:46.499Z</time>
      </trkpt>
      <trkpt lat="47.06671" lon="7.19277">
        <ele>488.94</ele>
        <time>2021-03-10T10:36:55.711Z</time>
      </trkpt>
      <trkpt lat="47.06679" lon="7.1929">
        <ele>489.43</ele>
        <time>2021-03-10T10:37:14.958Z</time>
      </trkpt>
      <trkpt lat="47.06643" lon="7.1934">
        <ele>488.14</ele>
        <time>2021-03-10T10:37:29.689Z</time>
      </trkpt>
      <trkpt lat="47.06629" lon="7.19358">
        <ele>487.81</ele>
        <time>2021-03-10T10:37:35.773Z</time>
      </trkpt>
      <trkpt lat="47.06628" lon="7.19359">
        <ele>487.75</ele>
        <time>2021-03-10T10:37:36.059Z</time>
      </trkpt>
      <trkpt lat="47.06628" lon="7.1936">
        <ele>487.75</ele>
        <time>2021-03-10T10:37:36.745Z</time>
      </trkpt>
      <trkpt lat="47.06616" lon="7.19378">
        <ele>487.69</ele>
        <time>2021-03-10T10:37:53.129Z</time>
      </trkpt>
      <trkpt lat="47.06612" lon="7.19386">
        <ele>487.6</ele>
        <time>2021-03-10T10:37:55.464Z</time>
      </trkpt>
      <trkpt lat="47.0661" lon="7.19391">
        <ele>487.63</ele>
        <time>2021-03-10T10:37:59.735Z</time>
      </trkpt>
      <trkpt lat="47.06608" lon="7.19398">
        <ele>487.57</ele>
        <time>2021-03-10T10:38:01.560Z</time>
      </trkpt>
      <trkpt lat="47.06605" lon="7.19407">
        <ele>487.22</ele>
        <time>2021-03-10T10:38:03.150Z</time>
      </trkpt>
      <trkpt lat="47.06601" lon="7.19416">
        <ele>487.34</ele>
        <time>2021-03-10T10:38:11.817Z</time>
      </trkpt>
      <trkpt lat="47.06597" lon="7.19426">
        <ele>487.12</ele>
        <time>2021-03-10T10:38:14.119Z</time>
      </trkpt>
      <trkpt lat="47.06581" lon="7.19456">
        <ele>487.96</ele>
        <time>2021-03-10T10:38:51.238Z</time>
      </trkpt>
      <trkpt lat="47.06579" lon="7.19462">
        <ele>488.16</ele>
        <time>2021-03-10T10:38:58.902Z</time>
      </trkpt>
      <trkpt lat="47.06577" lon="7.19471">
        <ele>488.45</ele>
        <time>2021-03-10T10:39:09.886Z</time>
      </trkpt>
      <trkpt lat="47.06576" lon="7.19475">
        <ele>488.54</ele>
        <time>2021-03-10T10:39:13.965Z</time>
      </trkpt>
      <trkpt lat="47.06576" lon="7.1948">
        <ele>488.82</ele>
        <time>2021-03-10T10:39:21.560Z</time>
      </trkpt>
      <trkpt lat="47.06577" lon="7.19487">
        <ele>489.2</ele>
        <time>2021-03-10T10:39:32.057Z</time>
      </trkpt>
      <trkpt lat="47.06577" lon="7.19502">
        <ele>489.89</ele>
        <time>2021-03-10T10:39:52.367Z</time>
      </trkpt>
      <trkpt lat="47.06577" lon="7.19517">
        <ele>490.65</ele>
        <time>2021-03-10T10:40:13.762Z</time>
      </trkpt>
      <trkpt lat="47.06577" lon="7.19533">
        <ele>491.44</ele>
        <time>2021-03-10T10:40:36.250Z</time>
      </trkpt>
      <trkpt lat="47.06575" lon="7.19546">
        <ele>491.71</ele>
        <time>2021-03-10T10:40:48.805Z</time>
      </trkpt>
      <trkpt lat="47.06573" lon="7.19558">
        <ele>491.64</ele>
        <time>2021-03-10T10:40:51.909Z</time>
      </trkpt>
      <trkpt lat="47.0657" lon="7.19571">
        <ele>491.64</ele>
        <time>2021-03-10T10:41:01.316Z</time>
      </trkpt>
      <trkpt lat="47.06565" lon="7.19587">
        <ele>491.67</ele>
        <time>2021-03-10T10:41:13.664Z</time>
      </trkpt>
      <trkpt lat="47.06553" lon="7.19628">
        <ele>491.15</ele>
        <time>2021-03-10T10:41:23.679Z</time>
      </trkpt>
      <trkpt lat="47.0655" lon="7.1964">
        <ele>491.47</ele>
        <time>2021-03-10T10:41:36.886Z</time>
      </trkpt>
      <trkpt lat="47.06549" lon="7.19649">
        <ele>491.41</ele>
        <time>2021-03-10T10:41:39.136Z</time>
      </trkpt>
      <trkpt lat="47.06549" lon="7.1966">
        <ele>491.23</ele>
        <time>2021-03-10T10:41:41.413Z</time>
      </trkpt>
      <trkpt lat="47.06548" lon="7.19669">
        <ele>491.41</ele>
        <time>2021-03-10T10:41:49.921Z</time>
      </trkpt>
      <trkpt lat="47.06548" lon="7.19674">
        <ele>491.3</ele>
        <time>2021-03-10T10:41:50.869Z</time>
      </trkpt>
      <trkpt lat="47.06548" lon="7.1968">
        <ele>491.17</ele>
        <time>2021-03-10T10:41:52.011Z</time>
      </trkpt>
      <trkpt lat="47.06549" lon="7.19692">
        <ele>491.38</ele>
        <time>2021-03-10T10:42:02.823Z</time>
      </trkpt>
      <trkpt lat="47.06544" lon="7.19695">
        <ele>491.38</ele>
        <time>2021-03-10T10:42:08.258Z</time>
      </trkpt>
      <trkpt lat="47.06542" lon="7.19697">
        <ele>491.2</ele>
        <time>2021-03-10T10:42:08.801Z</time>
      </trkpt>
      <trkpt lat="47.06535" lon="7.19706">
        <ele>489.91</ele>
        <time>2021-03-10T10:42:10.891Z</time>
      </trkpt>
      <trkpt lat="47.0654" lon="7.19715">
        <ele>490.29</ele>
        <time>2021-03-10T10:42:24.632Z</time>
      </trkpt>
      <trkpt lat="47.06554" lon="7.19744">
        <ele>491.34</ele>
        <time>2021-03-10T10:43:05.050Z</time>
      </trkpt>
      <trkpt lat="47.06562" lon="7.19759">
        <ele>491.87</ele>
        <time>2021-03-10T10:43:25.912Z</time>
      </trkpt>
      <trkpt lat="47.06579" lon="7.19785">
        <ele>492.14</ele>
        <time>2021-03-10T10:43:53.381Z</time>
      </trkpt>
      <trkpt lat="47.06586" lon="7.19797">
        <ele>492.14</ele>
        <time>2021-03-10T10:44:04.209Z</time>
      </trkpt>
      <trkpt lat="47.06604" lon="7.19826">
        <ele>491.91</ele>
        <time>2021-03-10T10:44:14.027Z</time>
      </trkpt>
      <trkpt lat="47.0661" lon="7.19836">
        <ele>491.82</ele>
        <time>2021-03-10T10:44:17.303Z</time>
      </trkpt>
      <trkpt lat="47.06614" lon="7.19843">
        <ele>491.7</ele>
        <time>2021-03-10T10:44:19.301Z</time>
      </trkpt>
      <trkpt lat="47.06614" lon="7.19842">
        <ele>491.7</ele>
        <time>2021-03-10T10:44:19.986Z</time>
      </trkpt>
      <trkpt lat="47.06617" lon="7.19848">
        <ele>491.58</ele>
        <time>2021-03-10T10:44:21.533Z</time>
      </trkpt>
      <trkpt lat="47.0663" lon="7.19871">
        <ele>491.12</ele>
        <time>2021-03-10T10:44:27.821Z</time>
      </trkpt>
      <trkpt lat="47.06641" lon="7.1989">
        <ele>490.77</ele>
        <time>2021-03-10T10:44:33.189Z</time>
      </trkpt>
      <trkpt lat="47.06643" lon="7.19895">
        <ele>490.69</ele>
        <time>2021-03-10T10:44:34.442Z</time>
      </trkpt>
      <trkpt lat="47.06639" lon="7.19899">
        <ele>490.38</ele>
        <time>2021-03-10T10:44:35.458Z</time>
      </trkpt>
      <trkpt lat="47.06629" lon="7.19911">
        <ele>489.5</ele>
        <time>2021-03-10T10:44:38.358Z</time>
      </trkpt>
      <trkpt lat="47.06621" lon="7.19923">
        <ele>488.95</ele>
        <time>2021-03-10T10:44:41.096Z</time>
      </trkpt>
      <trkpt lat="47.06598" lon="7.19962">
        <ele>486.88</ele>
        <time>2021-03-10T10:44:48.775Z</time>
      </trkpt>
      <trkpt lat="47.06577" lon="7.19951">
        <ele>486.51</ele>
        <time>2021-03-10T10:44:56.167Z</time>
      </trkpt>
      <trkpt lat="47.06577" lon="7.1995">
        <ele>486.51</ele>
        <time>2021-03-10T10:44:56.852Z</time>
      </trkpt>
      <trkpt lat="47.06574" lon="7.19948">
        <ele>486.14</ele>
        <time>2021-03-10T10:44:57.592Z</time>
      </trkpt>
      <trkpt lat="47.06552" lon="7.19935">
        <ele>485.47</ele>
        <time>2021-03-10T10:45:04.474Z</time>
      </trkpt>
      <trkpt lat="47.06525" lon="7.19916">
        <ele>484.27</ele>
        <time>2021-03-10T10:45:12.187Z</time>
      </trkpt>
      <trkpt lat="47.06525" lon="7.19928">
        <ele>484.17</ele>
        <time>2021-03-10T10:45:15.049Z</time>
      </trkpt>
      <trkpt lat="47.06525" lon="7.19933">
        <ele>483.82</ele>
        <time>2021-03-10T10:45:15.814Z</time>
      </trkpt>
      <trkpt lat="47.06524" lon="7.19937">
        <ele>483.46</ele>
        <time>2021-03-10T10:45:16.466Z</time>
      </trkpt>
      <trkpt lat="47.06523" lon="7.19941">
        <ele>482.96</ele>
        <time>2021-03-10T10:45:17.117Z</time>
      </trkpt>
      <trkpt lat="47.06512" lon="7.19966">
        <ele>479.2</ele>
        <time>2021-03-10T10:45:21.669Z</time>
      </trkpt>
      <trkpt lat="47.06509" lon="7.19973">
        <ele>478.55</ele>
        <time>2021-03-10T10:45:22.934Z</time>
      </trkpt>
      <trkpt lat="47.06506" lon="7.19982">
        <ele>477.54</ele>
        <time>2021-03-10T10:45:24.467Z</time>
      </trkpt>
      <trkpt lat="47.06505" lon="7.19989">
        <ele>476.86</ele>
        <time>2021-03-10T10:45:25.561Z</time>
      </trkpt>
      <trkpt lat="47.06505" lon="7.19997">
        <ele>476.26</ele>
        <time>2021-03-10T10:45:26.784Z</time>
      </trkpt>
      <trkpt lat="47.06504" lon="7.20003">
        <ele>475.66</ele>
        <time>2021-03-10T10:45:27.729Z</time>
      </trkpt>
      <trkpt lat="47.06505" lon="7.20008">
        <ele>475.48</ele>
        <time>2021-03-10T10:45:28.560Z</time>
      </trkpt>
      <trkpt lat="47.06505" lon="7.20014">
        <ele>475.13</ele>
        <time>2021-03-10T10:45:29.477Z</time>
      </trkpt>
      <trkpt lat="47.06508" lon="7.2003">
        <ele>474.24</ele>
        <time>2021-03-10T10:45:32.015Z</time>
      </trkpt>
      <trkpt lat="47.06511" lon="7.2004">
        <ele>473.71</ele>
        <time>2021-03-10T10:45:33.687Z</time>
      </trkpt>
      <trkpt lat="47.06513" lon="7.20048">
        <ele>473.17</ele>
        <time>2021-03-10T10:45:34.990Z</time>
      </trkpt>
      <trkpt lat="47.06516" lon="7.20059">
        <ele>472.47</ele>
        <time>2021-03-10T10:45:36.802Z</time>
      </trkpt>
      <trkpt lat="47.06524" lon="7.20082">
        <ele>471.58</ele>
        <time>2021-03-10T10:45:40.923Z</time>
      </trkpt>
      <trkpt lat="47.06524" lon="7.20081">
        <ele>471.58</ele>
        <time>2021-03-10T10:45:41.608Z</time>
      </trkpt>
      <trkpt lat="47.06535" lon="7.20114">
        <ele>470.69</ele>
        <time>2021-03-10T10:45:48.343Z</time>
      </trkpt>
      <trkpt lat="47.0654" lon="7.2013">
        <ele>470.51</ele>
        <time>2021-03-10T10:45:52.397Z</time>
      </trkpt>
      <trkpt lat="47.06543" lon="7.2014">
        <ele>470.58</ele>
        <time>2021-03-10T10:46:00.592Z</time>
      </trkpt>
      <trkpt lat="47.06561" lon="7.20189">
        <ele>471.32</ele>
        <time>2021-03-10T10:46:47.054Z</time>
      </trkpt>
      <trkpt lat="47.06569" lon="7.20212">
        <ele>471.47</ele>
        <time>2021-03-10T10:47:06.254Z</time>
      </trkpt>
      <trkpt lat="47.06578" lon="7.20239">
        <ele>471.02</ele>
        <time>2021-03-10T10:47:12.623Z</time>
      </trkpt>
      <trkpt lat="47.06586" lon="7.20259">
        <ele>470.55</ele>
        <time>2021-03-10T10:47:17.135Z</time>
      </trkpt>
      <trkpt lat="47.06598" lon="7.20295">
        <ele>469.33</ele>
        <time>2021-03-10T10:47:23.873Z</time>
      </trkpt>
      <trkpt lat="47.066" lon="7.20301">
        <ele>469.15</ele>
        <time>2021-03-10T10:47:25.051Z</time>
      </trkpt>
      <trkpt lat="47.06601" lon="7.20305">
        <ele>469.15</ele>
        <time>2021-03-10T10:47:27.972Z</time>
      </trkpt>
      <trkpt lat="47.06601" lon="7.20309">
        <ele>468.98</ele>
        <time>2021-03-10T10:47:28.551Z</time>
      </trkpt>
      <trkpt lat="47.066" lon="7.20312">
        <ele>468.8</ele>
        <time>2021-03-10T10:47:29.062Z</time>
      </trkpt>
      <trkpt lat="47.06609" lon="7.20319">
        <ele>469.28</ele>
        <time>2021-03-10T10:47:46.650Z</time>
      </trkpt>
      <trkpt lat="47.06603" lon="7.20371">
        <ele>468.64</ele>
        <time>2021-03-10T10:47:58.385Z</time>
      </trkpt>
      <trkpt lat="47.06601" lon="7.20388">
        <ele>468.5</ele>
        <time>2021-03-10T10:48:02.517Z</time>
      </trkpt>
      <trkpt lat="47.066" lon="7.20398">
        <ele>468.19</ele>
        <time>2021-03-10T10:48:04.211Z</time>
      </trkpt>
      <trkpt lat="47.06598" lon="7.20408">
        <ele>467.38</ele>
        <time>2021-03-10T10:48:05.805Z</time>
      </trkpt>
      <trkpt lat="47.06593" lon="7.20431">
        <ele>466.58</ele>
        <time>2021-03-10T10:48:09.722Z</time>
      </trkpt>
      <trkpt lat="47.06585" lon="7.20469">
        <ele>465.25</ele>
        <time>2021-03-10T10:48:16.152Z</time>
      </trkpt>
      <trkpt lat="47.06581" lon="7.20493">
        <ele>464.31</ele>
        <time>2021-03-10T10:48:19.923Z</time>
      </trkpt>
      <trkpt lat="47.06579" lon="7.20506">
        <ele>463.73</ele>
        <time>2021-03-10T10:48:21.830Z</time>
      </trkpt>
      <trkpt lat="47.06577" lon="7.20516">
        <ele>463.37</ele>
        <time>2021-03-10T10:48:23.491Z</time>
      </trkpt>
      <trkpt lat="47.06574" lon="7.20546">
        <ele>462.86</ele>
        <time>2021-03-10T10:48:29.722Z</time>
      </trkpt>
      <trkpt lat="47.06574" lon="7.20558">
        <ele>462.7</ele>
        <time>2021-03-10T10:48:32.336Z</time>
      </trkpt>
      <trkpt lat="47.06574" lon="7.20569">
        <ele>462.66</ele>
        <time>2021-03-10T10:48:39.306Z</time>
      </trkpt>
      <trkpt lat="47.06575" lon="7.2058">
        <ele>462.48</ele>
        <time>2021-03-10T10:48:41.609Z</time>
      </trkpt>
      <trkpt lat="47.06577" lon="7.20605">
        <ele>462.11</ele>
        <time>2021-03-10T10:48:46.966Z</time>
      </trkpt>
      <trkpt lat="47.06586" lon="7.20695">
        <ele>461.9</ele>
        <time>2021-03-10T10:49:46.235Z</time>
      </trkpt>
      <trkpt lat="47.06588" lon="7.20707">
        <ele>462.34</ele>
        <time>2021-03-10T10:50:01.266Z</time>
      </trkpt>
      <trkpt lat="47.06589" lon="7.20716">
        <ele>462.48</ele>
        <time>2021-03-10T10:50:09.142Z</time>
      </trkpt>
      <trkpt lat="47.066" lon="7.20782">
        <ele>463.3</ele>
        <time>2021-03-10T10:51:04.734Z</time>
      </trkpt>
      <trkpt lat="47.06624" lon="7.20914">
        <ele>461.28</ele>
        <time>2021-03-10T10:51:33.771Z</time>
      </trkpt>
      <trkpt lat="47.06634" lon="7.20973">
        <ele>460.32</ele>
        <time>2021-03-10T10:51:46.478Z</time>
      </trkpt>
      <trkpt lat="47.06653" lon="7.21086">
        <ele>459.3</ele>
        <time>2021-03-10T10:52:14.015Z</time>
      </trkpt>
      <trkpt lat="47.0666" lon="7.21123">
        <ele>458.75</ele>
        <time>2021-03-10T10:52:22.241Z</time>
      </trkpt>
      <trkpt lat="47.0667" lon="7.21181">
        <ele>459.59</ele>
        <time>2021-03-10T10:53:12.791Z</time>
      </trkpt>
      <trkpt lat="47.06681" lon="7.21244">
        <ele>459.63</ele>
        <time>2021-03-10T10:53:57.737Z</time>
      </trkpt>
      <trkpt lat="47.06684" lon="7.21265">
        <ele>459.42</ele>
        <time>2021-03-10T10:54:02.718Z</time>
      </trkpt>
      <trkpt lat="47.06687" lon="7.21277">
        <ele>459.13</ele>
        <time>2021-03-10T10:54:05.115Z</time>
      </trkpt>
      <trkpt lat="47.06689" lon="7.2128">
        <ele>459.27</ele>
        <time>2021-03-10T10:54:10.112Z</time>
      </trkpt>
      <trkpt lat="47.06696" lon="7.21293">
        <ele>459.63</ele>
        <time>2021-03-10T10:54:26.157Z</time>
      </trkpt>
      <trkpt lat="47.06723" lon="7.21344">
        <ele>460.08</ele>
        <time>2021-03-10T10:55:15.004Z</time>
      </trkpt>
      <trkpt lat="47.06732" lon="7.2136">
        <ele>460.43</ele>
        <time>2021-03-10T10:55:33.398Z</time>
      </trkpt>
      <trkpt lat="47.06738" lon="7.21373">
        <ele>460.69</ele>
        <time>2021-03-10T10:55:47.243Z</time>
      </trkpt>
      <trkpt lat="47.0674" lon="7.2138">
        <ele>460.35</ele>
        <time>2021-03-10T10:55:48.314Z</time>
      </trkpt>
      <trkpt lat="47.06741" lon="7.21385">
        <ele>459.78</ele>
        <time>2021-03-10T10:55:49.111Z</time>
      </trkpt>
      <trkpt lat="47.06742" lon="7.2139">
        <ele>459.6</ele>
        <time>2021-03-10T10:55:49.941Z</time>
      </trkpt>
      <trkpt lat="47.06743" lon="7.21396">
        <ele>459.6</ele>
        <time>2021-03-10T10:55:54.175Z</time>
      </trkpt>
      <trkpt lat="47.06743" lon="7.21406">
        <ele>459.42</ele>
        <time>2021-03-10T10:55:56.191Z</time>
      </trkpt>
      <trkpt lat="47.06743" lon="7.21426">
        <ele>459.07</ele>
        <time>2021-03-10T10:56:00.255Z</time>
      </trkpt>
      <trkpt lat="47.06743" lon="7.21436">
        <ele>458.89</ele>
        <time>2021-03-10T10:56:02.271Z</time>
      </trkpt>
      <trkpt lat="47.0674" lon="7.21467">
        <ele>458.89</ele>
        <time>2021-03-10T10:56:23.731Z</time>
      </trkpt>
      <trkpt lat="47.06738" lon="7.21485">
        <ele>458.47</ele>
        <time>2021-03-10T10:56:27.134Z</time>
      </trkpt>
      <trkpt lat="47.06735" lon="7.21516">
        <ele>458.33</ele>
        <time>2021-03-10T10:56:46.633Z</time>
      </trkpt>
      <trkpt lat="47.06734" lon="7.21524">
        <ele>458.04</ele>
        <time>2021-03-10T10:56:47.911Z</time>
      </trkpt>
      <trkpt lat="47.06734" lon="7.2153">
        <ele>458.29</ele>
        <time>2021-03-10T10:56:55.669Z</time>
      </trkpt>
      <trkpt lat="47.06735" lon="7.21532">
        <ele>458.29</ele>
        <time>2021-03-10T10:56:57.370Z</time>
      </trkpt>
      <trkpt lat="47.06735" lon="7.21534">
        <ele>458.26</ele>
        <time>2021-03-10T10:56:57.793Z</time>
      </trkpt>
      <trkpt lat="47.06737" lon="7.21538">
        <ele>458.29</ele>
        <time>2021-03-10T10:57:01.495Z</time>
      </trkpt>
      <trkpt lat="47.0674" lon="7.21545">
        <ele>458.31</ele>
        <time>2021-03-10T10:57:07.354Z</time>
      </trkpt>
      <trkpt lat="47.06744" lon="7.21553">
        <ele>458.48</ele>
        <time>2021-03-10T10:57:16.191Z</time>
      </trkpt>
      <trkpt lat="47.06751" lon="7.21563">
        <ele>458.63</ele>
        <time>2021-03-10T10:57:27.628Z</time>
      </trkpt>
      <trkpt lat="47.06781" lon="7.21606">
        <ele>459.5</ele>
        <time>2021-03-10T10:58:19.715Z</time>
      </trkpt>
      <trkpt lat="47.06781" lon="7.21605">
        <ele>459.5</ele>
        <time>2021-03-10T10:58:20.401Z</time>
      </trkpt>
      <trkpt lat="47.06786" lon="7.21612">
        <ele>460.37</ele>
        <time>2021-03-10T10:58:44.589Z</time>
      </trkpt>
      <trkpt lat="47.06807" lon="7.21642">
        <ele>461.77</ele>
        <time>2021-03-10T10:59:35.403Z</time>
      </trkpt>
      <trkpt lat="47.06812" lon="7.2165">
        <ele>461.9</ele>
        <time>2021-03-10T10:59:44.273Z</time>
      </trkpt>
      <trkpt lat="47.06818" lon="7.21661">
        <ele>462.13</ele>
        <time>2021-03-10T10:59:56.647Z</time>
      </trkpt>
      <trkpt lat="47.06829" lon="7.21683">
        <ele>462.14</ele>
        <time>2021-03-10T11:00:15.444Z</time>
      </trkpt>
      <trkpt lat="47.06835" lon="7.21697">
        <ele>462.35</ele>
        <time>2021-03-10T11:00:29.114Z</time>
      </trkpt>
      <trkpt lat="47.06841" lon="7.21706">
        <ele>462.39</ele>
        <time>2021-03-10T11:00:38.131Z</time>
      </trkpt>
      <trkpt lat="47.06864" lon="7.21743">
        <ele>462.51</ele>
        <time>2021-03-10T11:01:13.605Z</time>
      </trkpt>
      <trkpt lat="47.06889" lon="7.21793">
        <ele>463.16</ele>
        <time>2021-03-10T11:02:03.088Z</time>
      </trkpt>
      <trkpt lat="47.06905" lon="7.21825">
        <ele>463.42</ele>
        <time>2021-03-10T11:02:32.922Z</time>
      </trkpt>
      <trkpt lat="47.06915" lon="7.21847">
        <ele>463.81</ele>
        <time>2021-03-10T11:02:55.532Z</time>
      </trkpt>
      <trkpt lat="47.06931" lon="7.21889">
        <ele>464.26</ele>
        <time>2021-03-10T11:03:33.257Z</time>
      </trkpt>
      <trkpt lat="47.06938" lon="7.2191">
        <ele>464.65</ele>
        <time>2021-03-10T11:03:53.915Z</time>
      </trkpt>
      <trkpt lat="47.06942" lon="7.21925">
        <ele>464.86</ele>
        <time>2021-03-10T11:04:07.302Z</time>
      </trkpt>
      <trkpt lat="47.06944" lon="7.21937">
        <ele>465.06</ele>
        <time>2021-03-10T11:04:18.125Z</time>
      </trkpt>
      <trkpt lat="47.06946" lon="7.21949">
        <ele>465.14</ele>
        <time>2021-03-10T11:04:27.399Z</time>
      </trkpt>
      <trkpt lat="47.06944" lon="7.21951">
        <ele>465.06</ele>
        <time>2021-03-10T11:04:28.067Z</time>
      </trkpt>
      <trkpt lat="47.06942" lon="7.21954">
        <ele>465.03</ele>
        <time>2021-03-10T11:04:29.092Z</time>
      </trkpt>
      <trkpt lat="47.06939" lon="7.2196">
        <ele>464.8</ele>
        <time>2021-03-10T11:04:30.335Z</time>
      </trkpt>
      <trkpt lat="47.06938" lon="7.21965">
        <ele>464.62</ele>
        <time>2021-03-10T11:04:31.166Z</time>
      </trkpt>
      <trkpt lat="47.06937" lon="7.2197">
        <ele>464.5</ele>
        <time>2021-03-10T11:04:32.138Z</time>
      </trkpt>
      <trkpt lat="47.06937" lon="7.21976">
        <ele>464.42</ele>
        <time>2021-03-10T11:04:33.445Z</time>
      </trkpt>
      <trkpt lat="47.06938" lon="7.21982">
        <ele>464.32</ele>
        <time>2021-03-10T11:04:34.727Z</time>
      </trkpt>
      <trkpt lat="47.0694" lon="7.2199">
        <ele>464.26</ele>
        <time>2021-03-10T11:04:36.811Z</time>
      </trkpt>
      <trkpt lat="47.06946" lon="7.22009">
        <ele>464.28</ele>
        <time>2021-03-10T11:04:51.351Z</time>
      </trkpt>
      <trkpt lat="47.0695" lon="7.22024">
        <ele>464.4</ele>
        <time>2021-03-10T11:05:03.620Z</time>
      </trkpt>
      <trkpt lat="47.06959" lon="7.22048">
        <ele>464.74</ele>
        <time>2021-03-10T11:05:26.158Z</time>
      </trkpt>
      <trkpt lat="47.06961" lon="7.22055">
        <ele>464.47</ele>
        <time>2021-03-10T11:05:27.352Z</time>
      </trkpt>
      <trkpt lat="47.06973" lon="7.22051">
        <ele>464.84</ele>
        <time>2021-03-10T11:05:44.440Z</time>
      </trkpt>
      <trkpt lat="47.06977" lon="7.22051">
        <ele>464.91</ele>
        <time>2021-03-10T11:05:49.233Z</time>
      </trkpt>
      <trkpt lat="47.0698" lon="7.22053">
        <ele>464.76</ele>
        <time>2021-03-10T11:05:50.040Z</time>
      </trkpt>
      <trkpt lat="47.06988" lon="7.22061">
        <ele>464.71</ele>
        <time>2021-03-10T11:05:59.066Z</time>
      </trkpt>
      <trkpt lat="47.06992" lon="7.22066">
        <ele>464.57</ele>
        <time>2021-03-10T11:06:00.617Z</time>
      </trkpt>
      <trkpt lat="47.06995" lon="7.22067">
        <ele>464.56</ele>
        <time>2021-03-10T11:06:03.565Z</time>
      </trkpt>
      <trkpt lat="47.06998" lon="7.22068">
        <ele>464.29</ele>
        <time>2021-03-10T11:06:04.256Z</time>
      </trkpt>
      <trkpt lat="47.07003" lon="7.22067">
        <ele>464.44</ele>
        <time>2021-03-10T11:06:11.233Z</time>
      </trkpt>
      <trkpt lat="47.0702" lon="7.22061">
        <ele>465.57</ele>
        <time>2021-03-10T11:06:45.257Z</time>
      </trkpt>
      <trkpt lat="47.0703" lon="7.22059">
        <ele>466.21</ele>
        <time>2021-03-10T11:07:04.725Z</time>
      </trkpt>
      <trkpt lat="47.07035" lon="7.22065">
        <ele>466.82</ele>
        <time>2021-03-10T11:07:20.757Z</time>
      </trkpt>
      <trkpt lat="47.07039" lon="7.22071">
        <ele>467.32</ele>
        <time>2021-03-10T11:07:34.088Z</time>
      </trkpt>
      <trkpt lat="47.07042" lon="7.22076">
        <ele>467.78</ele>
        <time>2021-03-10T11:07:46.123Z</time>
      </trkpt>
      <trkpt lat="47.07045" lon="7.22083">
        <ele>468.19</ele>
        <time>2021-03-10T11:07:57.773Z</time>
      </trkpt>
      <trkpt lat="47.07048" lon="7.22095">
        <ele>468.96</ele>
        <time>2021-03-10T11:08:18.248Z</time>
      </trkpt>
      <trkpt lat="47.07056" lon="7.22125">
        <ele>470.6</ele>
        <time>2021-03-10T11:09:04.324Z</time>
      </trkpt>
      <trkpt lat="47.07066" lon="7.22163">
        <ele>472.17</ele>
        <time>2021-03-10T11:09:55.343Z</time>
      </trkpt>
      <trkpt lat="47.07069" lon="7.22174">
        <ele>472.91</ele>
        <time>2021-03-10T11:10:14.879Z</time>
      </trkpt>
      <trkpt lat="47.07073" lon="7.22184">
        <ele>473.54</ele>
        <time>2021-03-10T11:10:32.142Z</time>
      </trkpt>
      <trkpt lat="47.07075" lon="7.22187">
        <ele>473.78</ele>
        <time>2021-03-10T11:10:38.611Z</time>
      </trkpt>
      <trkpt lat="47.07081" lon="7.22193">
        <ele>474.25</ele>
        <time>2021-03-10T11:10:52.749Z</time>
      </trkpt>
      <trkpt lat="47.07129" lon="7.22236">
        <ele>477.46</ele>
        <time>2021-03-10T11:12:36.499Z</time>
      </trkpt>
      <trkpt lat="47.07136" lon="7.22229">
        <ele>478.09</ele>
        <time>2021-03-10T11:12:54.233Z</time>
      </trkpt>
      <trkpt lat="47.07143" lon="7.22221">
        <ele>479.08</ele>
        <time>2021-03-10T11:13:20.404Z</time>
      </trkpt>
      <trkpt lat="47.0715" lon="7.2221">
        <ele>479.92</ele>
        <time>2021-03-10T11:13:43.216Z</time>
      </trkpt>
      <trkpt lat="47.07156" lon="7.22198">
        <ele>480.73</ele>
        <time>2021-03-10T11:14:05.399Z</time>
      </trkpt>
      <trkpt lat="47.07169" lon="7.22172">
        <ele>482.44</ele>
        <time>2021-03-10T11:14:52.673Z</time>
      </trkpt>
      <trkpt lat="47.0718" lon="7.22151">
        <ele>483.87</ele>
        <time>2021-03-10T11:15:31.947Z</time>
      </trkpt>
      <trkpt lat="47.07184" lon="7.22144">
        <ele>484.19</ele>
        <time>2021-03-10T11:15:42.999Z</time>
      </trkpt>
      <trkpt lat="47.07188" lon="7.22138">
        <ele>484.6</ele>
        <time>2021-03-10T11:15:54.728Z</time>
      </trkpt>
      <trkpt lat="47.07193" lon="7.22133">
        <ele>485.02</ele>
        <time>2021-03-10T11:16:06.924Z</time>
      </trkpt>
      <trkpt lat="47.07196" lon="7.22129">
        <ele>487.73</ele>
        <time>2021-03-10T11:16:22.652Z</time>
      </trkpt>
      <trkpt lat="47.07196" lon="7.2213">
        <ele>487.73</ele>
        <time>2021-03-10T11:16:23.337Z</time>
      </trkpt>
      <trkpt lat="47.07261" lon="7.22067">
        <ele>490.44</ele>
        <time>2021-03-10T11:18:18.368Z</time>
      </trkpt>
      <trkpt lat="47.07296" lon="7.22032">
        <ele>493.92</ele>
        <time>2021-03-10T11:19:52.779Z</time>
      </trkpt>
      <trkpt lat="47.07305" lon="7.22022">
        <ele>494.95</ele>
        <time>2021-03-10T11:20:19.994Z</time>
      </trkpt>
      <trkpt lat="47.07314" lon="7.22017">
        <ele>495.98</ele>
        <time>2021-03-10T11:20:47.028Z</time>
      </trkpt>
      <trkpt lat="47.07319" lon="7.22016">
        <ele>496.35</ele>
        <time>2021-03-10T11:20:57.508Z</time>
      </trkpt>
      <trkpt lat="47.07324" lon="7.22016">
        <ele>496.79</ele>
        <time>2021-03-10T11:21:09.221Z</time>
      </trkpt>
      <trkpt lat="47.07327" lon="7.22017">
        <ele>497.29</ele>
        <time>2021-03-10T11:21:21.161Z</time>
      </trkpt>
      <trkpt lat="47.07331" lon="7.22019">
        <ele>497.7</ele>
        <time>2021-03-10T11:21:31.907Z</time>
      </trkpt>
      <trkpt lat="47.07336" lon="7.22023">
        <ele>498.2</ele>
        <time>2021-03-10T11:21:45.224Z</time>
      </trkpt>
      <trkpt lat="47.0734" lon="7.22027">
        <ele>498.85</ele>
        <time>2021-03-10T11:22:04.007Z</time>
      </trkpt>
      <trkpt lat="47.07345" lon="7.22035">
        <ele>499.5</ele>
        <time>2021-03-10T11:22:21.316Z</time>
      </trkpt>
      <trkpt lat="47.07365" lon="7.22068">
        <ele>502.48</ele>
        <time>2021-03-10T11:23:39.318Z</time>
      </trkpt>
      <trkpt lat="47.0737" lon="7.22075">
        <ele>502.88</ele>
        <time>2021-03-10T11:23:52.137Z</time>
      </trkpt>
      <trkpt lat="47.07374" lon="7.2208">
        <ele>503.55</ele>
        <time>2021-03-10T11:24:10.925Z</time>
      </trkpt>
      <trkpt lat="47.07378" lon="7.22082">
        <ele>503.7</ele>
        <time>2021-03-10T11:24:17.225Z</time>
      </trkpt>
      <trkpt lat="47.07382" lon="7.22084">
        <ele>504.32</ele>
        <time>2021-03-10T11:24:33.625Z</time>
      </trkpt>
      <trkpt lat="47.07385" lon="7.22084">
        <ele>504.57</ele>
        <time>2021-03-10T11:24:40.379Z</time>
      </trkpt>
      <trkpt lat="47.0739" lon="7.22082">
        <ele>505.32</ele>
        <time>2021-03-10T11:25:00.491Z</time>
      </trkpt>
      <trkpt lat="47.07394" lon="7.22081">
        <ele>505.54</ele>
        <time>2021-03-10T11:25:07.833Z</time>
      </trkpt>
      <trkpt lat="47.07398" lon="7.22077">
        <ele>506.19</ele>
        <time>2021-03-10T11:25:26.616Z</time>
      </trkpt>
      <trkpt lat="47.07402" lon="7.22073">
        <ele>506.6</ele>
        <time>2021-03-10T11:25:37.638Z</time>
      </trkpt>
      <trkpt lat="47.07405" lon="7.22067">
        <ele>507.25</ele>
        <time>2021-03-10T11:25:55.935Z</time>
      </trkpt>
      <trkpt lat="47.07406" lon="7.22061">
        <ele>507.56</ele>
        <time>2021-03-10T11:26:04.696Z</time>
      </trkpt>
      <trkpt lat="47.07407" lon="7.22054">
        <ele>507.91</ele>
        <time>2021-03-10T11:26:14.699Z</time>
      </trkpt>
      <trkpt lat="47.07408" lon="7.22044">
        <ele>508.74</ele>
        <time>2021-03-10T11:26:37.228Z</time>
      </trkpt>
      <trkpt lat="47.07408" lon="7.22027">
        <ele>509.59</ele>
        <time>2021-03-10T11:27:01.291Z</time>
      </trkpt>
      <trkpt lat="47.07408" lon="7.22015">
        <ele>510.36</ele>
        <time>2021-03-10T11:27:21.535Z</time>
      </trkpt>
      <trkpt lat="47.07409" lon="7.22005">
        <ele>510.89</ele>
        <time>2021-03-10T11:27:36.248Z</time>
      </trkpt>
      <trkpt lat="47.07412" lon="7.21995">
        <ele>511.84</ele>
        <time>2021-03-10T11:28:02.905Z</time>
      </trkpt>
      <trkpt lat="47.07414" lon="7.21986">
        <ele>512.34</ele>
        <time>2021-03-10T11:28:16.747Z</time>
      </trkpt>
      <trkpt lat="47.07416" lon="7.21979">
        <ele>512.66</ele>
        <time>2021-03-10T11:28:26.612Z</time>
      </trkpt>
      <trkpt lat="47.0742" lon="7.21972">
        <ele>513.31</ele>
        <time>2021-03-10T11:28:43.634Z</time>
      </trkpt>
      <trkpt lat="47.07425" lon="7.21966">
        <ele>513.92</ele>
        <time>2021-03-10T11:28:59.666Z</time>
      </trkpt>
      <trkpt lat="47.07437" lon="7.21956">
        <ele>514.84</ele>
        <time>2021-03-10T11:29:26.921Z</time>
      </trkpt>
      <trkpt lat="47.07443" lon="7.2195">
        <ele>515.59</ele>
        <time>2021-03-10T11:29:46.550Z</time>
      </trkpt>
      <trkpt lat="47.07449" lon="7.21941">
        <ele>516.23</ele>
        <time>2021-03-10T11:30:04.543Z</time>
      </trkpt>
      <trkpt lat="47.07454" lon="7.21931">
        <ele>516.87</ele>
        <time>2021-03-10T11:30:22.425Z</time>
      </trkpt>
      <trkpt lat="47.07459" lon="7.21918">
        <ele>518.13</ele>
        <time>2021-03-10T11:30:57.117Z</time>
      </trkpt>
      <trkpt lat="47.07463" lon="7.21906">
        <ele>519.11</ele>
        <time>2021-03-10T11:31:22.859Z</time>
      </trkpt>
      <trkpt lat="47.07466" lon="7.219">
        <ele>519.55</ele>
        <time>2021-03-10T11:31:34.611Z</time>
      </trkpt>
      <trkpt lat="47.07471" lon="7.21894">
        <ele>520.21</ele>
        <time>2021-03-10T11:31:51.880Z</time>
      </trkpt>
      <trkpt lat="47.07476" lon="7.21888">
        <ele>520.8</ele>
        <time>2021-03-10T11:32:07.466Z</time>
      </trkpt>
      <trkpt lat="47.07481" lon="7.21884">
        <ele>520.95</ele>
        <time>2021-03-10T11:32:15.017Z</time>
      </trkpt>
      <trkpt lat="47.07486" lon="7.21881">
        <ele>521.83</ele>
        <time>2021-03-10T11:32:35.980Z</time>
      </trkpt>
      <trkpt lat="47.07491" lon="7.21879">
        <ele>522.01</ele>
        <time>2021-03-10T11:32:43.628Z</time>
      </trkpt>
      <trkpt lat="47.07501" lon="7.21878">
        <ele>523.13</ele>
        <time>2021-03-10T11:33:13.244Z</time>
      </trkpt>
      <trkpt lat="47.07507" lon="7.21879">
        <ele>523.59</ele>
        <time>2021-03-10T11:33:26.067Z</time>
      </trkpt>
      <trkpt lat="47.07513" lon="7.21881">
        <ele>523.96</ele>
        <time>2021-03-10T11:33:37.663Z</time>
      </trkpt>
      <trkpt lat="47.07522" lon="7.21884">
        <ele>524.26</ele>
        <time>2021-03-10T11:33:50.886Z</time>
      </trkpt>
      <trkpt lat="47.07547" lon="7.21895">
        <ele>525.85</ele>
        <time>2021-03-10T11:34:40.344Z</time>
      </trkpt>
      <trkpt lat="47.0762" lon="7.21927">
        <ele>529.89</ele>
        <time>2021-03-10T11:36:57.098Z</time>
      </trkpt>
      <trkpt lat="47.07627" lon="7.21931">
        <ele>530.4</ele>
        <time>2021-03-10T11:37:12.070Z</time>
      </trkpt>
      <trkpt lat="47.07629" lon="7.21933">
        <ele>530.44</ele>
        <time>2021-03-10T11:37:14.939Z</time>
      </trkpt>
      <trkpt lat="47.07636" lon="7.2194">
        <ele>530.79</ele>
        <time>2021-03-10T11:37:28.651Z</time>
      </trkpt>
      <trkpt lat="47.07643" lon="7.21948">
        <ele>530.88</ele>
        <time>2021-03-10T11:37:38.491Z</time>
      </trkpt>
      <trkpt lat="47.07662" lon="7.21972">
        <ele>531.95</ele>
        <time>2021-03-10T11:38:19.905Z</time>
      </trkpt>
      <trkpt lat="47.07674" lon="7.21987">
        <ele>532.53</ele>
        <time>2021-03-10T11:38:43.826Z</time>
      </trkpt>
      <trkpt lat="47.07678" lon="7.21992">
        <ele>532.7</ele>
        <time>2021-03-10T11:38:51.339Z</time>
      </trkpt>
      <trkpt lat="47.07678" lon="7.21991">
        <ele>532.7</ele>
        <time>2021-03-10T11:38:52.024Z</time>
      </trkpt>
      <trkpt lat="47.07683" lon="7.21998">
        <ele>532.87</ele>
        <time>2021-03-10T11:39:00.998Z</time>
      </trkpt>
      <trkpt lat="47.0769" lon="7.22005">
        <ele>533.36</ele>
        <time>2021-03-10T11:39:16.708Z</time>
      </trkpt>
      <trkpt lat="47.07697" lon="7.22011">
        <ele>533.66</ele>
        <time>2021-03-10T11:39:29.047Z</time>
      </trkpt>
      <trkpt lat="47.07705" lon="7.22016">
        <ele>534.02</ele>
        <time>2021-03-10T11:39:43.141Z</time>
      </trkpt>
      <trkpt lat="47.07716" lon="7.22021">
        <ele>534.53</ele>
        <time>2021-03-10T11:40:02.636Z</time>
      </trkpt>
      <trkpt lat="47.07725" lon="7.22025">
        <ele>535.01</ele>
        <time>2021-03-10T11:40:19.295Z</time>
      </trkpt>
      <trkpt lat="47.07732" lon="7.22026">
        <ele>535.47</ele>
        <time>2021-03-10T11:40:33.058Z</time>
      </trkpt>
      <trkpt lat="47.07765" lon="7.22029">
        <ele>536.84</ele>
        <time>2021-03-10T11:41:26.678Z</time>
      </trkpt>
      <trkpt lat="47.078" lon="7.22032">
        <ele>538.5</ele>
        <time>2021-03-10T11:42:27.309Z</time>
      </trkpt>
      <trkpt lat="47.07808" lon="7.22031">
        <ele>538.96</ele>
        <time>2021-03-10T11:42:42.144Z</time>
      </trkpt>
      <trkpt lat="47.07826" lon="7.22029">
        <ele>539.79</ele>
        <time>2021-03-10T11:43:13.089Z</time>
      </trkpt>
      <trkpt lat="47.07844" lon="7.22025">
        <ele>540.89</ele>
        <time>2021-03-10T11:43:47.467Z</time>
      </trkpt>
      <trkpt lat="47.07864" lon="7.22021">
        <ele>541.15</ele>
        <time>2021-03-10T11:44:10.494Z</time>
      </trkpt>
      <trkpt lat="47.07875" lon="7.22017">
        <ele>541.19</ele>
        <time>2021-03-10T11:44:22.278Z</time>
      </trkpt>
      <trkpt lat="47.07878" lon="7.22017">
        <ele>541.07</ele>
        <time>2021-03-10T11:44:23.051Z</time>
      </trkpt>
      <trkpt lat="47.07883" lon="7.22017">
        <ele>541.14</ele>
        <time>2021-03-10T11:44:28.822Z</time>
      </trkpt>
      <trkpt lat="47.07887" lon="7.22017">
        <ele>540.98</ele>
        <time>2021-03-10T11:44:29.854Z</time>
      </trkpt>
      <trkpt lat="47.07889" lon="7.22017">
        <ele>540.96</ele>
        <time>2021-03-10T11:44:30.575Z</time>
      </trkpt>
      <trkpt lat="47.07894" lon="7.22017">
        <ele>541.15</ele>
        <time>2021-03-10T11:44:38.292Z</time>
      </trkpt>
      <trkpt lat="47.07902" lon="7.22015">
        <ele>541.23</ele>
        <time>2021-03-10T11:44:47.268Z</time>
      </trkpt>
      <trkpt lat="47.07912" lon="7.22012">
        <ele>541.15</ele>
        <time>2021-03-10T11:44:51.057Z</time>
      </trkpt>
      <trkpt lat="47.07917" lon="7.2201">
        <ele>541.23</ele>
        <time>2021-03-10T11:44:57.130Z</time>
      </trkpt>
      <trkpt lat="47.07922" lon="7.22011">
        <ele>541.3</ele>
        <time>2021-03-10T11:45:02.947Z</time>
      </trkpt>
      <trkpt lat="47.07926" lon="7.22012">
        <ele>541.27</ele>
        <time>2021-03-10T11:45:04.462Z</time>
      </trkpt>
      <trkpt lat="47.07929" lon="7.22014">
        <ele>541.24</ele>
        <time>2021-03-10T11:45:05.664Z</time>
      </trkpt>
      <trkpt lat="47.07932" lon="7.22016">
        <ele>541.35</ele>
        <time>2021-03-10T11:45:10.440Z</time>
      </trkpt>
      <trkpt lat="47.07934" lon="7.2202">
        <ele>541.39</ele>
        <time>2021-03-10T11:45:14.254Z</time>
      </trkpt>
      <trkpt lat="47.07957" lon="7.22052">
        <ele>541.86</ele>
        <time>2021-03-10T11:45:51.148Z</time>
      </trkpt>
      <trkpt lat="47.07985" lon="7.22089">
        <ele>542.21</ele>
        <time>2021-03-10T11:46:32.575Z</time>
      </trkpt>
      <trkpt lat="47.0801" lon="7.22121">
        <ele>540.6</ele>
        <time>2021-03-10T11:46:40.483Z</time>
      </trkpt>
      <trkpt lat="47.0802" lon="7.22134">
        <ele>540.19</ele>
        <time>2021-03-10T11:46:44.260Z</time>
      </trkpt>
      <trkpt lat="47.08024" lon="7.22136">
        <ele>540.37</ele>
        <time>2021-03-10T11:46:51.232Z</time>
      </trkpt>
      <trkpt lat="47.08026" lon="7.22138">
        <ele>540.11</ele>
        <time>2021-03-10T11:46:51.776Z</time>
      </trkpt>
      <trkpt lat="47.08031" lon="7.22138">
        <ele>540.16</ele>
        <time>2021-03-10T11:46:57.314Z</time>
      </trkpt>
      <trkpt lat="47.08033" lon="7.22137">
        <ele>540.07</ele>
        <time>2021-03-10T11:46:57.845Z</time>
      </trkpt>
      <trkpt lat="47.08036" lon="7.22136">
        <ele>539.94</ele>
        <time>2021-03-10T11:46:58.622Z</time>
      </trkpt>
      <trkpt lat="47.08039" lon="7.22133">
        <ele>539.91</ele>
        <time>2021-03-10T11:46:59.961Z</time>
      </trkpt>
      <trkpt lat="47.08057" lon="7.22108">
        <ele>539.2</ele>
        <time>2021-03-10T11:47:07.120Z</time>
      </trkpt>
      <trkpt lat="47.08068" lon="7.22093">
        <ele>538.23</ele>
        <time>2021-03-10T11:47:10.256Z</time>
      </trkpt>
      <trkpt lat="47.08077" lon="7.22082">
        <ele>537.54</ele>
        <time>2021-03-10T11:47:12.815Z</time>
      </trkpt>
      <trkpt lat="47.08082" lon="7.22089">
        <ele>537.61</ele>
        <time>2021-03-10T11:47:20.477Z</time>
      </trkpt>
      <trkpt lat="47.08088" lon="7.22097">
        <ele>537.65</ele>
        <time>2021-03-10T11:47:29.018Z</time>
      </trkpt>
      <trkpt lat="47.08095" lon="7.22106">
        <ele>537.53</ele>
        <time>2021-03-10T11:47:32.248Z</time>
      </trkpt>
      <trkpt lat="47.08115" lon="7.22127">
        <ele>537.01</ele>
        <time>2021-03-10T11:47:39.969Z</time>
      </trkpt>
      <trkpt lat="47.08122" lon="7.22136">
        <ele>537.04</ele>
        <time>2021-03-10T11:47:49.616Z</time>
      </trkpt>
      <trkpt lat="47.08135" lon="7.22157">
        <ele>536.84</ele>
        <time>2021-03-10T11:47:56.552Z</time>
      </trkpt>
      <trkpt lat="47.08153" lon="7.22184">
        <ele>535.9</ele>
        <time>2021-03-10T11:48:03.411Z</time>
      </trkpt>
      <trkpt lat="47.08173" lon="7.22218">
        <ele>535.02</ele>
        <time>2021-03-10T11:48:12.241Z</time>
      </trkpt>
      <trkpt lat="47.08183" lon="7.22235">
        <ele>534.78</ele>
        <time>2021-03-10T11:48:17.369Z</time>
      </trkpt>
      <trkpt lat="47.08194" lon="7.22257">
        <ele>534.86</ele>
        <time>2021-03-10T11:48:36.838Z</time>
      </trkpt>
      <trkpt lat="47.08211" lon="7.22293">
        <ele>534.66</ele>
        <time>2021-03-10T11:49:04.059Z</time>
      </trkpt>
      <trkpt lat="47.08255" lon="7.22388">
        <ele>534.82</ele>
        <time>2021-03-10T11:50:24.284Z</time>
      </trkpt>
      <trkpt lat="47.08255" lon="7.22387">
        <ele>534.82</ele>
        <time>2021-03-10T11:50:24.969Z</time>
      </trkpt>
      <trkpt lat="47.08257" lon="7.22392">
        <ele>534.97</ele>
        <time>2021-03-10T11:50:31.062Z</time>
      </trkpt>
      <trkpt lat="47.08275" lon="7.22427">
        <ele>534.77</ele>
        <time>2021-03-10T11:50:58.318Z</time>
      </trkpt>
      <trkpt lat="47.08292" lon="7.22462">
        <ele>534.11</ele>
        <time>2021-03-10T11:51:07.365Z</time>
      </trkpt>
      <trkpt lat="47.08295" lon="7.22467">
        <ele>534.08</ele>
        <time>2021-03-10T11:51:11.511Z</time>
      </trkpt>
      <trkpt lat="47.08297" lon="7.22469">
        <ele>534.12</ele>
        <time>2021-03-10T11:51:14.381Z</time>
      </trkpt>
      <trkpt lat="47.08299" lon="7.2247">
        <ele>534.24</ele>
        <time>2021-03-10T11:51:18.271Z</time>
      </trkpt>
      <trkpt lat="47.08303" lon="7.22473">
        <ele>534.28</ele>
        <time>2021-03-10T11:51:23.192Z</time>
      </trkpt>
      <trkpt lat="47.08343" lon="7.22487">
        <ele>534.09</ele>
        <time>2021-03-10T11:52:01.832Z</time>
      </trkpt>
      <trkpt lat="47.08363" lon="7.22496">
        <ele>534.04</ele>
        <time>2021-03-10T11:52:22.136Z</time>
      </trkpt>
      <trkpt lat="47.08365" lon="7.22489">
        <ele>533.79</ele>
        <time>2021-03-10T11:52:23.371Z</time>
      </trkpt>
      <trkpt lat="47.0837" lon="7.22482">
        <ele>533.34</ele>
        <time>2021-03-10T11:52:24.808Z</time>
      </trkpt>
      <trkpt lat="47.08379" lon="7.22469">
        <ele>533.09</ele>
        <time>2021-03-10T11:52:28.836Z</time>
      </trkpt>
      <trkpt lat="47.08393" lon="7.22452">
        <ele>532.34</ele>
        <time>2021-03-10T11:52:33.462Z</time>
      </trkpt>
      <trkpt lat="47.08403" lon="7.2244">
        <ele>531.86</ele>
        <time>2021-03-10T11:52:36.883Z</time>
      </trkpt>
      <trkpt lat="47.08444" lon="7.2239">
        <ele>530.06</ele>
        <time>2021-03-10T11:52:51.486Z</time>
      </trkpt>
      <trkpt lat="47.08454" lon="7.22378">
        <ele>529.79</ele>
        <time>2021-03-10T11:52:55.553Z</time>
      </trkpt>
      <trkpt lat="47.08461" lon="7.2237">
        <ele>529.3</ele>
        <time>2021-03-10T11:52:57.550Z</time>
      </trkpt>
      <trkpt lat="47.08476" lon="7.22356">
        <ele>528.73</ele>
        <time>2021-03-10T11:53:02.505Z</time>
      </trkpt>
      <trkpt lat="47.08486" lon="7.22347">
        <ele>528.36</ele>
        <time>2021-03-10T11:53:05.793Z</time>
      </trkpt>
      <trkpt lat="47.08486" lon="7.22347">
        <ele>528.36</ele>
        <time>2021-03-10T11:53:05.793Z</time>
      </trkpt>
      <trkpt lat="47.08488" lon="7.22345">
        <ele>527.99</ele>
        <time>2021-03-10T11:53:06.336Z</time>
      </trkpt>
      <trkpt lat="47.08496" lon="7.22339">
        <ele>527.57</ele>
        <time>2021-03-10T11:53:08.512Z</time>
      </trkpt>
      <trkpt lat="47.0852" lon="7.22324">
        <ele>526.37</ele>
        <time>2021-03-10T11:53:14.873Z</time>
      </trkpt>
      <trkpt lat="47.08528" lon="7.22318">
        <ele>526.02</ele>
        <time>2021-03-10T11:53:17.212Z</time>
      </trkpt>
      <trkpt lat="47.08549" lon="7.22298">
        <ele>525.41</ele>
        <time>2021-03-10T11:53:24.790Z</time>
      </trkpt>
      <trkpt lat="47.08555" lon="7.22291">
        <ele>525.33</ele>
        <time>2021-03-10T11:53:27.537Z</time>
      </trkpt>
      <trkpt lat="47.08559" lon="7.22284">
        <ele>525.15</ele>
        <time>2021-03-10T11:53:29.329Z</time>
      </trkpt>
      <trkpt lat="47.08573" lon="7.22257">
        <ele>524.7</ele>
        <time>2021-03-10T11:53:36.730Z</time>
      </trkpt>
      <trkpt lat="47.08584" lon="7.22235">
        <ele>523.97</ele>
        <time>2021-03-10T11:53:41.554Z</time>
      </trkpt>
      <trkpt lat="47.08592" lon="7.22217">
        <ele>523.17</ele>
        <time>2021-03-10T11:53:44.866Z</time>
      </trkpt>
      <trkpt lat="47.08599" lon="7.22198">
        <ele>521.62</ele>
        <time>2021-03-10T11:53:48.169Z</time>
      </trkpt>
      <trkpt lat="47.08609" lon="7.22171">
        <ele>519.9</ele>
        <time>2021-03-10T11:53:52.868Z</time>
      </trkpt>
      <trkpt lat="47.08619" lon="7.22139">
        <ele>517.69</ele>
        <time>2021-03-10T11:53:58.251Z</time>
      </trkpt>
      <trkpt lat="47.08626" lon="7.22118">
        <ele>516.33</ele>
        <time>2021-03-10T11:54:01.825Z</time>
      </trkpt>
      <trkpt lat="47.08639" lon="7.22087">
        <ele>514.13</ele>
        <time>2021-03-10T11:54:07.391Z</time>
      </trkpt>
      <trkpt lat="47.08652" lon="7.22054">
        <ele>512.1</ele>
        <time>2021-03-10T11:54:13.220Z</time>
      </trkpt>
      <trkpt lat="47.08659" lon="7.22037">
        <ele>511.34</ele>
        <time>2021-03-10T11:54:16.243Z</time>
      </trkpt>
      <trkpt lat="47.0867" lon="7.22007">
        <ele>509.81</ele>
        <time>2021-03-10T11:54:21.041Z</time>
      </trkpt>
      <trkpt lat="47.08688" lon="7.21964">
        <ele>507.22</ele>
        <time>2021-03-10T11:54:28.758Z</time>
      </trkpt>
      <trkpt lat="47.08696" lon="7.21944">
        <ele>505.92</ele>
        <time>2021-03-10T11:54:32.304Z</time>
      </trkpt>
      <trkpt lat="47.08703" lon="7.21922">
        <ele>504.53</ele>
        <time>2021-03-10T11:54:36.017Z</time>
      </trkpt>
      <trkpt lat="47.08709" lon="7.21903">
        <ele>502.8</ele>
        <time>2021-03-10T11:54:39.219Z</time>
      </trkpt>
      <trkpt lat="47.08714" lon="7.21893">
        <ele>501.54</ele>
        <time>2021-03-10T11:54:41.116Z</time>
      </trkpt>
      <trkpt lat="47.0872" lon="7.21884">
        <ele>500.6</ele>
        <time>2021-03-10T11:54:43.041Z</time>
      </trkpt>
      <trkpt lat="47.08726" lon="7.21876">
        <ele>499.23</ele>
        <time>2021-03-10T11:54:44.861Z</time>
      </trkpt>
      <trkpt lat="47.08734" lon="7.21866">
        <ele>498.44</ele>
        <time>2021-03-10T11:54:47.220Z</time>
      </trkpt>
      <trkpt lat="47.08742" lon="7.21857">
        <ele>497.38</ele>
        <time>2021-03-10T11:54:49.482Z</time>
      </trkpt>
      <trkpt lat="47.08751" lon="7.2185">
        <ele>496.78</ele>
        <time>2021-03-10T11:54:51.708Z</time>
      </trkpt>
      <trkpt lat="47.08764" lon="7.21841">
        <ele>495.97</ele>
        <time>2021-03-10T11:54:54.915Z</time>
      </trkpt>
      <trkpt lat="47.08771" lon="7.21838">
        <ele>495.17</ele>
        <time>2021-03-10T11:54:56.552Z</time>
      </trkpt>
      <trkpt lat="47.08781" lon="7.21835">
        <ele>493.97</ele>
        <time>2021-03-10T11:54:58.844Z</time>
      </trkpt>
      <trkpt lat="47.08796" lon="7.21831">
        <ele>492.16</ele>
        <time>2021-03-10T11:55:02.267Z</time>
      </trkpt>
      <trkpt lat="47.08827" lon="7.21824">
        <ele>488.15</ele>
        <time>2021-03-10T11:55:09.309Z</time>
      </trkpt>
      <trkpt lat="47.08847" lon="7.21821">
        <ele>485.74</ele>
        <time>2021-03-10T11:55:13.823Z</time>
      </trkpt>
      <trkpt lat="47.08861" lon="7.21818">
        <ele>483.33</ele>
        <time>2021-03-10T11:55:17.000Z</time>
      </trkpt>
      <trkpt lat="47.0887" lon="7.21816">
        <ele>482.33</ele>
        <time>2021-03-10T11:55:19.043Z</time>
      </trkpt>
      <trkpt lat="47.08881" lon="7.21813">
        <ele>480.89</ele>
        <time>2021-03-10T11:55:21.556Z</time>
      </trkpt>
      <trkpt lat="47.0889" lon="7.21811">
        <ele>479.82</ele>
        <time>2021-03-10T11:55:23.599Z</time>
      </trkpt>
      <trkpt lat="47.08912" lon="7.21809">
        <ele>476.52</ele>
        <time>2021-03-10T11:55:28.549Z</time>
      </trkpt>
      <trkpt lat="47.08923" lon="7.21809">
        <ele>475.22</ele>
        <time>2021-03-10T11:55:31.018Z</time>
      </trkpt>
      <trkpt lat="47.08927" lon="7.21809">
        <ele>474.57</ele>
        <time>2021-03-10T11:55:31.917Z</time>
      </trkpt>
      <trkpt lat="47.08936" lon="7.21807">
        <ele>473.1</ele>
        <time>2021-03-10T11:55:33.960Z</time>
      </trkpt>
      <trkpt lat="47.0894" lon="7.21805">
        <ele>472.63</ele>
        <time>2021-03-10T11:55:34.909Z</time>
      </trkpt>
      <trkpt lat="47.08944" lon="7.21803">
        <ele>471.81</ele>
        <time>2021-03-10T11:55:35.858Z</time>
      </trkpt>
      <trkpt lat="47.08948" lon="7.218">
        <ele>471.09</ele>
        <time>2021-03-10T11:55:36.866Z</time>
      </trkpt>
      <trkpt lat="47.08952" lon="7.21795">
        <ele>470.69</ele>
        <time>2021-03-10T11:55:38.046Z</time>
      </trkpt>
      <trkpt lat="47.08955" lon="7.21791">
        <ele>470.29</ele>
        <time>2021-03-10T11:55:38.955Z</time>
      </trkpt>
      <trkpt lat="47.08957" lon="7.21786">
        <ele>469.88</ele>
        <time>2021-03-10T11:55:39.842Z</time>
      </trkpt>
      <trkpt lat="47.0896" lon="7.21778">
        <ele>469.08</ele>
        <time>2021-03-10T11:55:41.238Z</time>
      </trkpt>
      <trkpt lat="47.08962" lon="7.21769">
        <ele>468.28</ele>
        <time>2021-03-10T11:55:42.685Z</time>
      </trkpt>
      <trkpt lat="47.08963" lon="7.21763">
        <ele>467.88</ele>
        <time>2021-03-10T11:55:43.630Z</time>
      </trkpt>
      <trkpt lat="47.08964" lon="7.21751">
        <ele>467.01</ele>
        <time>2021-03-10T11:55:45.478Z</time>
      </trkpt>
      <trkpt lat="47.08964" lon="7.21735">
        <ele>466.05</ele>
        <time>2021-03-10T11:55:47.924Z</time>
      </trkpt>
      <trkpt lat="47.08963" lon="7.21718">
        <ele>464.88</ele>
        <time>2021-03-10T11:55:50.532Z</time>
      </trkpt>
      <trkpt lat="47.08962" lon="7.21707">
        <ele>464.36</ele>
        <time>2021-03-10T11:55:52.229Z</time>
      </trkpt>
      <trkpt lat="47.08969" lon="7.21717">
        <ele>464.21</ele>
        <time>2021-03-10T11:55:55.516Z</time>
      </trkpt>
      <trkpt lat="47.08976" lon="7.21725">
        <ele>463.87</ele>
        <time>2021-03-10T11:55:57.839Z</time>
      </trkpt>
      <trkpt lat="47.08986" lon="7.21736">
        <ele>463.88</ele>
        <time>2021-03-10T11:56:10.503Z</time>
      </trkpt>
      <trkpt lat="47.08995" lon="7.21745">
        <ele>463.85</ele>
        <time>2021-03-10T11:56:21.015Z</time>
      </trkpt>
      <trkpt lat="47.09015" lon="7.21763">
        <ele>463.22</ele>
        <time>2021-03-10T11:56:27.925Z</time>
      </trkpt>
      <trkpt lat="47.09041" lon="7.2179">
        <ele>462.75</ele>
        <time>2021-03-10T11:56:38.723Z</time>
      </trkpt>
      <trkpt lat="47.09041" lon="7.21789">
        <ele>462.75</ele>
        <time>2021-03-10T11:56:39.408Z</time>
      </trkpt>
      <trkpt lat="47.09048" lon="7.21797">
        <ele>462.29</ele>
        <time>2021-03-10T11:56:41.463Z</time>
      </trkpt>
      <trkpt lat="47.09071" lon="7.21822">
        <ele>461.99</ele>
        <time>2021-03-10T11:56:51.714Z</time>
      </trkpt>
      <trkpt lat="47.09084" lon="7.21838">
        <ele>461.86</ele>
        <time>2021-03-10T11:56:58.025Z</time>
      </trkpt>
      <trkpt lat="47.09113" lon="7.21872">
        <ele>461.72</ele>
        <time>2021-03-10T11:57:33.321Z</time>
      </trkpt>
      <trkpt lat="47.09123" lon="7.21885">
        <ele>461.63</ele>
        <time>2021-03-10T11:57:45.501Z</time>
      </trkpt>
      <trkpt lat="47.0913" lon="7.21896">
        <ele>461.39</ele>
        <time>2021-03-10T11:57:48.638Z</time>
      </trkpt>
      <trkpt lat="47.09138" lon="7.21908">
        <ele>461.7</ele>
        <time>2021-03-10T11:58:03.944Z</time>
      </trkpt>
      <trkpt lat="47.09148" lon="7.21927">
        <ele>461.77</ele>
        <time>2021-03-10T11:58:21.068Z</time>
      </trkpt>
      <trkpt lat="47.09173" lon="7.2197">
        <ele>462.32</ele>
        <time>2021-03-10T11:59:05.637Z</time>
      </trkpt>
      <trkpt lat="47.09181" lon="7.21983">
        <ele>462.45</ele>
        <time>2021-03-10T11:59:18.973Z</time>
      </trkpt>
      <trkpt lat="47.09195" lon="7.22005">
        <ele>462.89</ele>
        <time>2021-03-10T11:59:44.650Z</time>
      </trkpt>
      <trkpt lat="47.09203" lon="7.22016">
        <ele>463.22</ele>
        <time>2021-03-10T11:59:59.877Z</time>
      </trkpt>
      <trkpt lat="47.0921" lon="7.22025">
        <ele>463.63</ele>
        <time>2021-03-10T12:00:15.575Z</time>
      </trkpt>
      <trkpt lat="47.09217" lon="7.22035">
        <ele>463.92</ele>
        <time>2021-03-10T12:00:29.072Z</time>
      </trkpt>
      <trkpt lat="47.09231" lon="7.22054">
        <ele>464.14</ele>
        <time>2021-03-10T12:00:50.519Z</time>
      </trkpt>
      <trkpt lat="47.0924" lon="7.22065">
        <ele>463.91</ele>
        <time>2021-03-10T12:00:54.261Z</time>
      </trkpt>
      <trkpt lat="47.09252" lon="7.22079">
        <ele>464.11</ele>
        <time>2021-03-10T12:01:11.774Z</time>
      </trkpt>
      <trkpt lat="47.09263" lon="7.22094">
        <ele>463.75</ele>
        <time>2021-03-10T12:01:16.338Z</time>
      </trkpt>
      <trkpt lat="47.09272" lon="7.22105">
        <ele>463.32</ele>
        <time>2021-03-10T12:01:19.454Z</time>
      </trkpt>
      <trkpt lat="47.09286" lon="7.22123">
        <ele>462.79</ele>
        <time>2021-03-10T12:01:24.839Z</time>
      </trkpt>
      <trkpt lat="47.09296" lon="7.22139">
        <ele>461.96</ele>
        <time>2021-03-10T12:01:28.145Z</time>
      </trkpt>
      <trkpt lat="47.09307" lon="7.22154">
        <ele>461.61</ele>
        <time>2021-03-10T12:01:32.743Z</time>
      </trkpt>
      <trkpt lat="47.09313" lon="7.22162">
        <ele>461.05</ele>
        <time>2021-03-10T12:01:34.563Z</time>
      </trkpt>
      <trkpt lat="47.09317" lon="7.22167">
        <ele>460.78</ele>
        <time>2021-03-10T12:01:35.784Z</time>
      </trkpt>
      <trkpt lat="47.09322" lon="7.22171">
        <ele>460.22</ele>
        <time>2021-03-10T12:01:37.063Z</time>
      </trkpt>
      <trkpt lat="47.09326" lon="7.22173">
        <ele>460.05</ele>
        <time>2021-03-10T12:01:38.150Z</time>
      </trkpt>
      <trkpt lat="47.09331" lon="7.22176">
        <ele>459.85</ele>
        <time>2021-03-10T12:01:39.582Z</time>
      </trkpt>
      <trkpt lat="47.09364" lon="7.22185">
        <ele>458.5</ele>
        <time>2021-03-10T12:01:48.217Z</time>
      </trkpt>
      <trkpt lat="47.09371" lon="7.22187">
        <ele>458.41</ele>
        <time>2021-03-10T12:01:50.702Z</time>
      </trkpt>
      <trkpt lat="47.09376" lon="7.22189">
        <ele>458.57</ele>
        <time>2021-03-10T12:01:57.972Z</time>
      </trkpt>
      <trkpt lat="47.09381" lon="7.22192">
        <ele>458.31</ele>
        <time>2021-03-10T12:01:59.265Z</time>
      </trkpt>
      <trkpt lat="47.09386" lon="7.22196">
        <ele>458.23</ele>
        <time>2021-03-10T12:02:01.213Z</time>
      </trkpt>
      <trkpt lat="47.09391" lon="7.22202">
        <ele>458.01</ele>
        <time>2021-03-10T12:02:02.977Z</time>
      </trkpt>
      <trkpt lat="47.09397" lon="7.22208">
        <ele>457.75</ele>
        <time>2021-03-10T12:02:04.925Z</time>
      </trkpt>
      <trkpt lat="47.09404" lon="7.22217">
        <ele>457.77</ele>
        <time>2021-03-10T12:02:14.474Z</time>
      </trkpt>
      <trkpt lat="47.0941" lon="7.22226">
        <ele>457.74</ele>
        <time>2021-03-10T12:02:22.664Z</time>
      </trkpt>
      <trkpt lat="47.0942" lon="7.22243">
        <ele>457.66</ele>
        <time>2021-03-10T12:02:36.912Z</time>
      </trkpt>
      <trkpt lat="47.09435" lon="7.2227">
        <ele>457.45</ele>
        <time>2021-03-10T12:02:45.599Z</time>
      </trkpt>
      <trkpt lat="47.09446" lon="7.22289">
        <ele>457.38</ele>
        <time>2021-03-10T12:03:01.670Z</time>
      </trkpt>
      <trkpt lat="47.09453" lon="7.223">
        <ele>457.03</ele>
        <time>2021-03-10T12:03:04.468Z</time>
      </trkpt>
      <trkpt lat="47.09459" lon="7.2231">
        <ele>457.19</ele>
        <time>2021-03-10T12:03:15.358Z</time>
      </trkpt>
      <trkpt lat="47.09465" lon="7.22317">
        <ele>456.89</ele>
        <time>2021-03-10T12:03:17.349Z</time>
      </trkpt>
      <trkpt lat="47.09468" lon="7.2232">
        <ele>456.84</ele>
        <time>2021-03-10T12:03:18.595Z</time>
      </trkpt>
      <trkpt lat="47.09475" lon="7.22324">
        <ele>456.54</ele>
        <time>2021-03-10T12:03:20.532Z</time>
      </trkpt>
      <trkpt lat="47.09506" lon="7.22337">
        <ele>455.07</ele>
        <time>2021-03-10T12:03:28.424Z</time>
      </trkpt>
      <trkpt lat="47.09516" lon="7.22342">
        <ele>454.59</ele>
        <time>2021-03-10T12:03:31.013Z</time>
      </trkpt>
      <trkpt lat="47.09525" lon="7.22347">
        <ele>454.16</ele>
        <time>2021-03-10T12:03:33.388Z</time>
      </trkpt>
      <trkpt lat="47.09542" lon="7.22356">
        <ele>453.64</ele>
        <time>2021-03-10T12:03:38.603Z</time>
      </trkpt>
      <trkpt lat="47.09548" lon="7.2236">
        <ele>453.39</ele>
        <time>2021-03-10T12:03:40.335Z</time>
      </trkpt>
      <trkpt lat="47.09554" lon="7.22366">
        <ele>453.11</ele>
        <time>2021-03-10T12:03:42.232Z</time>
      </trkpt>
      <trkpt lat="47.0956" lon="7.22372">
        <ele>452.86</ele>
        <time>2021-03-10T12:03:44.208Z</time>
      </trkpt>
      <trkpt lat="47.09565" lon="7.2238">
        <ele>452.76</ele>
        <time>2021-03-10T12:03:46.754Z</time>
      </trkpt>
      <trkpt lat="47.09582" lon="7.22406">
        <ele>452.04</ele>
        <time>2021-03-10T12:03:53.794Z</time>
      </trkpt>
      <trkpt lat="47.09588" lon="7.22417">
        <ele>452.13</ele>
        <time>2021-03-10T12:04:04.357Z</time>
      </trkpt>
      <trkpt lat="47.09595" lon="7.2243">
        <ele>452.03</ele>
        <time>2021-03-10T12:04:08.488Z</time>
      </trkpt>
      <trkpt lat="47.09604" lon="7.22445">
        <ele>452.15</ele>
        <time>2021-03-10T12:04:23.387Z</time>
      </trkpt>
      <trkpt lat="47.09628" lon="7.22483">
        <ele>453.17</ele>
        <time>2021-03-10T12:05:11.681Z</time>
      </trkpt>
      <trkpt lat="47.09638" lon="7.22498">
        <ele>452.7</ele>
        <time>2021-03-10T12:05:15.633Z</time>
      </trkpt>
      <trkpt lat="47.09651" lon="7.22514">
        <ele>452.87</ele>
        <time>2021-03-10T12:05:34.423Z</time>
      </trkpt>
      <trkpt lat="47.09662" lon="7.22527">
        <ele>452.86</ele>
        <time>2021-03-10T12:05:48.477Z</time>
      </trkpt>
      <trkpt lat="47.09671" lon="7.22536">
        <ele>453.13</ele>
        <time>2021-03-10T12:06:02.652Z</time>
      </trkpt>
      <trkpt lat="47.0967" lon="7.22536">
        <ele>453.13</ele>
        <time>2021-03-10T12:06:03.658Z</time>
      </trkpt>
      <trkpt lat="47.0969" lon="7.22555">
        <ele>453.41</ele>
        <time>2021-03-10T12:06:30.516Z</time>
      </trkpt>
      <trkpt lat="47.09716" lon="7.22583">
        <ele>453.74</ele>
        <time>2021-03-10T12:07:06.312Z</time>
      </trkpt>
      <trkpt lat="47.09734" lon="7.22603">
        <ele>453.82</ele>
        <time>2021-03-10T12:07:29.783Z</time>
      </trkpt>
      <trkpt lat="47.09741" lon="7.22611">
        <ele>453.62</ele>
        <time>2021-03-10T12:07:32.524Z</time>
      </trkpt>
      <trkpt lat="47.09756" lon="7.22631">
        <ele>453.26</ele>
        <time>2021-03-10T12:07:39.144Z</time>
      </trkpt>
      <trkpt lat="47.0977" lon="7.22648">
        <ele>453.16</ele>
        <time>2021-03-10T12:07:55.999Z</time>
      </trkpt>
      <trkpt lat="47.09792" lon="7.22674">
        <ele>453.17</ele>
        <time>2021-03-10T12:08:24.503Z</time>
      </trkpt>
      <trkpt lat="47.09803" lon="7.22687">
        <ele>452.79</ele>
        <time>2021-03-10T12:08:28.660Z</time>
      </trkpt>
      <trkpt lat="47.09814" lon="7.22702">
        <ele>452.2</ele>
        <time>2021-03-10T12:08:32.555Z</time>
      </trkpt>
      <trkpt lat="47.09823" lon="7.22714">
        <ele>451.7</ele>
        <time>2021-03-10T12:08:35.655Z</time>
      </trkpt>
      <trkpt lat="47.09829" lon="7.22724">
        <ele>451.71</ele>
        <time>2021-03-10T12:08:44.878Z</time>
      </trkpt>
      <trkpt lat="47.09833" lon="7.22733">
        <ele>451.77</ele>
        <time>2021-03-10T12:08:52.839Z</time>
      </trkpt>
      <trkpt lat="47.09836" lon="7.22739">
        <ele>451.85</ele>
        <time>2021-03-10T12:08:58.800Z</time>
      </trkpt>
      <trkpt lat="47.09844" lon="7.2275">
        <ele>451.9</ele>
        <time>2021-03-10T12:09:10.307Z</time>
      </trkpt>
      <trkpt lat="47.0985" lon="7.22756">
        <ele>451.85</ele>
        <time>2021-03-10T12:09:16.913Z</time>
      </trkpt>
      <trkpt lat="47.09858" lon="7.22763">
        <ele>451.57</ele>
        <time>2021-03-10T12:09:19.563Z</time>
      </trkpt>
      <trkpt lat="47.09867" lon="7.22771">
        <ele>451.55</ele>
        <time>2021-03-10T12:09:29.849Z</time>
      </trkpt>
      <trkpt lat="47.09878" lon="7.22781">
        <ele>451.45</ele>
        <time>2021-03-10T12:09:34.658Z</time>
      </trkpt>
      <trkpt lat="47.09891" lon="7.22791">
        <ele>451.54</ele>
        <time>2021-03-10T12:09:50.302Z</time>
      </trkpt>
      <trkpt lat="47.09901" lon="7.22799">
        <ele>451.55</ele>
        <time>2021-03-10T12:10:01.853Z</time>
      </trkpt>
      <trkpt lat="47.09913" lon="7.22808">
        <ele>451.64</ele>
        <time>2021-03-10T12:10:16.294Z</time>
      </trkpt>
      <trkpt lat="47.09926" lon="7.22816">
        <ele>451.84</ele>
        <time>2021-03-10T12:10:32.594Z</time>
      </trkpt>
      <trkpt lat="47.09976" lon="7.22737">
        <ele>446.72</ele>
        <time>2021-03-10T12:10:49.082Z</time>
      </trkpt>
      <trkpt lat="47.10004" lon="7.22694">
        <ele>445.21</ele>
        <time>2021-03-10T12:10:59.802Z</time>
      </trkpt>
      <trkpt lat="47.10057" lon="7.22612">
        <ele>442.1</ele>
        <time>2021-03-10T12:11:19.570Z</time>
      </trkpt>
      <trkpt lat="47.10069" lon="7.22593">
        <ele>441.64</ele>
        <time>2021-03-10T12:11:24.812Z</time>
      </trkpt>
      <trkpt lat="47.10074" lon="7.22583">
        <ele>441.4</ele>
        <time>2021-03-10T12:11:27.258Z</time>
      </trkpt>
      <trkpt lat="47.10074" lon="7.22583">
        <ele>441.4</ele>
        <time>2021-03-10T12:11:27.258Z</time>
      </trkpt>
      <trkpt lat="47.10092" lon="7.22551">
        <ele>441.17</ele>
        <time>2021-03-10T12:11:37.705Z</time>
      </trkpt>
      <trkpt lat="47.10106" lon="7.22527">
        <ele>440.7</ele>
        <time>2021-03-10T12:11:44.408Z</time>
      </trkpt>
      <trkpt lat="47.10115" lon="7.22509">
        <ele>440.5</ele>
        <time>2021-03-10T12:11:49.669Z</time>
      </trkpt>
      <trkpt lat="47.10125" lon="7.22489">
        <ele>440.45</ele>
        <time>2021-03-10T12:12:05.928Z</time>
      </trkpt>
      <trkpt lat="47.10159" lon="7.22416">
        <ele>440.06</ele>
        <time>2021-03-10T12:13:01.043Z</time>
      </trkpt>
      <trkpt lat="47.10163" lon="7.22406">
        <ele>440.04</ele>
        <time>2021-03-10T12:13:08.690Z</time>
      </trkpt>
      <trkpt lat="47.10168" lon="7.22394">
        <ele>440.19</ele>
        <time>2021-03-10T12:13:19.941Z</time>
      </trkpt>
      <trkpt lat="47.1017" lon="7.22391">
        <ele>440.19</ele>
        <time>2021-03-10T12:13:22.817Z</time>
      </trkpt>
      <trkpt lat="47.10173" lon="7.22388">
        <ele>440.19</ele>
        <time>2021-03-10T12:13:26.469Z</time>
      </trkpt>
      <trkpt lat="47.10172" lon="7.22385">
        <ele>440.19</ele>
        <time>2021-03-10T12:13:28.757Z</time>
      </trkpt>
      <trkpt lat="47.10173" lon="7.22383">
        <ele>440.19</ele>
        <time>2021-03-10T12:13:30.456Z</time>
      </trkpt>
      <trkpt lat="47.10176" lon="7.22371">
        <ele>440.34</ele>
        <time>2021-03-10T12:13:40.854Z</time>
      </trkpt>
      <trkpt lat="47.10178" lon="7.22363">
        <ele>440.34</ele>
        <time>2021-03-10T12:13:46.691Z</time>
      </trkpt>
      <trkpt lat="47.10179" lon="7.22357">
        <ele>440.34</ele>
        <time>2021-03-10T12:13:50.922Z</time>
      </trkpt>
      <trkpt lat="47.1018" lon="7.22348">
        <ele>440.34</ele>
        <time>2021-03-10T12:13:57.168Z</time>
      </trkpt>
      <trkpt lat="47.10181" lon="7.22336">
        <ele>440.42</ele>
        <time>2021-03-10T12:14:06.258Z</time>
      </trkpt>
      <trkpt lat="47.10183" lon="7.22315">
        <ele>440.79</ele>
        <time>2021-03-10T12:14:25.238Z</time>
      </trkpt>
      <trkpt lat="47.1019" lon="7.22223">
        <ele>443.45</ele>
        <time>2021-03-10T12:16:08.616Z</time>
      </trkpt>
      <trkpt lat="47.10193" lon="7.2219">
        <ele>444.95</ele>
        <time>2021-03-10T12:16:53.220Z</time>
      </trkpt>
      <trkpt lat="47.102" lon="7.22138">
        <ele>447.45</ele>
        <time>2021-03-10T12:18:05.886Z</time>
      </trkpt>
      <trkpt lat="47.10205" lon="7.22102">
        <ele>448.78</ele>
        <time>2021-03-10T12:18:50.825Z</time>
      </trkpt>
      <trkpt lat="47.10206" lon="7.22098">
        <ele>448.85</ele>
        <time>2021-03-10T12:18:54.572Z</time>
      </trkpt>
      <trkpt lat="47.10206" lon="7.22098">
        <ele>448.85</ele>
        <time>2021-03-10T12:18:54.572Z</time>
      </trkpt>
      <trkpt lat="47.10207" lon="7.22091">
        <ele>448.92</ele>
        <time>2021-03-10T12:19:00.214Z</time>
      </trkpt>
      <trkpt lat="47.10207" lon="7.22083">
        <ele>448.97</ele>
        <time>2021-03-10T12:19:06.197Z</time>
      </trkpt>
      <trkpt lat="47.10208" lon="7.22075">
        <ele>449.11</ele>
        <time>2021-03-10T12:19:13.447Z</time>
      </trkpt>
      <trkpt lat="47.10208" lon="7.22046">
        <ele>449.85</ele>
        <time>2021-03-10T12:19:43.697Z</time>
      </trkpt>
      <trkpt lat="47.10208" lon="7.22032">
        <ele>449.91</ele>
        <time>2021-03-10T12:19:53.873Z</time>
      </trkpt>
      <trkpt lat="47.1021" lon="7.22018">
        <ele>449.88</ele>
        <time>2021-03-10T12:20:03.229Z</time>
      </trkpt>
      <trkpt lat="47.10211" lon="7.22009">
        <ele>449.88</ele>
        <time>2021-03-10T12:20:09.475Z</time>
      </trkpt>
      <trkpt lat="47.10212" lon="7.22001">
        <ele>449.59</ele>
        <time>2021-03-10T12:20:10.752Z</time>
      </trkpt>
      <trkpt lat="47.10214" lon="7.21995">
        <ele>449.59</ele>
        <time>2021-03-10T12:20:15.328Z</time>
      </trkpt>
      <trkpt lat="47.102" lon="7.2198">
        <ele>449.88</ele>
        <time>2021-03-10T12:20:35.920Z</time>
      </trkpt>
      <trkpt lat="47.10206" lon="7.21968">
        <ele>449.85</ele>
        <time>2021-03-10T12:20:45.676Z</time>
      </trkpt>
      <trkpt lat="47.10207" lon="7.21966">
        <ele>449.9</ele>
        <time>2021-03-10T12:20:48.008Z</time>
      </trkpt>
      <trkpt lat="47.10208" lon="7.21963">
        <ele>449.98</ele>
        <time>2021-03-10T12:20:51.384Z</time>
      </trkpt>
      <trkpt lat="47.10209" lon="7.2196">
        <ele>449.93</ele>
        <time>2021-03-10T12:20:52.091Z</time>
      </trkpt>
      <trkpt lat="47.10213" lon="7.21936">
        <ele>450.68</ele>
        <time>2021-03-10T12:21:20.670Z</time>
      </trkpt>
      <trkpt lat="47.10216" lon="7.21923">
        <ele>450.85</ele>
        <time>2021-03-10T12:21:31.952Z</time>
      </trkpt>
      <trkpt lat="47.10219" lon="7.21916">
        <ele>450.77</ele>
        <time>2021-03-10T12:21:33.875Z</time>
      </trkpt>
      <trkpt lat="47.10232" lon="7.21879">
        <ele>450.51</ele>
        <time>2021-03-10T12:21:44.208Z</time>
      </trkpt>
      <trkpt lat="47.10235" lon="7.21869">
        <ele>450.57</ele>
        <time>2021-03-10T12:21:52.290Z</time>
      </trkpt>
      <trkpt lat="47.10239" lon="7.2186">
        <ele>450.55</ele>
        <time>2021-03-10T12:21:59.356Z</time>
      </trkpt>
      <trkpt lat="47.10243" lon="7.21853">
        <ele>450.62</ele>
        <time>2021-03-10T12:22:06.335Z</time>
      </trkpt>
      <trkpt lat="47.10254" lon="7.21832">
        <ele>450.62</ele>
        <time>2021-03-10T12:22:24.484Z</time>
      </trkpt>
      <trkpt lat="47.10275" lon="7.21797">
        <ele>451.2</ele>
        <time>2021-03-10T12:23:02.859Z</time>
      </trkpt>
      <trkpt lat="47.10288" lon="7.21776">
        <ele>451.06</ele>
        <time>2021-03-10T12:23:20.358Z</time>
      </trkpt>
      <trkpt lat="47.103" lon="7.21754">
        <ele>450.37</ele>
        <time>2021-03-10T12:23:25.503Z</time>
      </trkpt>
      <trkpt lat="47.10337" lon="7.21689">
        <ele>446.42</ele>
        <time>2021-03-10T12:23:38.453Z</time>
      </trkpt>
      <trkpt lat="47.10342" lon="7.21681">
        <ele>445.89</ele>
        <time>2021-03-10T12:23:40.113Z</time>
      </trkpt>
      <trkpt lat="47.10349" lon="7.21671">
        <ele>445.06</ele>
        <time>2021-03-10T12:23:42.305Z</time>
      </trkpt>
      <trkpt lat="47.1036" lon="7.21656">
        <ele>444.12</ele>
        <time>2021-03-10T12:23:45.490Z</time>
      </trkpt>
      <trkpt lat="47.10362" lon="7.21652">
        <ele>443.89</ele>
        <time>2021-03-10T12:23:46.249Z</time>
      </trkpt>
      <trkpt lat="47.10363" lon="7.21648">
        <ele>443.41</ele>
        <time>2021-03-10T12:23:46.900Z</time>
      </trkpt>
      <trkpt lat="47.10364" lon="7.21643">
        <ele>443.18</ele>
        <time>2021-03-10T12:23:47.640Z</time>
      </trkpt>
      <trkpt lat="47.10365" lon="7.21638">
        <ele>442.75</ele>
        <time>2021-03-10T12:23:48.436Z</time>
      </trkpt>
      <trkpt lat="47.10369" lon="7.2164">
        <ele>442.98</ele>
        <time>2021-03-10T12:23:56.093Z</time>
      </trkpt>
      <trkpt lat="47.10375" lon="7.21647">
        <ele>443.95</ele>
        <time>2021-03-10T12:24:23.157Z</time>
      </trkpt>
      <trkpt lat="47.10384" lon="7.21638">
        <ele>441.94</ele>
        <time>2021-03-10T12:24:25.601Z</time>
      </trkpt>
      <trkpt lat="47.10388" lon="7.21635">
        <ele>440.99</ele>
        <time>2021-03-10T12:24:26.610Z</time>
      </trkpt>
      <trkpt lat="47.10391" lon="7.21633">
        <ele>440.48</ele>
        <time>2021-03-10T12:24:27.349Z</time>
      </trkpt>
      <trkpt lat="47.10395" lon="7.21632">
        <ele>440.01</ele>
        <time>2021-03-10T12:24:28.260Z</time>
      </trkpt>
      <trkpt lat="47.10406" lon="7.2163">
        <ele>438.53</ele>
        <time>2021-03-10T12:24:30.749Z</time>
      </trkpt>
      <trkpt lat="47.1041" lon="7.21629">
        <ele>437.8</ele>
        <time>2021-03-10T12:24:31.660Z</time>
      </trkpt>
      <trkpt lat="47.10414" lon="7.21627">
        <ele>436.86</ele>
        <time>2021-03-10T12:24:32.609Z</time>
      </trkpt>
      <trkpt lat="47.10417" lon="7.21624">
        <ele>435.92</ele>
        <time>2021-03-10T12:24:33.424Z</time>
      </trkpt>
      <trkpt lat="47.1042" lon="7.21621">
        <ele>435.21</ele>
        <time>2021-03-10T12:24:34.239Z</time>
      </trkpt>
      <trkpt lat="47.10425" lon="7.21615">
        <ele>434.16</ele>
        <time>2021-03-10T12:24:35.688Z</time>
      </trkpt>
      <trkpt lat="47.1043" lon="7.21608">
        <ele>433.19</ele>
        <time>2021-03-10T12:24:37.239Z</time>
      </trkpt>
      <trkpt lat="47.10457" lon="7.21565">
        <ele>432</ele>
        <time>2021-03-10T12:24:48.596Z</time>
      </trkpt>
      <trkpt lat="47.10474" lon="7.21537">
        <ele>431.38</ele>
        <time>2021-03-10T12:24:56.336Z</time>
      </trkpt>
      <trkpt lat="47.10465" lon="7.21525">
        <ele>431.27</ele>
        <time>2021-03-10T12:25:00.774Z</time>
      </trkpt>
      <trkpt lat="47.10454" lon="7.21526">
        <ele>431.39</ele>
        <time>2021-03-10T12:25:13.092Z</time>
      </trkpt>
      <trkpt lat="47.10445" lon="7.21526">
        <ele>431.61</ele>
        <time>2021-03-10T12:25:24.761Z</time>
      </trkpt>
      <trkpt lat="47.10441" lon="7.21526">
        <ele>431.48</ele>
        <time>2021-03-10T12:25:25.871Z</time>
      </trkpt>
      <trkpt lat="47.10436" lon="7.21526">
        <ele>431.73</ele>
        <time>2021-03-10T12:25:34.668Z</time>
      </trkpt>
      <trkpt lat="47.10432" lon="7.21525">
        <ele>431.77</ele>
        <time>2021-03-10T12:25:39.156Z</time>
      </trkpt>
      <trkpt lat="47.1043" lon="7.21524">
        <ele>431.84</ele>
        <time>2021-03-10T12:25:42.208Z</time>
      </trkpt>
      <trkpt lat="47.10428" lon="7.21521">
        <ele>431.71</ele>
        <time>2021-03-10T12:25:42.909Z</time>
      </trkpt>
      <trkpt lat="47.10426" lon="7.21518">
        <ele>431.71</ele>
        <time>2021-03-10T12:25:45.785Z</time>
      </trkpt>
      <trkpt lat="47.10423" lon="7.21512">
        <ele>431.56</ele>
        <time>2021-03-10T12:25:47.234Z</time>
      </trkpt>
      <trkpt lat="47.1042" lon="7.21508">
        <ele>431.59</ele>
        <time>2021-03-10T12:25:51.608Z</time>
      </trkpt>
      <trkpt lat="47.1042" lon="7.21507">
        <ele>431.57</ele>
        <time>2021-03-10T12:25:51.803Z</time>
      </trkpt>
      <trkpt lat="47.10419" lon="7.21507">
        <ele>431.57</ele>
        <time>2021-03-10T12:25:52.809Z</time>
      </trkpt>
      <trkpt lat="47.10418" lon="7.21504">
        <ele>431.55</ele>
        <time>2021-03-10T12:25:53.642Z</time>
      </trkpt>
      <trkpt lat="47.10404" lon="7.21491">
        <ele>431.88</ele>
        <time>2021-03-10T12:26:14.028Z</time>
      </trkpt>
      <trkpt lat="47.10397" lon="7.21484">
        <ele>431.75</ele>
        <time>2021-03-10T12:26:16.878Z</time>
      </trkpt>
      <trkpt lat="47.10385" lon="7.21475">
        <ele>432.21</ele>
        <time>2021-03-10T12:26:36.604Z</time>
      </trkpt>
      <trkpt lat="47.10384" lon="7.21473">
        <ele>432.19</ele>
        <time>2021-03-10T12:26:37.198Z</time>
      </trkpt>
      <trkpt lat="47.10383" lon="7.21472">
        <ele>432.16</ele>
        <time>2021-03-10T12:26:37.563Z</time>
      </trkpt>
      <trkpt lat="47.10382" lon="7.21469">
        <ele>432.14</ele>
        <time>2021-03-10T12:26:38.396Z</time>
      </trkpt>
      <trkpt lat="47.10381" lon="7.21466">
        <ele>432.18</ele>
        <time>2021-03-10T12:26:41.123Z</time>
      </trkpt>
      <trkpt lat="47.10381" lon="7.21462">
        <ele>432.18</ele>
        <time>2021-03-10T12:26:43.863Z</time>
      </trkpt>
      <trkpt lat="47.1038" lon="7.21458">
        <ele>432.11</ele>
        <time>2021-03-10T12:26:44.743Z</time>
      </trkpt>
      <trkpt lat="47.10378" lon="7.21453">
        <ele>432.12</ele>
        <time>2021-03-10T12:26:48.810Z</time>
      </trkpt>
      <trkpt lat="47.10376" lon="7.21449">
        <ele>432.11</ele>
        <time>2021-03-10T12:26:52.062Z</time>
      </trkpt>
      <trkpt lat="47.10364" lon="7.21435">
        <ele>431.99</ele>
        <time>2021-03-10T12:26:57.751Z</time>
      </trkpt>
      <trkpt lat="47.1036" lon="7.2143">
        <ele>432.01</ele>
        <time>2021-03-10T12:27:03.226Z</time>
      </trkpt>
      <trkpt lat="47.10358" lon="7.21426">
        <ele>431.95</ele>
        <time>2021-03-10T12:27:04.330Z</time>
      </trkpt>
      <trkpt lat="47.10356" lon="7.21424">
        <ele>431.92</ele>
        <time>2021-03-10T12:27:05.176Z</time>
      </trkpt>
      <trkpt lat="47.10355" lon="7.2142">
        <ele>431.92</ele>
        <time>2021-03-10T12:27:08.094Z</time>
      </trkpt>
      <trkpt lat="47.10353" lon="7.21416">
        <ele>431.79</ele>
        <time>2021-03-10T12:27:08.978Z</time>
      </trkpt>
      <trkpt lat="47.10351" lon="7.21415">
        <ele>431.9</ele>
        <time>2021-03-10T12:27:12.746Z</time>
      </trkpt>
      <trkpt lat="47.10349" lon="7.21415">
        <ele>432.11</ele>
        <time>2021-03-10T12:27:18.247Z</time>
      </trkpt>
      <trkpt lat="47.10347" lon="7.21415">
        <ele>432.25</ele>
        <time>2021-03-10T12:27:22.297Z</time>
      </trkpt>
      <trkpt lat="47.10342" lon="7.21416">
        <ele>432.43</ele>
        <time>2021-03-10T12:27:29.839Z</time>
      </trkpt>
      <trkpt lat="47.10337" lon="7.21418">
        <ele>432.38</ele>
        <time>2021-03-10T12:27:31.716Z</time>
      </trkpt>
      <trkpt lat="47.10333" lon="7.21416">
        <ele>432.36</ele>
        <time>2021-03-10T12:27:35.680Z</time>
      </trkpt>
      <trkpt lat="47.10329" lon="7.21415">
        <ele>432.33</ele>
        <time>2021-03-10T12:27:37.195Z</time>
      </trkpt>
      <trkpt lat="47.10326" lon="7.21414">
        <ele>432.37</ele>
        <time>2021-03-10T12:27:40.709Z</time>
      </trkpt>
      <trkpt lat="47.10322" lon="7.21415">
        <ele>432.37</ele>
        <time>2021-03-10T12:27:44.792Z</time>
      </trkpt>
      <trkpt lat="47.1032" lon="7.21415">
        <ele>432.42</ele>
        <time>2021-03-10T12:27:47.402Z</time>
      </trkpt>
      <trkpt lat="47.10319" lon="7.21414">
        <ele>432.39</ele>
        <time>2021-03-10T12:27:47.767Z</time>
      </trkpt>
      <trkpt lat="47.1032" lon="7.21412">
        <ele>432.33</ele>
        <time>2021-03-10T12:27:48.221Z</time>
      </trkpt>
      <trkpt lat="47.1032" lon="7.21409">
        <ele>432.28</ele>
        <time>2021-03-10T12:27:48.839Z</time>
      </trkpt>
      <trkpt lat="47.1032" lon="7.21406">
        <ele>432.22</ele>
        <time>2021-03-10T12:27:49.424Z</time>
      </trkpt>
      <trkpt lat="47.1032" lon="7.21404">
        <ele>432.19</ele>
        <time>2021-03-10T12:27:49.848Z</time>
      </trkpt>
      <trkpt lat="47.10319" lon="7.21401">
        <ele>432.22</ele>
        <time>2021-03-10T12:27:52.450Z</time>
      </trkpt>
      <trkpt lat="47.10314" lon="7.21393">
        <ele>432.23</ele>
        <time>2021-03-10T12:27:59.982Z</time>
      </trkpt>
      <trkpt lat="47.10312" lon="7.21389">
        <ele>432.32</ele>
        <time>2021-03-10T12:28:04.479Z</time>
      </trkpt>
      <trkpt lat="47.10312" lon="7.21386">
        <ele>432.16</ele>
        <time>2021-03-10T12:28:04.937Z</time>
      </trkpt>
      <trkpt lat="47.10312" lon="7.21384">
        <ele>432.16</ele>
        <time>2021-03-10T12:28:06.307Z</time>
      </trkpt>
      <trkpt lat="47.1031" lon="7.21378">
        <ele>432.11</ele>
        <time>2021-03-10T12:28:07.925Z</time>
      </trkpt>
      <trkpt lat="47.10309" lon="7.21374">
        <ele>432.2</ele>
        <time>2021-03-10T12:28:12.003Z</time>
      </trkpt>
      <trkpt lat="47.10304" lon="7.21363">
        <ele>431.81</ele>
        <time>2021-03-10T12:28:14.253Z</time>
      </trkpt>
      <trkpt lat="47.10297" lon="7.21347">
        <ele>430.85</ele>
        <time>2021-03-10T12:28:17.160Z</time>
      </trkpt>
      <trkpt lat="47.10293" lon="7.2134">
        <ele>430.65</ele>
        <time>2021-03-10T12:28:18.893Z</time>
      </trkpt>
      <trkpt lat="47.10294" lon="7.21328">
        <ele>430.35</ele>
        <time>2021-03-10T12:28:21.088Z</time>
      </trkpt>
      <trkpt lat="47.10294" lon="7.21319">
        <ele>430.25</ele>
        <time>2021-03-10T12:28:23.126Z</time>
      </trkpt>
      <trkpt lat="47.10294" lon="7.2131">
        <ele>430.16</ele>
        <time>2021-03-10T12:28:25.205Z</time>
      </trkpt>
      <trkpt lat="47.10293" lon="7.21296">
        <ele>430.13</ele>
        <time>2021-03-10T12:28:34.405Z</time>
      </trkpt>
      <trkpt lat="47.10292" lon="7.21285">
        <ele>430.19</ele>
        <time>2021-03-10T12:28:42.603Z</time>
      </trkpt>
      <trkpt lat="47.1029" lon="7.21275">
        <ele>430.19</ele>
        <time>2021-03-10T12:28:49.741Z</time>
      </trkpt>
      <trkpt lat="47.10287" lon="7.21266">
        <ele>430.19</ele>
        <time>2021-03-10T12:28:56.605Z</time>
      </trkpt>
      <trkpt lat="47.10284" lon="7.21259">
        <ele>430.19</ele>
        <time>2021-03-10T12:29:02.270Z</time>
      </trkpt>
      <trkpt lat="47.10283" lon="7.21259">
        <ele>430.09</ele>
        <time>2021-03-10T12:29:02.495Z</time>
      </trkpt>
      <trkpt lat="47.10279" lon="7.21248">
        <ele>430.1</ele>
        <time>2021-03-10T12:29:11.130Z</time>
      </trkpt>
      <trkpt lat="47.10275" lon="7.21237">
        <ele>430.18</ele>
        <time>2021-03-10T12:29:20.479Z</time>
      </trkpt>
      <trkpt lat="47.1027" lon="7.21226">
        <ele>429.92</ele>
        <time>2021-03-10T12:29:23.074Z</time>
      </trkpt>
      <trkpt lat="47.10267" lon="7.21223">
        <ele>429.98</ele>
        <time>2021-03-10T12:29:27.377Z</time>
      </trkpt>
      <trkpt lat="47.1026" lon="7.21211">
        <ele>429.91</ele>
        <time>2021-03-10T12:29:37.220Z</time>
      </trkpt>
      <trkpt lat="47.10259" lon="7.21211">
        <ele>429.91</ele>
        <time>2021-03-10T12:29:38.226Z</time>
      </trkpt>
      <trkpt lat="47.10253" lon="7.21202">
        <ele>429.99</ele>
        <time>2021-03-10T12:29:47.661Z</time>
      </trkpt>
      <trkpt lat="47.10245" lon="7.21194">
        <ele>429.95</ele>
        <time>2021-03-10T12:29:56.819Z</time>
      </trkpt>
      <trkpt lat="47.10238" lon="7.21189">
        <ele>429.98</ele>
        <time>2021-03-10T12:30:04.937Z</time>
      </trkpt>
      <trkpt lat="47.10235" lon="7.21187">
        <ele>429.98</ele>
        <time>2021-03-10T12:30:08.252Z</time>
      </trkpt>
      <trkpt lat="47.10231" lon="7.21186">
        <ele>430.07</ele>
        <time>2021-03-10T12:30:13.376Z</time>
      </trkpt>
      <trkpt lat="47.10227" lon="7.21187">
        <ele>430.18</ele>
        <time>2021-03-10T12:30:18.807Z</time>
      </trkpt>
      <trkpt lat="47.10224" lon="7.21188">
        <ele>430.19</ele>
        <time>2021-03-10T12:30:21.998Z</time>
      </trkpt>
      <trkpt lat="47.10223" lon="7.21189">
        <ele>430.16</ele>
        <time>2021-03-10T12:30:22.362Z</time>
      </trkpt>
      <trkpt lat="47.10221" lon="7.2119">
        <ele>430.11</ele>
        <time>2021-03-10T12:30:23.007Z</time>
      </trkpt>
      <trkpt lat="47.10218" lon="7.21194">
        <ele>430.06</ele>
        <time>2021-03-10T12:30:24.424Z</time>
      </trkpt>
      <trkpt lat="47.10218" lon="7.21195">
        <ele>430.05</ele>
        <time>2021-03-10T12:30:24.655Z</time>
      </trkpt>
      <trkpt lat="47.10217" lon="7.21199">
        <ele>430.08</ele>
        <time>2021-03-10T12:30:27.879Z</time>
      </trkpt>
      <trkpt lat="47.10216" lon="7.21203">
        <ele>430.14</ele>
        <time>2021-03-10T12:30:31.480Z</time>
      </trkpt>
      <trkpt lat="47.10215" lon="7.21211">
        <ele>430.23</ele>
        <time>2021-03-10T12:30:38.025Z</time>
      </trkpt>
      <trkpt lat="47.10212" lon="7.21211">
        <ele>430.2</ele>
        <time>2021-03-10T12:30:39.107Z</time>
      </trkpt>
      <trkpt lat="47.1021" lon="7.2121">
        <ele>430.29</ele>
        <time>2021-03-10T12:30:42.593Z</time>
      </trkpt>
      <trkpt lat="47.10207" lon="7.21208">
        <ele>430.1</ele>
        <time>2021-03-10T12:30:43.320Z</time>
      </trkpt>
      <trkpt lat="47.102" lon="7.21199">
        <ele>430.01</ele>
        <time>2021-03-10T12:30:46.689Z</time>
      </trkpt>
      <trkpt lat="47.10189" lon="7.21191">
        <ele>430.19</ele>
        <time>2021-03-10T12:31:00.956Z</time>
      </trkpt>
      <trkpt lat="47.10186" lon="7.21188">
        <ele>430.2</ele>
        <time>2021-03-10T12:31:04.702Z</time>
      </trkpt>
      <trkpt lat="47.10181" lon="7.21186">
        <ele>430.2</ele>
        <time>2021-03-10T12:31:09.916Z</time>
      </trkpt>
      <trkpt lat="47.10178" lon="7.21185">
        <ele>430.24</ele>
        <time>2021-03-10T12:31:13.430Z</time>
      </trkpt>
      <trkpt lat="47.10175" lon="7.21186">
        <ele>430.21</ele>
        <time>2021-03-10T12:31:14.543Z</time>
      </trkpt>
      <trkpt lat="47.1017" lon="7.2119">
        <ele>430.28</ele>
        <time>2021-03-10T12:31:20.998Z</time>
      </trkpt>
      <trkpt lat="47.10178" lon="7.21208">
        <ele>431.9</ele>
        <time>2021-03-10T12:32:03.749Z</time>
      </trkpt>
      <trkpt lat="47.10179" lon="7.21211">
        <ele>431.9</ele>
        <time>2021-03-10T12:32:06.037Z</time>
      </trkpt>
      <trkpt lat="47.10184" lon="7.21222">
        <ele>431.9</ele>
        <time>2021-03-10T12:32:15.097Z</time>
      </trkpt>
      <trkpt lat="47.1019" lon="7.21233">
        <ele>432.02</ele>
        <time>2021-03-10T12:32:26.000Z</time>
      </trkpt>
      <trkpt lat="47.10196" lon="7.21243">
        <ele>432.05</ele>
        <time>2021-03-10T12:32:35.416Z</time>
      </trkpt>
      <trkpt lat="47.10198" lon="7.21249">
        <ele>432.08</ele>
        <time>2021-03-10T12:32:40.286Z</time>
      </trkpt>
      <trkpt lat="47.102" lon="7.21255">
        <ele>432.26</ele>
        <time>2021-03-10T12:32:47.464Z</time>
      </trkpt>
      <trkpt lat="47.10201" lon="7.21261">
        <ele>432.35</ele>
        <time>2021-03-10T12:32:52.727Z</time>
      </trkpt>
      <trkpt lat="47.10202" lon="7.21267">
        <ele>432.6</ele>
        <time>2021-03-10T12:33:00.614Z</time>
      </trkpt>
      <trkpt lat="47.10202" lon="7.2127">
        <ele>432.6</ele>
        <time>2021-03-10T12:33:02.669Z</time>
      </trkpt>
      <trkpt lat="47.10202" lon="7.21269">
        <ele>432.6</ele>
        <time>2021-03-10T12:33:03.354Z</time>
      </trkpt>
      <trkpt lat="47.10202" lon="7.21274">
        <ele>432.6</ele>
        <time>2021-03-10T12:33:06.778Z</time>
      </trkpt>
      <trkpt lat="47.10201" lon="7.2128">
        <ele>432.84</ele>
        <time>2021-03-10T12:33:14.536Z</time>
      </trkpt>
      <trkpt lat="47.102" lon="7.21287">
        <ele>433.03</ele>
        <time>2021-03-10T12:33:22.160Z</time>
      </trkpt>
      <trkpt lat="47.10199" lon="7.21294">
        <ele>433.42</ele>
        <time>2021-03-10T12:33:32.831Z</time>
      </trkpt>
      <trkpt lat="47.10197" lon="7.213">
        <ele>433.73</ele>
        <time>2021-03-10T12:33:41.913Z</time>
      </trkpt>
      <trkpt lat="47.10193" lon="7.21307">
        <ele>433.88</ele>
        <time>2021-03-10T12:33:49.948Z</time>
      </trkpt>
      <trkpt lat="47.10189" lon="7.21314">
        <ele>433.94</ele>
        <time>2021-03-10T12:33:56.814Z</time>
      </trkpt>
      <trkpt lat="47.10169" lon="7.21341">
        <ele>435.72</ele>
        <time>2021-03-10T12:34:50.019Z</time>
      </trkpt>
      <trkpt lat="47.10164" lon="7.21349">
        <ele>436.81</ele>
        <time>2021-03-10T12:35:18.711Z</time>
      </trkpt>
      <trkpt lat="47.10162" lon="7.21353">
        <ele>437.48</ele>
        <time>2021-03-10T12:35:31.823Z</time>
      </trkpt>
      <trkpt lat="47.10161" lon="7.21356">
        <ele>437.74</ele>
        <time>2021-03-10T12:35:38.740Z</time>
      </trkpt>
      <trkpt lat="47.10161" lon="7.2136">
        <ele>438.16</ele>
        <time>2021-03-10T12:35:49.307Z</time>
      </trkpt>
      <trkpt lat="47.10162" lon="7.21362">
        <ele>438.36</ele>
        <time>2021-03-10T12:35:54.693Z</time>
      </trkpt>
      <trkpt lat="47.10162" lon="7.21363">
        <ele>438.48</ele>
        <time>2021-03-10T12:35:57.335Z</time>
      </trkpt>
      <trkpt lat="47.10164" lon="7.21368">
        <ele>439.01</ele>
        <time>2021-03-10T12:36:12.656Z</time>
      </trkpt>
      <trkpt lat="47.10168" lon="7.21378">
        <ele>439.2</ele>
        <time>2021-03-10T12:36:22.847Z</time>
      </trkpt>
      <trkpt lat="47.10171" lon="7.21385">
        <ele>439.35</ele>
        <time>2021-03-10T12:36:30.341Z</time>
      </trkpt>
      <trkpt lat="47.1015" lon="7.21365">
        <ele>440.17</ele>
        <time>2021-03-10T12:37:06.322Z</time>
      </trkpt>
      <trkpt lat="47.10116" lon="7.21334">
        <ele>441.19</ele>
        <time>2021-03-10T12:37:58.852Z</time>
      </trkpt>
      <trkpt lat="47.10103" lon="7.21323">
        <ele>441.7</ele>
        <time>2021-03-10T12:38:20.773Z</time>
      </trkpt>
      <trkpt lat="47.10091" lon="7.21315">
        <ele>442.08</ele>
        <time>2021-03-10T12:38:38.792Z</time>
      </trkpt>
      <trkpt lat="47.1009" lon="7.21314">
        <ele>442.11</ele>
        <time>2021-03-10T12:38:40.367Z</time>
      </trkpt>
      <trkpt lat="47.10081" lon="7.21307">
        <ele>442.54</ele>
        <time>2021-03-10T12:38:57.077Z</time>
      </trkpt>
      <trkpt lat="47.10073" lon="7.21301">
        <ele>443.25</ele>
        <time>2021-03-10T12:39:16.595Z</time>
      </trkpt>
      <trkpt lat="47.10072" lon="7.21301">
        <ele>443.25</ele>
        <time>2021-03-10T12:39:17.601Z</time>
      </trkpt>
      <trkpt lat="47.10056" lon="7.21289">
        <ele>443.96</ele>
        <time>2021-03-10T12:39:45.934Z</time>
      </trkpt>
      <trkpt lat="47.10043" lon="7.2128">
        <ele>444.57</ele>
        <time>2021-03-10T12:40:09.594Z</time>
      </trkpt>
      <trkpt lat="47.10034" lon="7.21272">
        <ele>444.94</ele>
        <time>2021-03-10T12:40:25.209Z</time>
      </trkpt>
      <trkpt lat="47.10024" lon="7.21265">
        <ele>445.26</ele>
        <time>2021-03-10T12:40:40.366Z</time>
      </trkpt>
      <trkpt lat="47.10011" lon="7.21253">
        <ele>445.78</ele>
        <time>2021-03-10T12:41:02.763Z</time>
      </trkpt>
      <trkpt lat="47.09992" lon="7.21236">
        <ele>446.26</ele>
        <time>2021-03-10T12:41:30.662Z</time>
      </trkpt>
      <trkpt lat="47.09978" lon="7.21223">
        <ele>446.8</ele>
        <time>2021-03-10T12:41:54.423Z</time>
      </trkpt>
      <trkpt lat="47.09965" lon="7.21211">
        <ele>447.44</ele>
        <time>2021-03-10T12:42:19.414Z</time>
      </trkpt>
      <trkpt lat="47.09961" lon="7.21208">
        <ele>447.49</ele>
        <time>2021-03-10T12:42:24.446Z</time>
      </trkpt>
      <trkpt lat="47.09959" lon="7.21206">
        <ele>447.55</ele>
        <time>2021-03-10T12:42:27.596Z</time>
      </trkpt>
      <trkpt lat="47.09937" lon="7.21189">
        <ele>447.75</ele>
        <time>2021-03-10T12:42:54.599Z</time>
      </trkpt>
      <trkpt lat="47.0992" lon="7.21178">
        <ele>448.44</ele>
        <time>2021-03-10T12:43:22.930Z</time>
      </trkpt>
      <trkpt lat="47.09895" lon="7.2116">
        <ele>449.68</ele>
        <time>2021-03-10T12:44:10.222Z</time>
      </trkpt>
      <trkpt lat="47.09862" lon="7.21138">
        <ele>451.33</ele>
        <time>2021-03-10T12:45:12.168Z</time>
      </trkpt>
      <trkpt lat="47.09848" lon="7.21127">
        <ele>452.3</ele>
        <time>2021-03-10T12:45:42.292Z</time>
      </trkpt>
      <trkpt lat="47.09832" lon="7.21113">
        <ele>452.91</ele>
        <time>2021-03-10T12:46:09.063Z</time>
      </trkpt>
      <trkpt lat="47.09816" lon="7.21099">
        <ele>453.55</ele>
        <time>2021-03-10T12:46:36.411Z</time>
      </trkpt>
      <trkpt lat="47.09803" lon="7.21087">
        <ele>454.02</ele>
        <time>2021-03-10T12:46:57.880Z</time>
      </trkpt>
      <trkpt lat="47.09802" lon="7.21087">
        <ele>454.05</ele>
        <time>2021-03-10T12:46:59.267Z</time>
      </trkpt>
      <trkpt lat="47.09798" lon="7.21085">
        <ele>454.2</ele>
        <time>2021-03-10T12:47:05.567Z</time>
      </trkpt>
      <trkpt lat="47.09798" lon="7.21085">
        <ele>454.4</ele>
        <time>2021-03-10T12:47:05.567Z</time>
      </trkpt>
      <trkpt lat="47.09787" lon="7.21072">
        <ele>454.78</ele>
        <time>2021-03-10T12:47:24.421Z</time>
      </trkpt>
      <trkpt lat="47.09784" lon="7.21068">
        <ele>454.95</ele>
        <time>2021-03-10T12:47:31.043Z</time>
      </trkpt>
      <trkpt lat="47.09768" lon="7.21053">
        <ele>455.82</ele>
        <time>2021-03-10T12:48:03.551Z</time>
      </trkpt>
      <trkpt lat="47.09756" lon="7.21041">
        <ele>456.48</ele>
        <time>2021-03-10T12:48:28.355Z</time>
      </trkpt>
      <trkpt lat="47.09742" lon="7.21026">
        <ele>456.97</ele>
        <time>2021-03-10T12:48:51.886Z</time>
      </trkpt>
      <trkpt lat="47.0973" lon="7.21013">
        <ele>456.85</ele>
        <time>2021-03-10T12:48:57.405Z</time>
      </trkpt>
      <trkpt lat="47.09716" lon="7.20995">
        <ele>456.51</ele>
        <time>2021-03-10T12:49:03.449Z</time>
      </trkpt>
      <trkpt lat="47.09695" lon="7.20969">
        <ele>455.38</ele>
        <time>2021-03-10T12:49:10.453Z</time>
      </trkpt>
      <trkpt lat="47.09685" lon="7.20957">
        <ele>454.6</ele>
        <time>2021-03-10T12:49:13.242Z</time>
      </trkpt>
      <trkpt lat="47.09677" lon="7.2095">
        <ele>453.86</ele>
        <time>2021-03-10T12:49:15.333Z</time>
      </trkpt>
      <trkpt lat="47.0967" lon="7.20944">
        <ele>453.36</ele>
        <time>2021-03-10T12:49:17.065Z</time>
      </trkpt>
      <trkpt lat="47.09661" lon="7.20937">
        <ele>452.64</ele>
        <time>2021-03-10T12:49:19.351Z</time>
      </trkpt>
      <trkpt lat="47.09644" lon="7.20925">
        <ele>450.94</ele>
        <time>2021-03-10T12:49:23.586Z</time>
      </trkpt>
      <trkpt lat="47.09635" lon="7.2092">
        <ele>449.69</ele>
        <time>2021-03-10T12:49:25.747Z</time>
      </trkpt>
      <trkpt lat="47.09635" lon="7.20919">
        <ele>449.69</ele>
        <time>2021-03-10T12:49:26.432Z</time>
      </trkpt>
      <trkpt lat="47.09619" lon="7.20909">
        <ele>448.45</ele>
        <time>2021-03-10T12:49:30.336Z</time>
      </trkpt>
      <trkpt lat="47.09602" lon="7.20899">
        <ele>447.61</ele>
        <time>2021-03-10T12:49:34.808Z</time>
      </trkpt>
      <trkpt lat="47.09604" lon="7.2089">
        <ele>446.82</ele>
        <time>2021-03-10T12:49:36.255Z</time>
      </trkpt>
      <trkpt lat="47.0961" lon="7.2087">
        <ele>444.74</ele>
        <time>2021-03-10T12:49:39.596Z</time>
      </trkpt>
      <trkpt lat="47.09612" lon="7.20864">
        <ele>444.19</ele>
        <time>2021-03-10T12:49:40.617Z</time>
      </trkpt>
      <trkpt lat="47.09612" lon="7.20854">
        <ele>443.26</ele>
        <time>2021-03-10T12:49:42.145Z</time>
      </trkpt>
      <trkpt lat="47.09612" lon="7.20851">
        <ele>443</ele>
        <time>2021-03-10T12:49:42.604Z</time>
      </trkpt>
      <trkpt lat="47.0961" lon="7.20824">
        <ele>440.31</ele>
        <time>2021-03-10T12:49:46.755Z</time>
      </trkpt>
      <trkpt lat="47.0961" lon="7.20818">
        <ele>439.74</ele>
        <time>2021-03-10T12:49:47.672Z</time>
      </trkpt>
      <trkpt lat="47.0961" lon="7.20803">
        <ele>438.35</ele>
        <time>2021-03-10T12:49:49.965Z</time>
      </trkpt>
      <trkpt lat="47.0961" lon="7.20777">
        <ele>436.21</ele>
        <time>2021-03-10T12:49:53.940Z</time>
      </trkpt>
      <trkpt lat="47.09609" lon="7.20765">
        <ele>435.52</ele>
        <time>2021-03-10T12:49:55.788Z</time>
      </trkpt>
      <trkpt lat="47.09608" lon="7.20755">
        <ele>435.14</ele>
        <time>2021-03-10T12:49:57.337Z</time>
      </trkpt>
      <trkpt lat="47.09607" lon="7.20745">
        <ele>434.85</ele>
        <time>2021-03-10T12:49:59.076Z</time>
      </trkpt>
      <trkpt lat="47.09606" lon="7.20741">
        <ele>434.76</ele>
        <time>2021-03-10T12:49:59.893Z</time>
      </trkpt>
      <trkpt lat="47.09605" lon="7.20735">
        <ele>434.58</ele>
        <time>2021-03-10T12:50:00.949Z</time>
      </trkpt>
      <trkpt lat="47.09602" lon="7.20724">
        <ele>434.19</ele>
        <time>2021-03-10T12:50:02.876Z</time>
      </trkpt>
      <trkpt lat="47.09598" lon="7.20713">
        <ele>433.68</ele>
        <time>2021-03-10T12:50:04.714Z</time>
      </trkpt>
      <trkpt lat="47.09594" lon="7.20704">
        <ele>433.22</ele>
        <time>2021-03-10T12:50:06.264Z</time>
      </trkpt>
      <trkpt lat="47.09588" lon="7.20693">
        <ele>432.81</ele>
        <time>2021-03-10T12:50:08.675Z</time>
      </trkpt>
      <trkpt lat="47.0958" lon="7.20682">
        <ele>432.52</ele>
        <time>2021-03-10T12:50:11.917Z</time>
      </trkpt>
      <trkpt lat="47.09549" lon="7.20635">
        <ele>431.79</ele>
        <time>2021-03-10T12:50:26.724Z</time>
      </trkpt>
      <trkpt lat="47.09549" lon="7.20634">
        <ele>431.75</ele>
        <time>2021-03-10T12:50:26.873Z</time>
      </trkpt>
      <trkpt lat="47.09548" lon="7.20634">
        <ele>431.75</ele>
        <time>2021-03-10T12:50:27.879Z</time>
      </trkpt>
      <trkpt lat="47.09541" lon="7.20622">
        <ele>431.71</ele>
        <time>2021-03-10T12:50:38.121Z</time>
      </trkpt>
      <trkpt lat="47.09525" lon="7.206">
        <ele>431.5</ele>
        <time>2021-03-10T12:50:46.067Z</time>
      </trkpt>
      <trkpt lat="47.09518" lon="7.20591">
        <ele>431.64</ele>
        <time>2021-03-10T12:50:56.924Z</time>
      </trkpt>
      <trkpt lat="47.09511" lon="7.20583">
        <ele>431.45</ele>
        <time>2021-03-10T12:50:59.701Z</time>
      </trkpt>
      <trkpt lat="47.09505" lon="7.20576">
        <ele>431.56</ele>
        <time>2021-03-10T12:51:08.578Z</time>
      </trkpt>
      <trkpt lat="47.09492" lon="7.20564">
        <ele>431.53</ele>
        <time>2021-03-10T12:51:23.578Z</time>
      </trkpt>
      <trkpt lat="47.0947" lon="7.20542">
        <ele>431.7</ele>
        <time>2021-03-10T12:51:52.022Z</time>
      </trkpt>
      <trkpt lat="47.09467" lon="7.20539">
        <ele>431.77</ele>
        <time>2021-03-10T12:51:56.458Z</time>
      </trkpt>
      <trkpt lat="47.09462" lon="7.20535">
        <ele>431.79</ele>
        <time>2021-03-10T12:52:02.377Z</time>
      </trkpt>
      <trkpt lat="47.09458" lon="7.20532">
        <ele>431.77</ele>
        <time>2021-03-10T12:52:06.607Z</time>
      </trkpt>
      <trkpt lat="47.09453" lon="7.20529">
        <ele>431.87</ele>
        <time>2021-03-10T12:52:13.152Z</time>
      </trkpt>
      <trkpt lat="47.09444" lon="7.20526">
        <ele>431.72</ele>
        <time>2021-03-10T12:52:16.224Z</time>
      </trkpt>
      <trkpt lat="47.09418" lon="7.20518">
        <ele>431.41</ele>
        <time>2021-03-10T12:52:25.594Z</time>
      </trkpt>
      <trkpt lat="47.09405" lon="7.20514">
        <ele>431.28</ele>
        <time>2021-03-10T12:52:30.397Z</time>
      </trkpt>
      <trkpt lat="47.09376" lon="7.20503">
        <ele>431.51</ele>
        <time>2021-03-10T12:53:02.815Z</time>
      </trkpt>
      <trkpt lat="47.09352" lon="7.20493">
        <ele>431.67</ele>
        <time>2021-03-10T12:53:29.483Z</time>
      </trkpt>
      <trkpt lat="47.09327" lon="7.20484">
        <ele>432.1</ele>
        <time>2021-03-10T12:54:00.062Z</time>
      </trkpt>
      <trkpt lat="47.09307" lon="7.20478">
        <ele>432.04</ele>
        <time>2021-03-10T12:54:19.717Z</time>
      </trkpt>
      <trkpt lat="47.09288" lon="7.20469">
        <ele>431.99</ele>
        <time>2021-03-10T12:54:39.062Z</time>
      </trkpt>
      <trkpt lat="47.09274" lon="7.20464">
        <ele>432.04</ele>
        <time>2021-03-10T12:54:54.036Z</time>
      </trkpt>
      <trkpt lat="47.09262" lon="7.20458">
        <ele>432</ele>
        <time>2021-03-10T12:55:06.202Z</time>
      </trkpt>
      <trkpt lat="47.09257" lon="7.20455">
        <ele>431.94</ele>
        <time>2021-03-10T12:55:08.122Z</time>
      </trkpt>
      <trkpt lat="47.09247" lon="7.2045">
        <ele>431.72</ele>
        <time>2021-03-10T12:55:11.451Z</time>
      </trkpt>
      <trkpt lat="47.09244" lon="7.20448">
        <ele>431.74</ele>
        <time>2021-03-10T12:55:14.962Z</time>
      </trkpt>
      <trkpt lat="47.09242" lon="7.20447">
        <ele>431.74</ele>
        <time>2021-03-10T12:55:17.087Z</time>
      </trkpt>
      <trkpt lat="47.09238" lon="7.20446">
        <ele>431.67</ele>
        <time>2021-03-10T12:55:18.422Z</time>
      </trkpt>
      <trkpt lat="47.09232" lon="7.20445">
        <ele>431.72</ele>
        <time>2021-03-10T12:55:24.997Z</time>
      </trkpt>
      <trkpt lat="47.09221" lon="7.20445">
        <ele>431.57</ele>
        <time>2021-03-10T12:55:28.780Z</time>
      </trkpt>
      <trkpt lat="47.0922" lon="7.20445">
        <ele>431.57</ele>
        <time>2021-03-10T12:55:29.786Z</time>
      </trkpt>
      <trkpt lat="47.09211" lon="7.20444">
        <ele>431.41</ele>
        <time>2021-03-10T12:55:32.737Z</time>
      </trkpt>
      <trkpt lat="47.09177" lon="7.20443">
        <ele>431.55</ele>
        <time>2021-03-10T12:56:08.297Z</time>
      </trkpt>
      <trkpt lat="47.09167" lon="7.20443">
        <ele>431.64</ele>
        <time>2021-03-10T12:56:19.263Z</time>
      </trkpt>
      <trkpt lat="47.09155" lon="7.20442">
        <ele>431.62</ele>
        <time>2021-03-10T12:56:31.056Z</time>
      </trkpt>
      <trkpt lat="47.09134" lon="7.2044">
        <ele>431.94</ele>
        <time>2021-03-10T12:56:55.658Z</time>
      </trkpt>
      <trkpt lat="47.09127" lon="7.20441">
        <ele>431.99</ele>
        <time>2021-03-10T12:57:03.227Z</time>
      </trkpt>
      <trkpt lat="47.09123" lon="7.20442">
        <ele>432.15</ele>
        <time>2021-03-10T12:57:09.618Z</time>
      </trkpt>
      <trkpt lat="47.09116" lon="7.20445">
        <ele>432.09</ele>
        <time>2021-03-10T12:57:12.311Z</time>
      </trkpt>
      <trkpt lat="47.09115" lon="7.20446">
        <ele>432.08</ele>
        <time>2021-03-10T12:57:12.757Z</time>
      </trkpt>
      <trkpt lat="47.09108" lon="7.20451">
        <ele>432.15</ele>
        <time>2021-03-10T12:57:21.293Z</time>
      </trkpt>
      <trkpt lat="47.09101" lon="7.20457">
        <ele>432.23</ele>
        <time>2021-03-10T12:57:30.259Z</time>
      </trkpt>
      <trkpt lat="47.09088" lon="7.20466">
        <ele>432.31</ele>
        <time>2021-03-10T12:57:45.497Z</time>
      </trkpt>
      <trkpt lat="47.09077" lon="7.20476">
        <ele>432.31</ele>
        <time>2021-03-10T12:57:58.514Z</time>
      </trkpt>
      <trkpt lat="47.09074" lon="7.20479">
        <ele>432.27</ele>
        <time>2021-03-10T12:57:59.805Z</time>
      </trkpt>
      <trkpt lat="47.09061" lon="7.20495">
        <ele>432.07</ele>
        <time>2021-03-10T12:58:05.778Z</time>
      </trkpt>
      <trkpt lat="47.09055" lon="7.20504">
        <ele>432.03</ele>
        <time>2021-03-10T12:58:13.831Z</time>
      </trkpt>
      <trkpt lat="47.09051" lon="7.20508">
        <ele>432.07</ele>
        <time>2021-03-10T12:58:19.100Z</time>
      </trkpt>
      <trkpt lat="47.09037" lon="7.20523">
        <ele>432.07</ele>
        <time>2021-03-10T12:58:36.536Z</time>
      </trkpt>
      <trkpt lat="47.0903" lon="7.20529">
        <ele>432.07</ele>
        <time>2021-03-10T12:58:44.692Z</time>
      </trkpt>
      <trkpt lat="47.09026" lon="7.20532">
        <ele>432</ele>
        <time>2021-03-10T12:58:46.199Z</time>
      </trkpt>
      <trkpt lat="47.09008" lon="7.20545">
        <ele>432.53</ele>
        <time>2021-03-10T12:59:12.827Z</time>
      </trkpt>
      <trkpt lat="47.09003" lon="7.20547">
        <ele>432.03</ele>
        <time>2021-03-10T12:59:13.990Z</time>
      </trkpt>
      <trkpt lat="47.08999" lon="7.20549">
        <ele>431.86</ele>
        <time>2021-03-10T12:59:15.077Z</time>
      </trkpt>
      <trkpt lat="47.08994" lon="7.2055">
        <ele>432.06</ele>
        <time>2021-03-10T12:59:23.049Z</time>
      </trkpt>
      <trkpt lat="47.08984" lon="7.2055">
        <ele>432.15</ele>
        <time>2021-03-10T12:59:34.015Z</time>
      </trkpt>
      <trkpt lat="47.08977" lon="7.20549">
        <ele>432.18</ele>
        <time>2021-03-10T12:59:41.379Z</time>
      </trkpt>
      <trkpt lat="47.08964" lon="7.2055">
        <ele>432.44</ele>
        <time>2021-03-10T12:59:57.411Z</time>
      </trkpt>
      <trkpt lat="47.08945" lon="7.20552">
        <ele>432.58</ele>
        <time>2021-03-10T13:00:17.962Z</time>
      </trkpt>
      <trkpt lat="47.08928" lon="7.20554">
        <ele>432.98</ele>
        <time>2021-03-10T13:00:39.818Z</time>
      </trkpt>
      <trkpt lat="47.08924" lon="7.20555">
        <ele>432.99</ele>
        <time>2021-03-10T13:00:43.995Z</time>
      </trkpt>
      <trkpt lat="47.08921" lon="7.20557">
        <ele>433.15</ele>
        <time>2021-03-10T13:00:49.737Z</time>
      </trkpt>
      <trkpt lat="47.08919" lon="7.20558">
        <ele>433.3</ele>
        <time>2021-03-10T13:00:54.047Z</time>
      </trkpt>
      <trkpt lat="47.08918" lon="7.20559">
        <ele>433.44</ele>
        <time>2021-03-10T13:00:57.786Z</time>
      </trkpt>
      <trkpt lat="47.08918" lon="7.20562">
        <ele>433.59</ele>
        <time>2021-03-10T13:01:02.031Z</time>
      </trkpt>
      <trkpt lat="47.08906" lon="7.20566">
        <ele>433.69</ele>
        <time>2021-03-10T13:01:15.409Z</time>
      </trkpt>
      <trkpt lat="47.08901" lon="7.20568">
        <ele>433.82</ele>
        <time>2021-03-10T13:01:22.179Z</time>
      </trkpt>
      <trkpt lat="47.08888" lon="7.20573">
        <ele>433.98</ele>
        <time>2021-03-10T13:01:37.356Z</time>
      </trkpt>
      <trkpt lat="47.08879" lon="7.20577">
        <ele>434.06</ele>
        <time>2021-03-10T13:01:47.617Z</time>
      </trkpt>
      <trkpt lat="47.08851" lon="7.20588">
        <ele>434.01</ele>
        <time>2021-03-10T13:02:16.031Z</time>
      </trkpt>
      <trkpt lat="47.08838" lon="7.20594">
        <ele>433.95</ele>
        <time>2021-03-10T13:02:28.875Z</time>
      </trkpt>
      <trkpt lat="47.08815" lon="7.20604">
        <ele>434.19</ele>
        <time>2021-03-10T13:02:55.446Z</time>
      </trkpt>
      <trkpt lat="47.08815" lon="7.20604">
        <ele>434.2</ele>
        <time>2021-03-10T13:02:55.446Z</time>
      </trkpt>
      <trkpt lat="47.08814" lon="7.20577">
        <ele>432.54</ele>
        <time>2021-03-10T13:02:59.580Z</time>
      </trkpt>
      <trkpt lat="47.08813" lon="7.20554">
        <ele>432.07</ele>
        <time>2021-03-10T13:03:04.053Z</time>
      </trkpt>
      <trkpt lat="47.08811" lon="7.20507">
        <ele>431.18</ele>
        <time>2021-03-10T13:03:13.406Z</time>
      </trkpt>
      <trkpt lat="47.08811" lon="7.20491">
        <ele>430.88</ele>
        <time>2021-03-10T13:03:16.592Z</time>
      </trkpt>
      <trkpt lat="47.0881" lon="7.20474">
        <ele>430.73</ele>
        <time>2021-03-10T13:03:20.625Z</time>
      </trkpt>
      <trkpt lat="47.0881" lon="7.20423">
        <ele>430.5</ele>
        <time>2021-03-10T13:03:52.346Z</time>
      </trkpt>
      <trkpt lat="47.08808" lon="7.20419">
        <ele>430.5</ele>
        <time>2021-03-10T13:03:55.746Z</time>
      </trkpt>
      <trkpt lat="47.08807" lon="7.20416">
        <ele>430.41</ele>
        <time>2021-03-10T13:03:56.335Z</time>
      </trkpt>
      <trkpt lat="47.08806" lon="7.20412">
        <ele>430.4</ele>
        <time>2021-03-10T13:03:59.108Z</time>
      </trkpt>
      <trkpt lat="47.08804" lon="7.20409">
        <ele>430.32</ele>
        <time>2021-03-10T13:03:59.940Z</time>
      </trkpt>
      <trkpt lat="47.08801" lon="7.20407">
        <ele>430.41</ele>
        <time>2021-03-10T13:04:04.361Z</time>
      </trkpt>
      <trkpt lat="47.08798" lon="7.20406">
        <ele>430.35</ele>
        <time>2021-03-10T13:04:05.346Z</time>
      </trkpt>
      <trkpt lat="47.08793" lon="7.20407">
        <ele>430.26</ele>
        <time>2021-03-10T13:04:06.994Z</time>
      </trkpt>
      <trkpt lat="47.08783" lon="7.2041">
        <ele>430.3</ele>
        <time>2021-03-10T13:04:17.646Z</time>
      </trkpt>
      <trkpt lat="47.08778" lon="7.20412">
        <ele>430.28</ele>
        <time>2021-03-10T13:04:22.569Z</time>
      </trkpt>
      <trkpt lat="47.08772" lon="7.20415">
        <ele>430.26</ele>
        <time>2021-03-10T13:04:28.653Z</time>
      </trkpt>
      <trkpt lat="47.08757" lon="7.20426">
        <ele>430.13</ele>
        <time>2021-03-10T13:04:34.884Z</time>
      </trkpt>
      <trkpt lat="47.08745" lon="7.20439">
        <ele>429.88</ele>
        <time>2021-03-10T13:04:39.817Z</time>
      </trkpt>
      <trkpt lat="47.0874" lon="7.20442">
        <ele>429.69</ele>
        <time>2021-03-10T13:04:41.276Z</time>
      </trkpt>
      <trkpt lat="47.08718" lon="7.20443">
        <ele>429.7</ele>
        <time>2021-03-10T13:05:03.516Z</time>
      </trkpt>
      <trkpt lat="47.08718" lon="7.20443">
        <ele>429.7</ele>
        <time>2021-03-10T13:05:03.516Z</time>
      </trkpt>
      <trkpt lat="47.08713" lon="7.20444">
        <ele>429.72</ele>
        <time>2021-03-10T13:05:08.785Z</time>
      </trkpt>
      <trkpt lat="47.08697" lon="7.20444">
        <ele>429.72</ele>
        <time>2021-03-10T13:05:24.884Z</time>
      </trkpt>
      <trkpt lat="47.08688" lon="7.20443">
        <ele>429.81</ele>
        <time>2021-03-10T13:05:34.879Z</time>
      </trkpt>
      <trkpt lat="47.08672" lon="7.20439">
        <ele>430.16</ele>
        <time>2021-03-10T13:05:55.230Z</time>
      </trkpt>
      <trkpt lat="47.08665" lon="7.20437">
        <ele>430.25</ele>
        <time>2021-03-10T13:06:03.343Z</time>
      </trkpt>
      <trkpt lat="47.08662" lon="7.20436">
        <ele>430.26</ele>
        <time>2021-03-10T13:06:06.534Z</time>
      </trkpt>
      <trkpt lat="47.08644" lon="7.2043">
        <ele>429.81</ele>
        <time>2021-03-10T13:06:12.121Z</time>
      </trkpt>
      <trkpt lat="47.08637" lon="7.20427">
        <ele>429.86</ele>
        <time>2021-03-10T13:06:19.950Z</time>
      </trkpt>
      <trkpt lat="47.08632" lon="7.20424">
        <ele>429.94</ele>
        <time>2021-03-10T13:06:26.238Z</time>
      </trkpt>
      <trkpt lat="47.08628" lon="7.2042">
        <ele>429.87</ele>
        <time>2021-03-10T13:06:27.885Z</time>
      </trkpt>
      <trkpt lat="47.08622" lon="7.20414">
        <ele>429.84</ele>
        <time>2021-03-10T13:06:34.754Z</time>
      </trkpt>
      <trkpt lat="47.08613" lon="7.20403">
        <ele>429.74</ele>
        <time>2021-03-10T13:06:39.059Z</time>
      </trkpt>
      <trkpt lat="47.08601" lon="7.2039">
        <ele>429.81</ele>
        <time>2021-03-10T13:06:54.738Z</time>
      </trkpt>
      <trkpt lat="47.08591" lon="7.20379">
        <ele>429.77</ele>
        <time>2021-03-10T13:07:06.722Z</time>
      </trkpt>
      <trkpt lat="47.0858" lon="7.20365">
        <ele>429.57</ele>
        <time>2021-03-10T13:07:11.721Z</time>
      </trkpt>
      <trkpt lat="47.08571" lon="7.20353">
        <ele>429.53</ele>
        <time>2021-03-10T13:07:23.366Z</time>
      </trkpt>
      <trkpt lat="47.08568" lon="7.20349">
        <ele>429.61</ele>
        <time>2021-03-10T13:07:28.343Z</time>
      </trkpt>
      <trkpt lat="47.08564" lon="7.20346">
        <ele>429.59</ele>
        <time>2021-03-10T13:07:32.573Z</time>
      </trkpt>
      <trkpt lat="47.08559" lon="7.20345">
        <ele>429.5</ele>
        <time>2021-03-10T13:07:34.221Z</time>
      </trkpt>
      <trkpt lat="47.08552" lon="7.20343">
        <ele>429.68</ele>
        <time>2021-03-10T13:07:43.555Z</time>
      </trkpt>
      <trkpt lat="47.08536" lon="7.20342">
        <ele>429.57</ele>
        <time>2021-03-10T13:07:58.134Z</time>
      </trkpt>
      <trkpt lat="47.08532" lon="7.20341">
        <ele>429.65</ele>
        <time>2021-03-10T13:08:03.117Z</time>
      </trkpt>
      <trkpt lat="47.08527" lon="7.20339">
        <ele>429.75</ele>
        <time>2021-03-10T13:08:09.451Z</time>
      </trkpt>
      <trkpt lat="47.08523" lon="7.20335">
        <ele>429.72</ele>
        <time>2021-03-10T13:08:13.898Z</time>
      </trkpt>
      <trkpt lat="47.08519" lon="7.2033">
        <ele>429.85</ele>
        <time>2021-03-10T13:08:20.733Z</time>
      </trkpt>
      <trkpt lat="47.08515" lon="7.20328">
        <ele>429.8</ele>
        <time>2021-03-10T13:08:22.220Z</time>
      </trkpt>
      <trkpt lat="47.08512" lon="7.20327">
        <ele>429.73</ele>
        <time>2021-03-10T13:08:23.168Z</time>
      </trkpt>
      <trkpt lat="47.085" lon="7.20327">
        <ele>430</ele>
        <time>2021-03-10T13:08:38.378Z</time>
      </trkpt>
      <trkpt lat="47.08496" lon="7.20326">
        <ele>429.84</ele>
        <time>2021-03-10T13:08:39.429Z</time>
      </trkpt>
      <trkpt lat="47.08493" lon="7.20324">
        <ele>429.89</ele>
        <time>2021-03-10T13:08:43.280Z</time>
      </trkpt>
      <trkpt lat="47.0849" lon="7.20322">
        <ele>429.93</ele>
        <time>2021-03-10T13:08:47.010Z</time>
      </trkpt>
      <trkpt lat="47.08485" lon="7.20314">
        <ele>429.97</ele>
        <time>2021-03-10T13:08:54.837Z</time>
      </trkpt>
      <trkpt lat="47.08472" lon="7.20298">
        <ele>429.82</ele>
        <time>2021-03-10T13:09:01.049Z</time>
      </trkpt>
      <trkpt lat="47.08461" lon="7.20286">
        <ele>429.88</ele>
        <time>2021-03-10T13:09:15.413Z</time>
      </trkpt>
      <trkpt lat="47.08456" lon="7.20281">
        <ele>429.89</ele>
        <time>2021-03-10T13:09:21.593Z</time>
      </trkpt>
      <trkpt lat="47.08454" lon="7.20278">
        <ele>429.84</ele>
        <time>2021-03-10T13:09:22.530Z</time>
      </trkpt>
      <trkpt lat="47.08444" lon="7.20258">
        <ele>429.73</ele>
        <time>2021-03-10T13:09:37.989Z</time>
      </trkpt>
      <trkpt lat="47.08437" lon="7.20246">
        <ele>429.72</ele>
        <time>2021-03-10T13:09:48.663Z</time>
      </trkpt>
      <trkpt lat="47.08434" lon="7.2024">
        <ele>429.72</ele>
        <time>2021-03-10T13:09:53.763Z</time>
      </trkpt>
      <trkpt lat="47.08431" lon="7.20234">
        <ele>429.74</ele>
        <time>2021-03-10T13:09:59.055Z</time>
      </trkpt>
      <trkpt lat="47.08431" lon="7.20233">
        <ele>429.76</ele>
        <time>2021-03-10T13:09:59.992Z</time>
      </trkpt>
      <trkpt lat="47.08425" lon="7.20186">
        <ele>429.76</ele>
        <time>2021-03-10T13:10:32.755Z</time>
      </trkpt>
      <trkpt lat="47.08424" lon="7.20183">
        <ele>429.64</ele>
        <time>2021-03-10T13:10:33.278Z</time>
      </trkpt>
      <trkpt lat="47.08422" lon="7.20179">
        <ele>429.59</ele>
        <time>2021-03-10T13:10:34.424Z</time>
      </trkpt>
      <trkpt lat="47.0842" lon="7.20175">
        <ele>429.67</ele>
        <time>2021-03-10T13:10:38.765Z</time>
      </trkpt>
      <trkpt lat="47.08419" lon="7.20174">
        <ele>429.72</ele>
        <time>2021-03-10T13:10:40.724Z</time>
      </trkpt>
      <trkpt lat="47.08418" lon="7.20173">
        <ele>429.77</ele>
        <time>2021-03-10T13:10:42.683Z</time>
      </trkpt>
      <trkpt lat="47.08413" lon="7.20169">
        <ele>429.78</ele>
        <time>2021-03-10T13:10:48.506Z</time>
      </trkpt>
      <trkpt lat="47.08391" lon="7.20151">
        <ele>429.69</ele>
        <time>2021-03-10T13:11:12.531Z</time>
      </trkpt>
      <trkpt lat="47.08389" lon="7.20149">
        <ele>429.71</ele>
        <time>2021-03-10T13:11:15.165Z</time>
      </trkpt>
      <trkpt lat="47.08388" lon="7.20148">
        <ele>429.72</ele>
        <time>2021-03-10T13:11:16.482Z</time>
      </trkpt>
      <trkpt lat="47.08385" lon="7.20145">
        <ele>429.63</ele>
        <time>2021-03-10T13:11:17.576Z</time>
      </trkpt>
      <trkpt lat="47.08383" lon="7.20141">
        <ele>429.63</ele>
        <time>2021-03-10T13:11:20.976Z</time>
      </trkpt>
      <trkpt lat="47.0838" lon="7.20135">
        <ele>429.61</ele>
        <time>2021-03-10T13:11:25.785Z</time>
      </trkpt>
      <trkpt lat="47.08376" lon="7.2013">
        <ele>429.6</ele>
        <time>2021-03-10T13:11:30.921Z</time>
      </trkpt>
      <trkpt lat="47.08372" lon="7.20124">
        <ele>429.6</ele>
        <time>2021-03-10T13:11:36.674Z</time>
      </trkpt>
      <trkpt lat="47.08361" lon="7.20111">
        <ele>429.59</ele>
        <time>2021-03-10T13:11:50.729Z</time>
      </trkpt>
      <trkpt lat="47.08354" lon="7.20103">
        <ele>429.67</ele>
        <time>2021-03-10T13:12:00.458Z</time>
      </trkpt>
      <trkpt lat="47.08352" lon="7.20101">
        <ele>429.72</ele>
        <time>2021-03-10T13:12:03.461Z</time>
      </trkpt>
      <trkpt lat="47.08349" lon="7.20099">
        <ele>429.77</ele>
        <time>2021-03-10T13:12:07.311Z</time>
      </trkpt>
      <trkpt lat="47.08345" lon="7.20098">
        <ele>429.72</ele>
        <time>2021-03-10T13:12:08.730Z</time>
      </trkpt>
      <trkpt lat="47.08321" lon="7.20091">
        <ele>429.58</ele>
        <time>2021-03-10T13:12:31.367Z</time>
      </trkpt>
      <trkpt lat="47.08318" lon="7.20089">
        <ele>429.56</ele>
        <time>2021-03-10T13:12:34.400Z</time>
      </trkpt>
      <trkpt lat="47.08313" lon="7.20084">
        <ele>429.6</ele>
        <time>2021-03-10T13:12:40.879Z</time>
      </trkpt>
      <trkpt lat="47.08305" lon="7.20075">
        <ele>429.38</ele>
        <time>2021-03-10T13:12:44.019Z</time>
      </trkpt>
      <trkpt lat="47.08299" lon="7.2007">
        <ele>429.65</ele>
        <time>2021-03-10T13:12:54.840Z</time>
      </trkpt>
      <trkpt lat="47.08294" lon="7.20068">
        <ele>429.52</ele>
        <time>2021-03-10T13:12:56.396Z</time>
      </trkpt>
      <trkpt lat="47.08289" lon="7.20064">
        <ele>429.42</ele>
        <time>2021-03-10T13:12:58.262Z</time>
      </trkpt>
      <trkpt lat="47.08286" lon="7.20062">
        <ele>429.64</ele>
        <time>2021-03-10T13:13:04.774Z</time>
      </trkpt>
      <trkpt lat="47.08284" lon="7.2006">
        <ele>429.57</ele>
        <time>2021-03-10T13:13:05.471Z</time>
      </trkpt>
      <trkpt lat="47.08274" lon="7.20046">
        <ele>429.96</ele>
        <time>2021-03-10T13:13:24.221Z</time>
      </trkpt>
      <trkpt lat="47.08264" lon="7.20033">
        <ele>430.09</ele>
        <time>2021-03-10T13:13:38.975Z</time>
      </trkpt>
      <trkpt lat="47.08264" lon="7.20032">
        <ele>430.1</ele>
        <time>2021-03-10T13:13:39.766Z</time>
      </trkpt>
      <trkpt lat="47.0825" lon="7.20012">
        <ele>430.23</ele>
        <time>2021-03-10T13:14:00.695Z</time>
      </trkpt>
      <trkpt lat="47.08237" lon="7.19997">
        <ele>429.79</ele>
        <time>2021-03-10T13:14:05.578Z</time>
      </trkpt>
      <trkpt lat="47.08217" lon="7.19971">
        <ele>429.68</ele>
        <time>2021-03-10T13:14:30.860Z</time>
      </trkpt>
      <trkpt lat="47.08192" lon="7.19942">
        <ele>429.57</ele>
        <time>2021-03-10T13:15:01.306Z</time>
      </trkpt>
      <trkpt lat="47.08177" lon="7.19924">
        <ele>429.6</ele>
        <time>2021-03-10T13:15:21.078Z</time>
      </trkpt>
      <trkpt lat="47.08157" lon="7.199">
        <ele>429.53</ele>
        <time>2021-03-10T13:15:46.030Z</time>
      </trkpt>
      <trkpt lat="47.08149" lon="7.19889">
        <ele>429.5</ele>
        <time>2021-03-10T13:15:56.614Z</time>
      </trkpt>
      <trkpt lat="47.08133" lon="7.1987">
        <ele>429.76</ele>
        <time>2021-03-10T13:16:20.028Z</time>
      </trkpt>
      <trkpt lat="47.08124" lon="7.19859">
        <ele>429.8</ele>
        <time>2021-03-10T13:16:32.191Z</time>
      </trkpt>
      <trkpt lat="47.08107" lon="7.19838">
        <ele>429.58</ele>
        <time>2021-03-10T13:16:40.211Z</time>
      </trkpt>
      <trkpt lat="47.0807" lon="7.19795">
        <ele>429.66</ele>
        <time>2021-03-10T13:17:28.438Z</time>
      </trkpt>
      <trkpt lat="47.0803" lon="7.19745">
        <ele>429.71</ele>
        <time>2021-03-10T13:18:21.758Z</time>
      </trkpt>
      <trkpt lat="47.08014" lon="7.19726">
        <ele>429.58</ele>
        <time>2021-03-10T13:18:40.636Z</time>
      </trkpt>
      <trkpt lat="47.08007" lon="7.19718">
        <ele>429.7</ele>
        <time>2021-03-10T13:18:50.823Z</time>
      </trkpt>
      <trkpt lat="47.08005" lon="7.19715">
        <ele>429.71</ele>
        <time>2021-03-10T13:18:53.795Z</time>
      </trkpt>
      <trkpt lat="47.08002" lon="7.19712">
        <ele>429.79</ele>
        <time>2021-03-10T13:18:58.371Z</time>
      </trkpt>
      <trkpt lat="47.07981" lon="7.19693">
        <ele>429.67</ele>
        <time>2021-03-10T13:19:21.469Z</time>
      </trkpt>
      <trkpt lat="47.07956" lon="7.19669">
        <ele>429.74</ele>
        <time>2021-03-10T13:19:52.182Z</time>
      </trkpt>
      <trkpt lat="47.07935" lon="7.1965">
        <ele>429.81</ele>
        <time>2021-03-10T13:20:17.664Z</time>
      </trkpt>
      <trkpt lat="47.07934" lon="7.1965">
        <ele>429.81</ele>
        <time>2021-03-10T13:20:18.670Z</time>
      </trkpt>
      <trkpt lat="47.07908" lon="7.19626">
        <ele>429.87</ele>
        <time>2021-03-10T13:20:50.134Z</time>
      </trkpt>
      <trkpt lat="47.07882" lon="7.19602">
        <ele>429.88</ele>
        <time>2021-03-10T13:21:21.128Z</time>
      </trkpt>
      <trkpt lat="47.07881" lon="7.19601">
        <ele>429.88</ele>
        <time>2021-03-10T13:21:22.345Z</time>
      </trkpt>
      <trkpt lat="47.0788" lon="7.19602">
        <ele>429.82</ele>
        <time>2021-03-10T13:21:22.631Z</time>
      </trkpt>
      <trkpt lat="47.07879" lon="7.19603">
        <ele>429.83</ele>
        <time>2021-03-10T13:21:23.948Z</time>
      </trkpt>
      <trkpt lat="47.07877" lon="7.19607">
        <ele>429.89</ele>
        <time>2021-03-10T13:21:28.009Z</time>
      </trkpt>
      <trkpt lat="47.07862" lon="7.19642">
        <ele>430.11</ele>
        <time>2021-03-10T13:21:58.530Z</time>
      </trkpt>
      <trkpt lat="47.07839" lon="7.19695">
        <ele>430.82</ele>
        <time>2021-03-10T13:22:49.310Z</time>
      </trkpt>
      <trkpt lat="47.07824" lon="7.19729">
        <ele>431.29</ele>
        <time>2021-03-10T13:23:22.203Z</time>
      </trkpt>
      <trkpt lat="47.07788" lon="7.19687">
        <ele>430.91</ele>
        <time>2021-03-10T13:23:39.172Z</time>
      </trkpt>
      <trkpt lat="47.07769" lon="7.19666">
        <ele>430.7</ele>
        <time>2021-03-10T13:23:47.882Z</time>
      </trkpt>
      <trkpt lat="47.07741" lon="7.19634">
        <ele>430.72</ele>
        <time>2021-03-10T13:24:23.769Z</time>
      </trkpt>
      <trkpt lat="47.07725" lon="7.19616">
        <ele>430.68</ele>
        <time>2021-03-10T13:24:43.452Z</time>
      </trkpt>
      <trkpt lat="47.07721" lon="7.1961">
        <ele>430.61</ele>
        <time>2021-03-10T13:24:45.454Z</time>
      </trkpt>
      <trkpt lat="47.07716" lon="7.19606">
        <ele>430.7</ele>
        <time>2021-03-10T13:24:52.153Z</time>
      </trkpt>
      <trkpt lat="47.07705" lon="7.19598">
        <ele>430.74</ele>
        <time>2021-03-10T13:25:04.884Z</time>
      </trkpt>
      <trkpt lat="47.07697" lon="7.19592">
        <ele>430.74</ele>
        <time>2021-03-10T13:25:13.923Z</time>
      </trkpt>
      <trkpt lat="47.07689" lon="7.19586">
        <ele>430.73</ele>
        <time>2021-03-10T13:25:22.811Z</time>
      </trkpt>
      <trkpt lat="47.07679" lon="7.1958">
        <ele>430.87</ele>
        <time>2021-03-10T13:25:35.145Z</time>
      </trkpt>
      <trkpt lat="47.07692" lon="7.19547">
        <ele>430.44</ele>
        <time>2021-03-10T13:25:43.755Z</time>
      </trkpt>
      <trkpt lat="47.07693" lon="7.19544">
        <ele>430.63</ele>
        <time>2021-03-10T13:25:48.884Z</time>
      </trkpt>
      <trkpt lat="47.07693" lon="7.19541">
        <ele>430.49</ele>
        <time>2021-03-10T13:25:49.342Z</time>
      </trkpt>
      <trkpt lat="47.07693" lon="7.1954">
        <ele>430.5</ele>
        <time>2021-03-10T13:25:50.134Z</time>
      </trkpt>
      <trkpt lat="47.07693" lon="7.19537">
        <ele>430.58</ele>
        <time>2021-03-10T13:25:53.340Z</time>
      </trkpt>
      <trkpt lat="47.07693" lon="7.19535">
        <ele>430.44</ele>
        <time>2021-03-10T13:25:53.645Z</time>
      </trkpt>
      <trkpt lat="47.07692" lon="7.19534">
        <ele>430.39</ele>
        <time>2021-03-10T13:25:53.954Z</time>
      </trkpt>
      <trkpt lat="47.07691" lon="7.19532">
        <ele>430.48</ele>
        <time>2021-03-10T13:25:56.991Z</time>
      </trkpt>
      <trkpt lat="47.07687" lon="7.19526">
        <ele>430.41</ele>
        <time>2021-03-10T13:25:58.993Z</time>
      </trkpt>
      <trkpt lat="47.07678" lon="7.19517">
        <ele>430.49</ele>
        <time>2021-03-10T13:26:10.740Z</time>
      </trkpt>
      <trkpt lat="47.07675" lon="7.19513">
        <ele>430.28</ele>
        <time>2021-03-10T13:26:11.680Z</time>
      </trkpt>
      <trkpt lat="47.07665" lon="7.19499">
        <ele>430.3</ele>
        <time>2021-03-10T13:26:25.769Z</time>
      </trkpt>
      <trkpt lat="47.07659" lon="7.1949">
        <ele>430.51</ele>
        <time>2021-03-10T13:26:36.895Z</time>
      </trkpt>
      <trkpt lat="47.07652" lon="7.19481">
        <ele>430.57</ele>
        <time>2021-03-10T13:26:46.844Z</time>
      </trkpt>
      <trkpt lat="47.07652" lon="7.19481">
        <ele>430.59</ele>
        <time>2021-03-10T13:26:46.844Z</time>
      </trkpt>
      <trkpt lat="47.07651" lon="7.19481">
        <ele>430.59</ele>
        <time>2021-03-10T13:26:47.851Z</time>
      </trkpt>
      <trkpt lat="47.07645" lon="7.19473">
        <ele>430.62</ele>
        <time>2021-03-10T13:26:56.292Z</time>
      </trkpt>
      <trkpt lat="47.07618" lon="7.19442">
        <ele>430.62</ele>
        <time>2021-03-10T13:27:30.779Z</time>
      </trkpt>
      <trkpt lat="47.0761" lon="7.19434">
        <ele>430.69</ele>
        <time>2021-03-10T13:27:41.209Z</time>
      </trkpt>
      <trkpt lat="47.07594" lon="7.19417">
        <ele>430.78</ele>
        <time>2021-03-10T13:28:01.946Z</time>
      </trkpt>
      <trkpt lat="47.07581" lon="7.19403">
        <ele>430.67</ele>
        <time>2021-03-10T13:28:16.633Z</time>
      </trkpt>
      <trkpt lat="47.07566" lon="7.19385">
        <ele>430.74</ele>
        <time>2021-03-10T13:28:36.793Z</time>
      </trkpt>
      <trkpt lat="47.07557" lon="7.19374">
        <ele>430.78</ele>
        <time>2021-03-10T13:28:48.956Z</time>
      </trkpt>
      <trkpt lat="47.07546" lon="7.19361">
        <ele>430.83</ele>
        <time>2021-03-10T13:29:03.640Z</time>
      </trkpt>
      <trkpt lat="47.07542" lon="7.19357">
        <ele>430.81</ele>
        <time>2021-03-10T13:29:08.220Z</time>
      </trkpt>
      <trkpt lat="47.07539" lon="7.19356">
        <ele>430.79</ele>
        <time>2021-03-10T13:29:11.035Z</time>
      </trkpt>
      <trkpt lat="47.07536" lon="7.19355">
        <ele>430.84</ele>
        <time>2021-03-10T13:29:14.672Z</time>
      </trkpt>
      <trkpt lat="47.07533" lon="7.19356">
        <ele>430.72</ele>
        <time>2021-03-10T13:29:15.472Z</time>
      </trkpt>
      <trkpt lat="47.07529" lon="7.19358">
        <ele>430.72</ele>
        <time>2021-03-10T13:29:19.724Z</time>
      </trkpt>
      <trkpt lat="47.07528" lon="7.19354">
        <ele>430.7</ele>
        <time>2021-03-10T13:29:22.365Z</time>
      </trkpt>
      <trkpt lat="47.07527" lon="7.19351">
        <ele>430.69</ele>
        <time>2021-03-10T13:29:24.510Z</time>
      </trkpt>
      <trkpt lat="47.07529" lon="7.19344">
        <ele>430.71</ele>
        <time>2021-03-10T13:29:29.903Z</time>
      </trkpt>
      <trkpt lat="47.07529" lon="7.1934">
        <ele>430.46</ele>
        <time>2021-03-10T13:29:30.514Z</time>
      </trkpt>
      <trkpt lat="47.07528" lon="7.19338">
        <ele>430.41</ele>
        <time>2021-03-10T13:29:30.998Z</time>
      </trkpt>
      <trkpt lat="47.07524" lon="7.19335">
        <ele>430.26</ele>
        <time>2021-03-10T13:29:32.233Z</time>
      </trkpt>
      <trkpt lat="47.07519" lon="7.19332">
        <ele>430.51</ele>
        <time>2021-03-10T13:29:41.511Z</time>
      </trkpt>
      <trkpt lat="47.07515" lon="7.19329">
        <ele>430.32</ele>
        <time>2021-03-10T13:29:42.644Z</time>
      </trkpt>
      <trkpt lat="47.07512" lon="7.19327">
        <ele>429.85</ele>
        <time>2021-03-10T13:29:43.383Z</time>
      </trkpt>
      <trkpt lat="47.07509" lon="7.19328">
        <ele>430.2</ele>
        <time>2021-03-10T13:29:52.681Z</time>
      </trkpt>
      <trkpt lat="47.07505" lon="7.19329">
        <ele>430.51</ele>
        <time>2021-03-10T13:30:01.313Z</time>
      </trkpt>
      <trkpt lat="47.07502" lon="7.1933">
        <ele>430.63</ele>
        <time>2021-03-10T13:30:06.129Z</time>
      </trkpt>
      <trkpt lat="47.07499" lon="7.19328">
        <ele>430.73</ele>
        <time>2021-03-10T13:30:10.721Z</time>
      </trkpt>
      <trkpt lat="47.07492" lon="7.19325">
        <ele>430.57</ele>
        <time>2021-03-10T13:30:12.990Z</time>
      </trkpt>
      <trkpt lat="47.07473" lon="7.19316">
        <ele>430.57</ele>
        <time>2021-03-10T13:30:33.079Z</time>
      </trkpt>
      <trkpt lat="47.07468" lon="7.19315">
        <ele>430.61</ele>
        <time>2021-03-10T13:30:38.554Z</time>
      </trkpt>
      <trkpt lat="47.07463" lon="7.19313">
        <ele>430.66</ele>
        <time>2021-03-10T13:30:44.274Z</time>
      </trkpt>
      <trkpt lat="47.07454" lon="7.19309">
        <ele>430.56</ele>
        <time>2021-03-10T13:30:47.636Z</time>
      </trkpt>
      <trkpt lat="47.07449" lon="7.19306">
        <ele>430.71</ele>
        <time>2021-03-10T13:30:54.925Z</time>
      </trkpt>
      <trkpt lat="47.07445" lon="7.19302">
        <ele>430.75</ele>
        <time>2021-03-10T13:31:00.193Z</time>
      </trkpt>
      <trkpt lat="47.0744" lon="7.19297">
        <ele>430.5</ele>
        <time>2021-03-10T13:31:01.733Z</time>
      </trkpt>
      <trkpt lat="47.07437" lon="7.19295">
        <ele>430.34</ele>
        <time>2021-03-10T13:31:02.519Z</time>
      </trkpt>
      <trkpt lat="47.07433" lon="7.19293">
        <ele>430.23</ele>
        <time>2021-03-10T13:31:03.775Z</time>
      </trkpt>
      <trkpt lat="47.07422" lon="7.19288">
        <ele>430.23</ele>
        <time>2021-03-10T13:31:15.362Z</time>
      </trkpt>
      <trkpt lat="47.07416" lon="7.19284">
        <ele>430.22</ele>
        <time>2021-03-10T13:31:21.841Z</time>
      </trkpt>
      <trkpt lat="47.07414" lon="7.19282">
        <ele>430.19</ele>
        <time>2021-03-10T13:31:22.687Z</time>
      </trkpt>
      <trkpt lat="47.0741" lon="7.19278">
        <ele>430.12</ele>
        <time>2021-03-10T13:31:24.334Z</time>
      </trkpt>
      <trkpt lat="47.07399" lon="7.19265">
        <ele>430.23</ele>
        <time>2021-03-10T13:31:39.634Z</time>
      </trkpt>
      <trkpt lat="47.07396" lon="7.19259">
        <ele>429.91</ele>
        <time>2021-03-10T13:31:40.706Z</time>
      </trkpt>
      <trkpt lat="47.07389" lon="7.19252">
        <ele>430.05</ele>
        <time>2021-03-10T13:31:50.748Z</time>
      </trkpt>
      <trkpt lat="47.07386" lon="7.19249">
        <ele>429.92</ele>
        <time>2021-03-10T13:31:51.723Z</time>
      </trkpt>
      <trkpt lat="47.07381" lon="7.19245">
        <ele>429.73</ele>
        <time>2021-03-10T13:31:53.289Z</time>
      </trkpt>
      <trkpt lat="47.07374" lon="7.19238">
        <ele>429.98</ele>
        <time>2021-03-10T13:32:04.969Z</time>
      </trkpt>
      <trkpt lat="47.07355" lon="7.19223">
        <ele>430.17</ele>
        <time>2021-03-10T13:32:28.580Z</time>
      </trkpt>
      <trkpt lat="47.07352" lon="7.19222">
        <ele>430.05</ele>
        <time>2021-03-10T13:32:29.381Z</time>
      </trkpt>
      <trkpt lat="47.07346" lon="7.19219">
        <ele>430.14</ele>
        <time>2021-03-10T13:32:36.712Z</time>
      </trkpt>
      <trkpt lat="47.07342" lon="7.19217">
        <ele>430.28</ele>
        <time>2021-03-10T13:32:42.817Z</time>
      </trkpt>
      <trkpt lat="47.07338" lon="7.19214">
        <ele>430.28</ele>
        <time>2021-03-10T13:32:47.336Z</time>
      </trkpt>
      <trkpt lat="47.07337" lon="7.19214">
        <ele>430.28</ele>
        <time>2021-03-10T13:32:48.342Z</time>
      </trkpt>
      <trkpt lat="47.07337" lon="7.19213">
        <ele>430.27</ele>
        <time>2021-03-10T13:32:48.574Z</time>
      </trkpt>
      <trkpt lat="47.07327" lon="7.19206">
        <ele>430.43</ele>
        <time>2021-03-10T13:33:01.420Z</time>
      </trkpt>
      <trkpt lat="47.07322" lon="7.19203">
        <ele>430.65</ele>
        <time>2021-03-10T13:33:10.089Z</time>
      </trkpt>
      <trkpt lat="47.07318" lon="7.19201">
        <ele>430.33</ele>
        <time>2021-03-10T13:33:11.038Z</time>
      </trkpt>
      <trkpt lat="47.07311" lon="7.19199">
        <ele>429.81</ele>
        <time>2021-03-10T13:33:12.639Z</time>
      </trkpt>
      <trkpt lat="47.07303" lon="7.19196">
        <ele>430.19</ele>
        <time>2021-03-10T13:33:26.798Z</time>
      </trkpt>
      <trkpt lat="47.07295" lon="7.19192">
        <ele>430.56</ele>
        <time>2021-03-10T13:33:40.995Z</time>
      </trkpt>
      <trkpt lat="47.0729" lon="7.1919">
        <ele>430.41</ele>
        <time>2021-03-10T13:33:42.487Z</time>
      </trkpt>
      <trkpt lat="47.07275" lon="7.19182">
        <ele>430.08</ele>
        <time>2021-03-10T13:33:47.527Z</time>
      </trkpt>
      <trkpt lat="47.07268" lon="7.19179">
        <ele>430.17</ele>
        <time>2021-03-10T13:33:55.799Z</time>
      </trkpt>
      <trkpt lat="47.07262" lon="7.19176">
        <ele>430.05</ele>
        <time>2021-03-10T13:33:57.842Z</time>
      </trkpt>
      <trkpt lat="47.07259" lon="7.19176">
        <ele>430.08</ele>
        <time>2021-03-10T13:34:01.165Z</time>
      </trkpt>
      <trkpt lat="47.07256" lon="7.19175">
        <ele>430.08</ele>
        <time>2021-03-10T13:34:04.261Z</time>
      </trkpt>
      <trkpt lat="47.07252" lon="7.19176">
        <ele>430.22</ele>
        <time>2021-03-10T13:34:10.230Z</time>
      </trkpt>
      <trkpt lat="47.07242" lon="7.19182">
        <ele>430.55</ele>
        <time>2021-03-10T13:34:25.323Z</time>
      </trkpt>
      <trkpt lat="47.0724" lon="7.19182">
        <ele>430.45</ele>
        <time>2021-03-10T13:34:25.794Z</time>
      </trkpt>
      <trkpt lat="47.07237" lon="7.19182">
        <ele>430.37</ele>
        <time>2021-03-10T13:34:26.680Z</time>
      </trkpt>
      <trkpt lat="47.07233" lon="7.19182">
        <ele>430.29</ele>
        <time>2021-03-10T13:34:27.953Z</time>
      </trkpt>
      <trkpt lat="47.07216" lon="7.19176">
        <ele>430.15</ele>
        <time>2021-03-10T13:34:34.428Z</time>
      </trkpt>
      <trkpt lat="47.07204" lon="7.19169">
        <ele>430</ele>
        <time>2021-03-10T13:34:38.986Z</time>
      </trkpt>
      <trkpt lat="47.07191" lon="7.19165">
        <ele>430.16</ele>
        <time>2021-03-10T13:34:54.009Z</time>
      </trkpt>
      <trkpt lat="47.0718" lon="7.19162">
        <ele>430.33</ele>
        <time>2021-03-10T13:35:07.086Z</time>
      </trkpt>
      <trkpt lat="47.07172" lon="7.19157">
        <ele>430.04</ele>
        <time>2021-03-10T13:35:09.479Z</time>
      </trkpt>
      <trkpt lat="47.07165" lon="7.19154">
        <ele>430.24</ele>
        <time>2021-03-10T13:35:19.278Z</time>
      </trkpt>
      <trkpt lat="47.07157" lon="7.19148">
        <ele>430.12</ele>
        <time>2021-03-10T13:35:22.379Z</time>
      </trkpt>
      <trkpt lat="47.07147" lon="7.19145">
        <ele>429.99</ele>
        <time>2021-03-10T13:35:25.930Z</time>
      </trkpt>
      <trkpt lat="47.07135" lon="7.19141">
        <ele>430.01</ele>
        <time>2021-03-10T13:35:38.499Z</time>
      </trkpt>
      <trkpt lat="47.07115" lon="7.19135">
        <ele>429.91</ele>
        <time>2021-03-10T13:35:57.605Z</time>
      </trkpt>
      <trkpt lat="47.07112" lon="7.19134">
        <ele>429.73</ele>
        <time>2021-03-10T13:35:58.279Z</time>
      </trkpt>
      <trkpt lat="47.07108" lon="7.19131">
        <ele>429.75</ele>
        <time>2021-03-10T13:36:02.991Z</time>
      </trkpt>
      <trkpt lat="47.07104" lon="7.19127">
        <ele>430.03</ele>
        <time>2021-03-10T13:36:11.968Z</time>
      </trkpt>
      <trkpt lat="47.07091" lon="7.19117">
        <ele>429.83</ele>
        <time>2021-03-10T13:36:17.016Z</time>
      </trkpt>
      <trkpt lat="47.07083" lon="7.19111">
        <ele>430.18</ele>
        <time>2021-03-10T13:36:31.071Z</time>
      </trkpt>
      <trkpt lat="47.07075" lon="7.19107">
        <ele>430.26</ele>
        <time>2021-03-10T13:36:40.382Z</time>
      </trkpt>
      <trkpt lat="47.0707" lon="7.19106">
        <ele>430.32</ele>
        <time>2021-03-10T13:36:46.081Z</time>
      </trkpt>
      <trkpt lat="47.07067" lon="7.19106">
        <ele>430.38</ele>
        <time>2021-03-10T13:36:49.776Z</time>
      </trkpt>
      <trkpt lat="47.07061" lon="7.19106">
        <ele>430.63</ele>
        <time>2021-03-10T13:36:59.540Z</time>
      </trkpt>
      <trkpt lat="47.07055" lon="7.19107">
        <ele>430.14</ele>
        <time>2021-03-10T13:37:00.896Z</time>
      </trkpt>
      <trkpt lat="47.07045" lon="7.19107">
        <ele>430.66</ele>
        <time>2021-03-10T13:37:18.724Z</time>
      </trkpt>
      <trkpt lat="47.07044" lon="7.19121">
        <ele>431.01</ele>
        <time>2021-03-10T13:37:33.217Z</time>
      </trkpt>
      <trkpt lat="47.07043" lon="7.19145">
        <ele>431.28</ele>
        <time>2021-03-10T13:37:52.627Z</time>
      </trkpt>
      <trkpt lat="47.07042" lon="7.19154">
        <ele>431.52</ele>
        <time>2021-03-10T13:38:02.301Z</time>
      </trkpt>
      <trkpt lat="47.07042" lon="7.19159">
        <ele>431.51</ele>
        <time>2021-03-10T13:38:05.580Z</time>
      </trkpt>
      <trkpt lat="47.0704" lon="7.19167">
        <ele>431.88</ele>
        <time>2021-03-10T13:38:16.803Z</time>
      </trkpt>
      <trkpt lat="47.07038" lon="7.19173">
        <ele>432.01</ele>
        <time>2021-03-10T13:38:23.004Z</time>
      </trkpt>
      <trkpt lat="47.07035" lon="7.19171">
        <ele>431.95</ele>
        <time>2021-03-10T13:38:24.075Z</time>
      </trkpt>
      <trkpt lat="47.07027" lon="7.19165">
        <ele>432.07</ele>
        <time>2021-03-10T13:38:34.374Z</time>
      </trkpt>
      <trkpt lat="47.07021" lon="7.19163">
        <ele>431.8</ele>
        <time>2021-03-10T13:38:35.904Z</time>
      </trkpt>
      <trkpt lat="47.07015" lon="7.1916">
        <ele>431.69</ele>
        <time>2021-03-10T13:38:37.986Z</time>
      </trkpt>
      <trkpt lat="47.07015" lon="7.1916">
        <ele>431.68</ele>
        <time>2021-03-10T13:38:37.986Z</time>
      </trkpt>
      <trkpt lat="47.07007" lon="7.19156">
        <ele>431.54</ele>
        <time>2021-03-10T13:38:40.788Z</time>
      </trkpt>
      <trkpt lat="47.07" lon="7.19153">
        <ele>431.41</ele>
        <time>2021-03-10T13:38:43.170Z</time>
      </trkpt>
      <trkpt lat="47.06988" lon="7.19148">
        <ele>431.3</ele>
        <time>2021-03-10T13:38:47.739Z</time>
      </trkpt>
      <trkpt lat="47.06986" lon="7.19147">
        <ele>431.49</ele>
        <time>2021-03-10T13:38:52.774Z</time>
      </trkpt>
      <trkpt lat="47.06977" lon="7.19144">
        <ele>431.43</ele>
        <time>2021-03-10T13:39:01.219Z</time>
      </trkpt>
      <trkpt lat="47.06969" lon="7.19139">
        <ele>431.23</ele>
        <time>2021-03-10T13:39:03.892Z</time>
      </trkpt>
      <trkpt lat="47.06945" lon="7.19125">
        <ele>431.34</ele>
        <time>2021-03-10T13:39:30.932Z</time>
      </trkpt>
      <trkpt lat="47.06933" lon="7.19117">
        <ele>431.58</ele>
        <time>2021-03-10T13:39:46.848Z</time>
      </trkpt>
      <trkpt lat="47.06922" lon="7.19109">
        <ele>431.49</ele>
        <time>2021-03-10T13:39:51.437Z</time>
      </trkpt>
      <trkpt lat="47.06914" lon="7.19101">
        <ele>431.4</ele>
        <time>2021-03-10T13:39:54.960Z</time>
      </trkpt>
      <trkpt lat="47.06904" lon="7.19092">
        <ele>431.68</ele>
        <time>2021-03-10T13:40:10.065Z</time>
      </trkpt>
      <trkpt lat="47.06885" lon="7.19075">
        <ele>432.07</ele>
        <time>2021-03-10T13:40:36.736Z</time>
      </trkpt>
      <trkpt lat="47.06879" lon="7.1907">
        <ele>432.08</ele>
        <time>2021-03-10T13:40:43.771Z</time>
      </trkpt>
      <trkpt lat="47.06879" lon="7.19069">
        <ele>432.08</ele>
        <time>2021-03-10T13:40:44.456Z</time>
      </trkpt>
      <trkpt lat="47.06876" lon="7.19067">
        <ele>432.09</ele>
        <time>2021-03-10T13:40:47.867Z</time>
      </trkpt>
      <trkpt lat="47.06861" lon="7.19052">
        <ele>431.76</ele>
        <time>2021-03-10T13:40:53.769Z</time>
      </trkpt>
      <trkpt lat="47.06839" lon="7.19026">
        <ele>432.12</ele>
        <time>2021-03-10T13:41:25.943Z</time>
      </trkpt>
      <trkpt lat="47.06822" lon="7.19005">
        <ele>432.13</ele>
        <time>2021-03-10T13:41:48.391Z</time>
      </trkpt>
      <trkpt lat="47.06817" lon="7.18999">
        <ele>431.91</ele>
        <time>2021-03-10T13:41:50.155Z</time>
      </trkpt>
      <trkpt lat="47.06812" lon="7.18995">
        <ele>432.31</ele>
        <time>2021-03-10T13:42:01.706Z</time>
      </trkpt>
      <trkpt lat="47.06807" lon="7.18991">
        <ele>432.25</ele>
        <time>2021-03-10T13:42:03.744Z</time>
      </trkpt>
      <trkpt lat="47.06802" lon="7.18988">
        <ele>432.23</ele>
        <time>2021-03-10T13:42:08.887Z</time>
      </trkpt>
      <trkpt lat="47.06793" lon="7.18984">
        <ele>432.16</ele>
        <time>2021-03-10T13:42:12.397Z</time>
      </trkpt>
      <trkpt lat="47.06782" lon="7.18979">
        <ele>432.18</ele>
        <time>2021-03-10T13:42:24.171Z</time>
      </trkpt>
      <trkpt lat="47.0678" lon="7.18978">
        <ele>431.73</ele>
        <time>2021-03-10T13:42:24.645Z</time>
      </trkpt>
      <trkpt lat="47.06767" lon="7.18973">
        <ele>431.82</ele>
        <time>2021-03-10T13:42:39.051Z</time>
      </trkpt>
      <trkpt lat="47.06752" lon="7.18969">
        <ele>432</ele>
        <time>2021-03-10T13:42:56.252Z</time>
      </trkpt>
      <trkpt lat="47.06749" lon="7.18968">
        <ele>432</ele>
        <time>2021-03-10T13:42:59.347Z</time>
      </trkpt>
      <trkpt lat="47.06738" lon="7.18964">
        <ele>431.74</ele>
        <time>2021-03-10T13:43:02.834Z</time>
      </trkpt>
      <trkpt lat="47.0673" lon="7.1896">
        <ele>431.72</ele>
        <time>2021-03-10T13:43:11.040Z</time>
      </trkpt>
      <trkpt lat="47.06714" lon="7.18949">
        <ele>431.19</ele>
        <time>2021-03-10T13:43:16.073Z</time>
      </trkpt>
      <trkpt lat="47.0668" lon="7.1893">
        <ele>431.5</ele>
        <time>2021-03-10T13:43:55.778Z</time>
      </trkpt>
      <trkpt lat="47.06666" lon="7.18921">
        <ele>431.55</ele>
        <time>2021-03-10T13:44:11.631Z</time>
      </trkpt>
      <trkpt lat="47.06651" lon="7.18911">
        <ele>431.49</ele>
        <time>2021-03-10T13:44:27.331Z</time>
      </trkpt>
      <trkpt lat="47.06637" lon="7.18901">
        <ele>431.46</ele>
        <time>2021-03-10T13:44:42.548Z</time>
      </trkpt>
      <trkpt lat="47.06618" lon="7.18887">
        <ele>431.61</ele>
        <time>2021-03-10T13:45:05.417Z</time>
      </trkpt>
      <trkpt lat="47.06613" lon="7.18883">
        <ele>431.51</ele>
        <time>2021-03-10T13:45:07.283Z</time>
      </trkpt>
      <trkpt lat="47.06602" lon="7.18873">
        <ele>431.39</ele>
        <time>2021-03-10T13:45:11.993Z</time>
      </trkpt>
      <trkpt lat="47.06591" lon="7.18863">
        <ele>431.64</ele>
        <time>2021-03-10T13:45:27.811Z</time>
      </trkpt>
      <trkpt lat="47.06586" lon="7.18856">
        <ele>431.77</ele>
        <time>2021-03-10T13:45:36.211Z</time>
      </trkpt>
      <trkpt lat="47.0658" lon="7.18848">
        <ele>431.82</ele>
        <time>2021-03-10T13:45:44.855Z</time>
      </trkpt>
      <trkpt lat="47.06575" lon="7.18841">
        <ele>431.79</ele>
        <time>2021-03-10T13:45:51.373Z</time>
      </trkpt>
      <trkpt lat="47.0657" lon="7.18833">
        <ele>431.76</ele>
        <time>2021-03-10T13:45:58.380Z</time>
      </trkpt>
      <trkpt lat="47.06562" lon="7.18818">
        <ele>431.82</ele>
        <time>2021-03-10T13:46:12.014Z</time>
      </trkpt>
      <trkpt lat="47.06553" lon="7.18803">
        <ele>431.88</ele>
        <time>2021-03-10T13:46:26.291Z</time>
      </trkpt>
      <trkpt lat="47.06545" lon="7.18791">
        <ele>431.7</ele>
        <time>2021-03-10T13:46:30.123Z</time>
      </trkpt>
      <trkpt lat="47.06538" lon="7.18782">
        <ele>431.78</ele>
        <time>2021-03-10T13:46:40.286Z</time>
      </trkpt>
      <trkpt lat="47.06533" lon="7.18776">
        <ele>431.91</ele>
        <time>2021-03-10T13:46:48.253Z</time>
      </trkpt>
      <trkpt lat="47.06528" lon="7.1877">
        <ele>431.82</ele>
        <time>2021-03-10T13:46:50.466Z</time>
      </trkpt>
      <trkpt lat="47.06521" lon="7.18764">
        <ele>431.94</ele>
        <time>2021-03-10T13:46:59.902Z</time>
      </trkpt>
      <trkpt lat="47.06506" lon="7.18751">
        <ele>431.89</ele>
        <time>2021-03-10T13:47:16.690Z</time>
      </trkpt>
      <trkpt lat="47.06489" lon="7.18735">
        <ele>431.94</ele>
        <time>2021-03-10T13:47:37.481Z</time>
      </trkpt>
      <trkpt lat="47.06484" lon="7.18729">
        <ele>431.98</ele>
        <time>2021-03-10T13:47:44.370Z</time>
      </trkpt>
      <trkpt lat="47.06475" lon="7.18718">
        <ele>432.1</ele>
        <time>2021-03-10T13:47:57.374Z</time>
      </trkpt>
      <trkpt lat="47.06463" lon="7.18702">
        <ele>432.22</ele>
        <time>2021-03-10T13:48:14.872Z</time>
      </trkpt>
      <trkpt lat="47.06453" lon="7.18689">
        <ele>431.98</ele>
        <time>2021-03-10T13:48:19.227Z</time>
      </trkpt>
      <trkpt lat="47.06438" lon="7.18672">
        <ele>432.38</ele>
        <time>2021-03-10T13:48:42.865Z</time>
      </trkpt>
      <trkpt lat="47.06423" lon="7.18656">
        <ele>432.31</ele>
        <time>2021-03-10T13:49:00.501Z</time>
      </trkpt>
      <trkpt lat="47.06408" lon="7.18637">
        <ele>432.17</ele>
        <time>2021-03-10T13:49:18.489Z</time>
      </trkpt>
      <trkpt lat="47.06395" lon="7.18618">
        <ele>432.69</ele>
        <time>2021-03-10T13:49:43.420Z</time>
      </trkpt>
      <trkpt lat="47.06391" lon="7.18611">
        <ele>432.48</ele>
        <time>2021-03-10T13:49:45.126Z</time>
      </trkpt>
      <trkpt lat="47.0637" lon="7.18569">
        <ele>433.1</ele>
        <time>2021-03-10T13:50:27.639Z</time>
      </trkpt>
      <trkpt lat="47.06366" lon="7.18563">
        <ele>433.21</ele>
        <time>2021-03-10T13:50:34.624Z</time>
      </trkpt>
      <trkpt lat="47.06352" lon="7.18538">
        <ele>433.55</ele>
        <time>2021-03-10T13:51:00.456Z</time>
      </trkpt>
      <trkpt lat="47.0635" lon="7.18534">
        <ele>433.15</ele>
        <time>2021-03-10T13:51:01.215Z</time>
      </trkpt>
      <trkpt lat="47.06345" lon="7.18527">
        <ele>432.88</ele>
        <time>2021-03-10T13:51:03.012Z</time>
      </trkpt>
      <trkpt lat="47.06339" lon="7.1852">
        <ele>432.72</ele>
        <time>2021-03-10T13:51:05.427Z</time>
      </trkpt>
      <trkpt lat="47.06315" lon="7.18495">
        <ele>431.78</ele>
        <time>2021-03-10T13:51:13.642Z</time>
      </trkpt>
      <trkpt lat="47.06296" lon="7.18471">
        <ele>431.6</ele>
        <time>2021-03-10T13:51:36.363Z</time>
      </trkpt>
      <trkpt lat="47.06279" lon="7.1845">
        <ele>431.89</ele>
        <time>2021-03-10T13:52:01.755Z</time>
      </trkpt>
      <trkpt lat="47.06273" lon="7.18442">
        <ele>431.56</ele>
        <time>2021-03-10T13:52:03.831Z</time>
      </trkpt>
      <trkpt lat="47.06265" lon="7.18433">
        <ele>431.78</ele>
        <time>2021-03-10T13:52:16.507Z</time>
      </trkpt>
      <trkpt lat="47.06265" lon="7.18432">
        <ele>431.78</ele>
        <time>2021-03-10T13:52:17.192Z</time>
      </trkpt>
      <trkpt lat="47.06255" lon="7.18421">
        <ele>432.01</ele>
        <time>2021-03-10T13:52:32.315Z</time>
      </trkpt>
      <trkpt lat="47.06249" lon="7.18414">
        <ele>432.01</ele>
        <time>2021-03-10T13:52:40.027Z</time>
      </trkpt>
      <trkpt lat="47.06244" lon="7.18409">
        <ele>431.78</ele>
        <time>2021-03-10T13:52:41.617Z</time>
      </trkpt>
      <trkpt lat="47.0624" lon="7.18402">
        <ele>431.74</ele>
        <time>2021-03-10T13:52:47.318Z</time>
      </trkpt>
      <trkpt lat="47.06237" lon="7.18398">
        <ele>431.74</ele>
        <time>2021-03-10T13:52:51.396Z</time>
      </trkpt>
      <trkpt lat="47.06236" lon="7.18393">
        <ele>431.65</ele>
        <time>2021-03-10T13:52:52.459Z</time>
      </trkpt>
      <trkpt lat="47.06236" lon="7.18389">
        <ele>431.54</ele>
        <time>2021-03-10T13:52:53.159Z</time>
      </trkpt>
      <trkpt lat="47.06236" lon="7.18389">
        <ele>431.54</ele>
        <time>2021-03-10T13:52:53.159Z</time>
      </trkpt>
      <trkpt lat="47.06236" lon="7.18387">
        <ele>431.58</ele>
        <time>2021-03-10T13:52:55.034Z</time>
      </trkpt>
      <trkpt lat="47.06236" lon="7.18381">
        <ele>431.56</ele>
        <time>2021-03-10T13:52:58.860Z</time>
      </trkpt>
      <trkpt lat="47.06238" lon="7.18375">
        <ele>431.42</ele>
        <time>2021-03-10T13:53:00.146Z</time>
      </trkpt>
      <trkpt lat="47.06241" lon="7.1837">
        <ele>431.35</ele>
        <time>2021-03-10T13:53:01.672Z</time>
      </trkpt>
      <trkpt lat="47.06253" lon="7.18354">
        <ele>431.1</ele>
        <time>2021-03-10T13:53:07.125Z</time>
      </trkpt>
      <trkpt lat="47.06274" lon="7.18327">
        <ele>431.05</ele>
        <time>2021-03-10T13:53:34.463Z</time>
      </trkpt>
      <trkpt lat="47.06279" lon="7.1832">
        <ele>431.15</ele>
        <time>2021-03-10T13:53:42.478Z</time>
      </trkpt>
      <trkpt lat="47.06281" lon="7.18315">
        <ele>431.18</ele>
        <time>2021-03-10T13:53:46.750Z</time>
      </trkpt>
      <trkpt lat="47.06282" lon="7.18311">
        <ele>431.04</ele>
        <time>2021-03-10T13:53:47.444Z</time>
      </trkpt>
      <trkpt lat="47.06282" lon="7.18307">
        <ele>431.11</ele>
        <time>2021-03-10T13:53:51.029Z</time>
      </trkpt>
      <trkpt lat="47.06281" lon="7.18303">
        <ele>431.04</ele>
        <time>2021-03-10T13:53:51.910Z</time>
      </trkpt>
      <trkpt lat="47.06281" lon="7.18302">
        <ele>431.21</ele>
        <time>2021-03-10T13:53:54.554Z</time>
      </trkpt>
      <trkpt lat="47.06279" lon="7.18298">
        <ele>431.23</ele>
        <time>2021-03-10T13:53:58.150Z</time>
      </trkpt>
      <trkpt lat="47.06279" lon="7.18297">
        <ele>431.23</ele>
        <time>2021-03-10T13:53:58.835Z</time>
      </trkpt>
      <trkpt lat="47.06278" lon="7.18295">
        <ele>431.23</ele>
        <time>2021-03-10T13:54:00.536Z</time>
      </trkpt>
      <trkpt lat="47.06276" lon="7.18293">
        <ele>431.23</ele>
        <time>2021-03-10T13:54:02.971Z</time>
      </trkpt>
      <trkpt lat="47.06274" lon="7.1829">
        <ele>431.3</ele>
        <time>2021-03-10T13:54:06.680Z</time>
      </trkpt>
      <trkpt lat="47.06266" lon="7.18283">
        <ele>431.3</ele>
        <time>2021-03-10T13:54:16.051Z</time>
      </trkpt>
      <trkpt lat="47.06246" lon="7.18269">
        <ele>430.54</ele>
        <time>2021-03-10T13:54:22.090Z</time>
      </trkpt>
      <trkpt lat="47.06218" lon="7.18248">
        <ele>430.29</ele>
        <time>2021-03-10T13:54:33.744Z</time>
      </trkpt>
      <trkpt lat="47.06198" lon="7.18232">
        <ele>430.26</ele>
        <time>2021-03-10T13:54:56.210Z</time>
      </trkpt>
      <trkpt lat="47.06172" lon="7.18211">
        <ele>430.34</ele>
        <time>2021-03-10T13:55:26.826Z</time>
      </trkpt>
      <trkpt lat="47.06144" lon="7.1819">
        <ele>430.26</ele>
        <time>2021-03-10T13:55:57.277Z</time>
      </trkpt>
      <trkpt lat="47.06119" lon="7.18171">
        <ele>430.77</ele>
        <time>2021-03-10T13:56:31.239Z</time>
      </trkpt>
      <trkpt lat="47.06113" lon="7.18167">
        <ele>430.95</ele>
        <time>2021-03-10T13:56:40.083Z</time>
      </trkpt>
      <trkpt lat="47.06112" lon="7.18166">
        <ele>431.05</ele>
        <time>2021-03-10T13:56:42.791Z</time>
      </trkpt>
      <trkpt lat="47.06111" lon="7.18166">
        <ele>431.05</ele>
        <time>2021-03-10T13:56:43.797Z</time>
      </trkpt>
      <trkpt lat="47.0611" lon="7.18164">
        <ele>431.14</ele>
        <time>2021-03-10T13:56:46.835Z</time>
      </trkpt>
      <trkpt lat="47.06106" lon="7.18161">
        <ele>431.34</ele>
        <time>2021-03-10T13:56:54.465Z</time>
      </trkpt>
      <trkpt lat="47.061" lon="7.18155">
        <ele>431.36</ele>
        <time>2021-03-10T13:57:01.959Z</time>
      </trkpt>
      <trkpt lat="47.06094" lon="7.18146">
        <ele>431.61</ele>
        <time>2021-03-10T13:57:13.734Z</time>
      </trkpt>
      <trkpt lat="47.06089" lon="7.18139">
        <ele>432.14</ele>
        <time>2021-03-10T13:57:28.469Z</time>
      </trkpt>
      <trkpt lat="47.06084" lon="7.18131">
        <ele>432.71</ele>
        <time>2021-03-10T13:57:44.287Z</time>
      </trkpt>
      <trkpt lat="47.06082" lon="7.18126">
        <ele>433.47</ele>
        <time>2021-03-10T13:57:59.617Z</time>
      </trkpt>
      <trkpt lat="47.0608" lon="7.18121">
        <ele>433.95</ele>
        <time>2021-03-10T13:58:12.695Z</time>
      </trkpt>
      <trkpt lat="47.06079" lon="7.18113">
        <ele>434.77</ele>
        <time>2021-03-10T13:58:34.200Z</time>
      </trkpt>
      <trkpt lat="47.06076" lon="7.18112">
        <ele>434.86</ele>
        <time>2021-03-10T13:58:38.428Z</time>
      </trkpt>
      <trkpt lat="47.06074" lon="7.18111">
        <ele>435.15</ele>
        <time>2021-03-10T13:58:46.628Z</time>
      </trkpt>
      <trkpt lat="47.06071" lon="7.18108">
        <ele>435.41</ele>
        <time>2021-03-10T13:58:54.069Z</time>
      </trkpt>
      <trkpt lat="47.06068" lon="7.18104">
        <ele>435.62</ele>
        <time>2021-03-10T13:59:01.286Z</time>
      </trkpt>
      <trkpt lat="47.06067" lon="7.18102">
        <ele>435.87</ele>
        <time>2021-03-10T13:59:07.845Z</time>
      </trkpt>
      <trkpt lat="47.06065" lon="7.18099">
        <ele>436.19</ele>
        <time>2021-03-10T13:59:16.310Z</time>
      </trkpt>
      <trkpt lat="47.06063" lon="7.18095">
        <ele>436.45</ele>
        <time>2021-03-10T13:59:23.530Z</time>
      </trkpt>
      <trkpt lat="47.06062" lon="7.18091">
        <ele>436.72</ele>
        <time>2021-03-10T13:59:30.642Z</time>
      </trkpt>
      <trkpt lat="47.06059" lon="7.18083">
        <ele>437.17</ele>
        <time>2021-03-10T13:59:43.463Z</time>
      </trkpt>
      <trkpt lat="47.06057" lon="7.18075">
        <ele>437.63</ele>
        <time>2021-03-10T13:59:56.098Z</time>
      </trkpt>
      <trkpt lat="47.06055" lon="7.1807">
        <ele>437.92</ele>
        <time>2021-03-10T14:00:04.307Z</time>
      </trkpt>
      <trkpt lat="47.06055" lon="7.18065">
        <ele>438.13</ele>
        <time>2021-03-10T14:00:10.795Z</time>
      </trkpt>
      <trkpt lat="47.06053" lon="7.18057">
        <ele>438.36</ele>
        <time>2021-03-10T14:00:19.964Z</time>
      </trkpt>
      <trkpt lat="47.06051" lon="7.1804">
        <ele>438.79</ele>
        <time>2021-03-10T14:00:37.750Z</time>
      </trkpt>
      <trkpt lat="47.0605" lon="7.18026">
        <ele>439.32</ele>
        <time>2021-03-10T14:00:55.225Z</time>
      </trkpt>
      <trkpt lat="47.0605" lon="7.18014">
        <ele>439.59</ele>
        <time>2021-03-10T14:01:07.019Z</time>
      </trkpt>
      <trkpt lat="47.0605" lon="7.18007">
        <ele>439.47</ele>
        <time>2021-03-10T14:01:08.450Z</time>
      </trkpt>
      <trkpt lat="47.06051" lon="7.17999">
        <ele>439.74</ele>
        <time>2021-03-10T14:01:18.118Z</time>
      </trkpt>
      <trkpt lat="47.06058" lon="7.1797">
        <ele>439.77</ele>
        <time>2021-03-10T14:01:39.487Z</time>
      </trkpt>
      <trkpt lat="47.06059" lon="7.17967">
        <ele>439.82</ele>
        <time>2021-03-10T14:01:42.354Z</time>
      </trkpt>
      <trkpt lat="47.06059" lon="7.17963">
        <ele>439.88</ele>
        <time>2021-03-10T14:01:45.788Z</time>
      </trkpt>
      <trkpt lat="47.06058" lon="7.17958">
        <ele>439.87</ele>
        <time>2021-03-10T14:01:49.213Z</time>
      </trkpt>
      <trkpt lat="47.0604" lon="7.17956">
        <ele>441.55</ele>
        <time>2021-03-10T14:02:33.458Z</time>
      </trkpt>
      <trkpt lat="47.05993" lon="7.17948">
        <ele>445.69</ele>
        <time>2021-03-10T14:04:23.821Z</time>
      </trkpt>
      <trkpt lat="47.0599" lon="7.17948">
        <ele>446.09</ele>
        <time>2021-03-10T14:04:35.447Z</time>
      </trkpt>
      <trkpt lat="47.05986" lon="7.17949">
        <ele>446.44</ele>
        <time>2021-03-10T14:04:44.811Z</time>
      </trkpt>
      <trkpt lat="47.05983" lon="7.1795">
        <ele>446.66</ele>
        <time>2021-03-10T14:04:51.112Z</time>
      </trkpt>
      <trkpt lat="47.0598" lon="7.17953">
        <ele>447.05</ele>
        <time>2021-03-10T14:05:01.352Z</time>
      </trkpt>
      <trkpt lat="47.05976" lon="7.17957">
        <ele>447.49</ele>
        <time>2021-03-10T14:05:12.986Z</time>
      </trkpt>
      <trkpt lat="47.0597" lon="7.1797">
        <ele>448.45</ele>
        <time>2021-03-10T14:05:38.434Z</time>
      </trkpt>
      <trkpt lat="47.05967" lon="7.17975">
        <ele>448.88</ele>
        <time>2021-03-10T14:05:49.731Z</time>
      </trkpt>
      <trkpt lat="47.05964" lon="7.17979">
        <ele>449.44</ele>
        <time>2021-03-10T14:06:05.461Z</time>
      </trkpt>
      <trkpt lat="47.05962" lon="7.17981">
        <ele>449.62</ele>
        <time>2021-03-10T14:06:10.528Z</time>
      </trkpt>
      <trkpt lat="47.05959" lon="7.17983">
        <ele>450.03</ele>
        <time>2021-03-10T14:06:21.844Z</time>
      </trkpt>
      <trkpt lat="47.05958" lon="7.17988">
        <ele>449.85</ele>
        <time>2021-03-10T14:06:22.675Z</time>
      </trkpt>
      <trkpt lat="47.0595" lon="7.18023">
        <ele>462.51</ele>
        <time>2021-03-10T14:08:00.284Z</time>
      </trkpt>
      <trkpt lat="47.05968" lon="7.18056">
        <ele>465.8</ele>
        <time>2021-03-10T14:09:27.782Z</time>
      </trkpt>
      <trkpt lat="47.05976" lon="7.18072">
        <ele>467.33</ele>
        <time>2021-03-10T14:10:08.366Z</time>
      </trkpt>
      <trkpt lat="47.05979" lon="7.18079">
        <ele>467.7</ele>
        <time>2021-03-10T14:10:19.413Z</time>
      </trkpt>
      <trkpt lat="47.05981" lon="7.18088">
        <ele>468.17</ele>
        <time>2021-03-10T14:10:32.760Z</time>
      </trkpt>
      <trkpt lat="47.05983" lon="7.18096">
        <ele>468.67</ele>
        <time>2021-03-10T14:10:46.142Z</time>
      </trkpt>
      <trkpt lat="47.05984" lon="7.18104">
        <ele>468.7</ele>
        <time>2021-03-10T14:10:52.008Z</time>
      </trkpt>
      <trkpt lat="47.05984" lon="7.18113">
        <ele>468.98</ele>
        <time>2021-03-10T14:11:02.497Z</time>
      </trkpt>
      <trkpt lat="47.05983" lon="7.18122">
        <ele>468.84</ele>
        <time>2021-03-10T14:11:04.418Z</time>
      </trkpt>
      <trkpt lat="47.05981" lon="7.18128">
        <ele>468.55</ele>
        <time>2021-03-10T14:11:05.375Z</time>
      </trkpt>
      <trkpt lat="47.05978" lon="7.18134">
        <ele>468.25</ele>
        <time>2021-03-10T14:11:06.481Z</time>
      </trkpt>
      <trkpt lat="47.0597" lon="7.1815">
        <ele>467.47</ele>
        <time>2021-03-10T14:11:09.465Z</time>
      </trkpt>
      <trkpt lat="47.05958" lon="7.18171">
        <ele>467.09</ele>
        <time>2021-03-10T14:11:15.383Z</time>
      </trkpt>
      <trkpt lat="47.05958" lon="7.18172">
        <ele>467.09</ele>
        <time>2021-03-10T14:11:16.069Z</time>
      </trkpt>
      <trkpt lat="47.05958" lon="7.18172">
        <ele>467.09</ele>
        <time>2021-03-10T14:11:16.069Z</time>
      </trkpt>
      <trkpt lat="47.05948" lon="7.18189">
        <ele>466.72</ele>
        <time>2021-03-10T14:11:20.711Z</time>
      </trkpt>
      <trkpt lat="47.05931" lon="7.18219">
        <ele>466.56</ele>
        <time>2021-03-10T14:11:45.201Z</time>
      </trkpt>
      <trkpt lat="47.0592" lon="7.18237">
        <ele>466.51</ele>
        <time>2021-03-10T14:12:01.040Z</time>
      </trkpt>
      <trkpt lat="47.05917" lon="7.18244">
        <ele>466.34</ele>
        <time>2021-03-10T14:12:02.642Z</time>
      </trkpt>
      <trkpt lat="47.05915" lon="7.18248">
        <ele>466.4</ele>
        <time>2021-03-10T14:12:06.704Z</time>
      </trkpt>
      <trkpt lat="47.05913" lon="7.18254">
        <ele>466.42</ele>
        <time>2021-03-10T14:12:11.475Z</time>
      </trkpt>
      <trkpt lat="47.05902" lon="7.18297">
        <ele>470.7</ele>
        <time>2021-03-10T14:14:12.918Z</time>
      </trkpt>
      <trkpt lat="47.05858" lon="7.18383">
        <ele>464.1</ele>
        <time>2021-03-10T14:14:29.369Z</time>
      </trkpt>
      <trkpt lat="47.058" lon="7.18439">
        <ele>459.8</ele>
        <time>2021-03-10T14:14:44.179Z</time>
      </trkpt>
      <trkpt lat="47.05712" lon="7.18528">
        <ele>454</ele>
        <time>2021-03-10T14:15:08.440Z</time>
      </trkpt>
      <trkpt lat="47.05672" lon="7.18572">
        <ele>452.2</ele>
        <time>2021-03-10T14:15:21.834Z</time>
      </trkpt>
      <trkpt lat="47.05672" lon="7.18601">
        <ele>452</ele>
        <time>2021-03-10T14:15:28.946Z</time>
      </trkpt>
      <trkpt lat="47.05633" lon="7.1854">
        <ele>450</ele>
        <time>2021-03-10T14:15:44.357Z</time>
      </trkpt>
      <trkpt lat="47.05502" lon="7.18383">
        <ele>445.4</ele>
        <time>2021-03-10T14:16:33.993Z</time>
      </trkpt>
      <trkpt lat="47.05481" lon="7.18337">
        <ele>448.5</ele>
        <time>2021-03-10T14:17:58.096Z</time>
      </trkpt>
    </trkseg>
  </trk>
</gpx>